<?xml version="1.0" encoding="UTF-8" standalone="no" ?>
<gpx xmlns="http://www.topografix.com/GPX/1/1" xmlns:xsi="http://www.w3.org/2001/XMLSchema-instance" xsi:schemaLocation="http://www.topografix.com/GPX/1/1 http://www.topografix.com/GPX/1/1/gpx.xsd" version="1.1" creator="VisuGPX - https://www.visugpx.com">
  <metadata>
    <name>RANDO SAGNES ET GOUDOULET 24 KM</name>
    <desc><![CDATA[RANDO DEPART ARRIVEE 24KM SAGNES ET GOUDOULET 07450. CHABRON.CASCADE DU RAY PIC.PEREYRES.CHASTAGNAS.LA BOITTE.SUC LA PISE]]></desc>
  </metadata>
  <trk>
    <name><![CDATA[27-JUIL-23 17:53:52]]></name>
    <extensions>
      <line xmlns="http://www.topografix.com/GPX/gpx_style/0/2">
        <color>0000FF</color>
        <width>4</width>
      </line>
    </extensions>
    <trkseg>
      <trkpt lat="44.78983" lon="4.22607">
        <ele>1176.79</ele>
        <time>2023-07-27T07:30:22Z</time>
      </trkpt>
      <trkpt lat="44.79018" lon="4.22577">
        <ele>1240.24</ele>
        <time>2023-07-27T07:30:36Z</time>
      </trkpt>
      <trkpt lat="44.79029" lon="4.22568">
        <ele>1249.37</ele>
        <time>2023-07-27T07:30:41Z</time>
      </trkpt>
      <trkpt lat="44.79032" lon="4.22566">
        <ele>1250.81</ele>
        <time>2023-07-27T07:30:45Z</time>
      </trkpt>
      <trkpt lat="44.79034" lon="4.22565">
        <ele>1251.77</ele>
        <time>2023-07-27T07:30:48Z</time>
      </trkpt>
      <trkpt lat="44.79035" lon="4.22569">
        <ele>1250.81</ele>
        <time>2023-07-27T07:30:52Z</time>
      </trkpt>
      <trkpt lat="44.79033" lon="4.22583">
        <ele>1249.37</ele>
        <time>2023-07-27T07:31:07Z</time>
      </trkpt>
      <trkpt lat="44.79032" lon="4.22564">
        <ele>1249.37</ele>
        <time>2023-07-27T07:33:27Z</time>
      </trkpt>
      <trkpt lat="44.79028" lon="4.22561">
        <ele>1254.66</ele>
        <time>2023-07-27T07:33:46Z</time>
      </trkpt>
      <trkpt lat="44.79031" lon="4.22564">
        <ele>1255.62</ele>
        <time>2023-07-27T07:34:05Z</time>
      </trkpt>
      <trkpt lat="44.79029" lon="4.22564">
        <ele>1253.22</ele>
        <time>2023-07-27T07:34:28Z</time>
      </trkpt>
      <trkpt lat="44.79038" lon="4.22563">
        <ele>1255.14</ele>
        <time>2023-07-27T07:34:46Z</time>
      </trkpt>
      <trkpt lat="44.79041" lon="4.22564">
        <ele>1253.22</ele>
        <time>2023-07-27T07:35:02Z</time>
      </trkpt>
      <trkpt lat="44.7904" lon="4.22562">
        <ele>1247.45</ele>
        <time>2023-07-27T07:35:19Z</time>
      </trkpt>
      <trkpt lat="44.7904" lon="4.22561">
        <ele>1243.6</ele>
        <time>2023-07-27T07:35:35Z</time>
      </trkpt>
      <trkpt lat="44.79039" lon="4.22561">
        <ele>1242.16</ele>
        <time>2023-07-27T07:35:59Z</time>
      </trkpt>
      <trkpt lat="44.79039" lon="4.22562">
        <ele>1241.68</ele>
        <time>2023-07-27T07:36:20Z</time>
      </trkpt>
      <trkpt lat="44.79039" lon="4.22562">
        <ele>1242.64</ele>
        <time>2023-07-27T07:36:36Z</time>
      </trkpt>
      <trkpt lat="44.79038" lon="4.22561">
        <ele>1242.16</ele>
        <time>2023-07-27T07:36:53Z</time>
      </trkpt>
      <trkpt lat="44.79038" lon="4.22562">
        <ele>1242.16</ele>
        <time>2023-07-27T07:37:13Z</time>
      </trkpt>
      <trkpt lat="44.79038" lon="4.22562">
        <ele>1241.68</ele>
        <time>2023-07-27T07:37:30Z</time>
      </trkpt>
      <trkpt lat="44.79038" lon="4.22561">
        <ele>1241.68</ele>
        <time>2023-07-27T07:37:50Z</time>
      </trkpt>
      <trkpt lat="44.79038" lon="4.22561">
        <ele>1241.2</ele>
        <time>2023-07-27T07:38:09Z</time>
      </trkpt>
      <trkpt lat="44.79036" lon="4.2256">
        <ele>1241.2</ele>
        <time>2023-07-27T07:38:21Z</time>
      </trkpt>
      <trkpt lat="44.79036" lon="4.2256">
        <ele>1241.2</ele>
        <time>2023-07-27T07:38:39Z</time>
      </trkpt>
      <trkpt lat="44.79036" lon="4.22559">
        <ele>1241.2</ele>
        <time>2023-07-27T07:38:57Z</time>
      </trkpt>
      <trkpt lat="44.79037" lon="4.22559">
        <ele>1240.72</ele>
        <time>2023-07-27T07:39:14Z</time>
      </trkpt>
      <trkpt lat="44.79037" lon="4.22559">
        <ele>1240.72</ele>
        <time>2023-07-27T07:39:31Z</time>
      </trkpt>
      <trkpt lat="44.79038" lon="4.2256">
        <ele>1240.72</ele>
        <time>2023-07-27T07:39:50Z</time>
      </trkpt>
      <trkpt lat="44.79038" lon="4.22562">
        <ele>1240.24</ele>
        <time>2023-07-27T07:40:08Z</time>
      </trkpt>
      <trkpt lat="44.79042" lon="4.22568">
        <ele>1240.24</ele>
        <time>2023-07-27T07:40:21Z</time>
      </trkpt>
      <trkpt lat="44.79042" lon="4.22568">
        <ele>1240.24</ele>
        <time>2023-07-27T07:40:33Z</time>
      </trkpt>
      <trkpt lat="44.79041" lon="4.22565">
        <ele>1240.24</ele>
        <time>2023-07-27T07:40:46Z</time>
      </trkpt>
      <trkpt lat="44.79041" lon="4.22561">
        <ele>1239.76</ele>
        <time>2023-07-27T07:40:49Z</time>
      </trkpt>
      <trkpt lat="44.79044" lon="4.22553">
        <ele>1235.91</ele>
        <time>2023-07-27T07:41:01Z</time>
      </trkpt>
      <trkpt lat="44.79043" lon="4.2255">
        <ele>1236.39</ele>
        <time>2023-07-27T07:41:14Z</time>
      </trkpt>
      <trkpt lat="44.79044" lon="4.22547">
        <ele>1236.87</ele>
        <time>2023-07-27T07:41:30Z</time>
      </trkpt>
      <trkpt lat="44.79042" lon="4.22544">
        <ele>1236.87</ele>
        <time>2023-07-27T07:41:42Z</time>
      </trkpt>
      <trkpt lat="44.7904" lon="4.22542">
        <ele>1236.87</ele>
        <time>2023-07-27T07:41:44Z</time>
      </trkpt>
      <trkpt lat="44.79032" lon="4.2254">
        <ele>1236.87</ele>
        <time>2023-07-27T07:41:54Z</time>
      </trkpt>
      <trkpt lat="44.79018" lon="4.22537">
        <ele>1236.87</ele>
        <time>2023-07-27T07:42:07Z</time>
      </trkpt>
      <trkpt lat="44.79004" lon="4.22528">
        <ele>1235.43</ele>
        <time>2023-07-27T07:42:20Z</time>
      </trkpt>
      <trkpt lat="44.79" lon="4.22528">
        <ele>1234.47</ele>
        <time>2023-07-27T07:42:32Z</time>
      </trkpt>
      <trkpt lat="44.78998" lon="4.22533">
        <ele>1233.99</ele>
        <time>2023-07-27T07:42:40Z</time>
      </trkpt>
      <trkpt lat="44.78994" lon="4.2256">
        <ele>1229.66</ele>
        <time>2023-07-27T07:42:57Z</time>
      </trkpt>
      <trkpt lat="44.78995" lon="4.22581">
        <ele>1227.74</ele>
        <time>2023-07-27T07:43:08Z</time>
      </trkpt>
      <trkpt lat="44.78997" lon="4.22603">
        <ele>1226.78</ele>
        <time>2023-07-27T07:43:20Z</time>
      </trkpt>
      <trkpt lat="44.79005" lon="4.22629">
        <ele>1227.26</ele>
        <time>2023-07-27T07:43:35Z</time>
      </trkpt>
      <trkpt lat="44.79011" lon="4.22654">
        <ele>1227.26</ele>
        <time>2023-07-27T07:43:48Z</time>
      </trkpt>
      <trkpt lat="44.79013" lon="4.22666">
        <ele>1228.22</ele>
        <time>2023-07-27T07:43:54Z</time>
      </trkpt>
      <trkpt lat="44.7901" lon="4.22702">
        <ele>1227.26</ele>
        <time>2023-07-27T07:44:13Z</time>
      </trkpt>
      <trkpt lat="44.79008" lon="4.22728">
        <ele>1227.26</ele>
        <time>2023-07-27T07:44:28Z</time>
      </trkpt>
      <trkpt lat="44.79003" lon="4.22745">
        <ele>1225.82</ele>
        <time>2023-07-27T07:44:39Z</time>
      </trkpt>
      <trkpt lat="44.78998" lon="4.22759">
        <ele>1224.86</ele>
        <time>2023-07-27T07:44:47Z</time>
      </trkpt>
      <trkpt lat="44.78991" lon="4.22786">
        <ele>1226.3</ele>
        <time>2023-07-27T07:45:02Z</time>
      </trkpt>
      <trkpt lat="44.78991" lon="4.22789">
        <ele>1226.3</ele>
        <time>2023-07-27T07:45:04Z</time>
      </trkpt>
      <trkpt lat="44.78988" lon="4.22812">
        <ele>1224.86</ele>
        <time>2023-07-27T07:45:13Z</time>
      </trkpt>
      <trkpt lat="44.78976" lon="4.22833">
        <ele>1223.9</ele>
        <time>2023-07-27T07:45:26Z</time>
      </trkpt>
      <trkpt lat="44.78969" lon="4.2284">
        <ele>1222.93</ele>
        <time>2023-07-27T07:45:35Z</time>
      </trkpt>
      <trkpt lat="44.78961" lon="4.22845">
        <ele>1223.42</ele>
        <time>2023-07-27T07:45:42Z</time>
      </trkpt>
      <trkpt lat="44.78961" lon="4.22863">
        <ele>1223.9</ele>
        <time>2023-07-27T07:45:52Z</time>
      </trkpt>
      <trkpt lat="44.78955" lon="4.22877">
        <ele>1223.9</ele>
        <time>2023-07-27T07:46:01Z</time>
      </trkpt>
      <trkpt lat="44.78944" lon="4.22884">
        <ele>1223.9</ele>
        <time>2023-07-27T07:46:10Z</time>
      </trkpt>
      <trkpt lat="44.78928" lon="4.22889">
        <ele>1223.42</ele>
        <time>2023-07-27T07:46:23Z</time>
      </trkpt>
      <trkpt lat="44.78917" lon="4.22891">
        <ele>1222.93</ele>
        <time>2023-07-27T07:46:33Z</time>
      </trkpt>
      <trkpt lat="44.78913" lon="4.22891">
        <ele>1222.93</ele>
        <time>2023-07-27T07:46:38Z</time>
      </trkpt>
      <trkpt lat="44.78896" lon="4.22887">
        <ele>1223.9</ele>
        <time>2023-07-27T07:46:50Z</time>
      </trkpt>
      <trkpt lat="44.78887" lon="4.22888">
        <ele>1224.38</ele>
        <time>2023-07-27T07:46:58Z</time>
      </trkpt>
      <trkpt lat="44.78873" lon="4.229">
        <ele>1224.86</ele>
        <time>2023-07-27T07:47:11Z</time>
      </trkpt>
      <trkpt lat="44.78866" lon="4.22909">
        <ele>1224.86</ele>
        <time>2023-07-27T07:47:19Z</time>
      </trkpt>
      <trkpt lat="44.78864" lon="4.22913">
        <ele>1224.86</ele>
        <time>2023-07-27T07:47:23Z</time>
      </trkpt>
      <trkpt lat="44.78852" lon="4.2293">
        <ele>1225.82</ele>
        <time>2023-07-27T07:47:36Z</time>
      </trkpt>
      <trkpt lat="44.78839" lon="4.22953">
        <ele>1227.74</ele>
        <time>2023-07-27T07:47:54Z</time>
      </trkpt>
      <trkpt lat="44.78827" lon="4.22977">
        <ele>1229.18</ele>
        <time>2023-07-27T07:48:16Z</time>
      </trkpt>
      <trkpt lat="44.78806" lon="4.2301">
        <ele>1230.62</ele>
        <time>2023-07-27T07:48:38Z</time>
      </trkpt>
      <trkpt lat="44.78785" lon="4.23037">
        <ele>1230.62</ele>
        <time>2023-07-27T07:49:00Z</time>
      </trkpt>
      <trkpt lat="44.7876" lon="4.23062">
        <ele>1232.55</ele>
        <time>2023-07-27T07:49:21Z</time>
      </trkpt>
      <trkpt lat="44.78738" lon="4.23082">
        <ele>1234.95</ele>
        <time>2023-07-27T07:49:43Z</time>
      </trkpt>
      <trkpt lat="44.78713" lon="4.23098">
        <ele>1233.51</ele>
        <time>2023-07-27T07:50:03Z</time>
      </trkpt>
      <trkpt lat="44.78695" lon="4.23126">
        <ele>1230.62</ele>
        <time>2023-07-27T07:50:25Z</time>
      </trkpt>
      <trkpt lat="44.78685" lon="4.23145">
        <ele>1230.62</ele>
        <time>2023-07-27T07:50:38Z</time>
      </trkpt>
      <trkpt lat="44.7866" lon="4.23157">
        <ele>1233.51</ele>
        <time>2023-07-27T07:51:00Z</time>
      </trkpt>
      <trkpt lat="44.78636" lon="4.23161">
        <ele>1236.87</ele>
        <time>2023-07-27T07:51:22Z</time>
      </trkpt>
      <trkpt lat="44.78606" lon="4.2317">
        <ele>1247.45</ele>
        <time>2023-07-27T07:51:46Z</time>
      </trkpt>
      <trkpt lat="44.78576" lon="4.23177">
        <ele>1256.58</ele>
        <time>2023-07-27T07:52:11Z</time>
      </trkpt>
      <trkpt lat="44.78555" lon="4.23196">
        <ele>1261.39</ele>
        <time>2023-07-27T07:52:34Z</time>
      </trkpt>
      <trkpt lat="44.78533" lon="4.23228">
        <ele>1256.58</ele>
        <time>2023-07-27T07:52:53Z</time>
      </trkpt>
      <trkpt lat="44.7852" lon="4.23257">
        <ele>1256.1</ele>
        <time>2023-07-27T07:53:14Z</time>
      </trkpt>
      <trkpt lat="44.78509" lon="4.23284">
        <ele>1258.02</ele>
        <time>2023-07-27T07:53:31Z</time>
      </trkpt>
      <trkpt lat="44.78486" lon="4.23307">
        <ele>1258.02</ele>
        <time>2023-07-27T07:53:53Z</time>
      </trkpt>
      <trkpt lat="44.78468" lon="4.23326">
        <ele>1258.98</ele>
        <time>2023-07-27T07:54:11Z</time>
      </trkpt>
      <trkpt lat="44.78444" lon="4.23349">
        <ele>1260.91</ele>
        <time>2023-07-27T07:54:33Z</time>
      </trkpt>
      <trkpt lat="44.78424" lon="4.23376">
        <ele>1261.39</ele>
        <time>2023-07-27T07:54:54Z</time>
      </trkpt>
      <trkpt lat="44.78404" lon="4.23397">
        <ele>1261.87</ele>
        <time>2023-07-27T07:55:13Z</time>
      </trkpt>
      <trkpt lat="44.78376" lon="4.23412">
        <ele>1261.87</ele>
        <time>2023-07-27T07:55:34Z</time>
      </trkpt>
      <trkpt lat="44.7835" lon="4.23432">
        <ele>1260.43</ele>
        <time>2023-07-27T07:55:56Z</time>
      </trkpt>
      <trkpt lat="44.78322" lon="4.23446">
        <ele>1258.98</ele>
        <time>2023-07-27T07:56:17Z</time>
      </trkpt>
      <trkpt lat="44.78295" lon="4.23454">
        <ele>1261.39</ele>
        <time>2023-07-27T07:56:36Z</time>
      </trkpt>
      <trkpt lat="44.78275" lon="4.23462">
        <ele>1262.35</ele>
        <time>2023-07-27T07:56:55Z</time>
      </trkpt>
      <trkpt lat="44.78276" lon="4.23463">
        <ele>1261.87</ele>
        <time>2023-07-27T07:57:00Z</time>
      </trkpt>
      <trkpt lat="44.783" lon="4.2348">
        <ele>1258.5</ele>
        <time>2023-07-27T07:57:21Z</time>
      </trkpt>
      <trkpt lat="44.78325" lon="4.23499">
        <ele>1255.14</ele>
        <time>2023-07-27T07:57:42Z</time>
      </trkpt>
      <trkpt lat="44.78348" lon="4.23518">
        <ele>1253.22</ele>
        <time>2023-07-27T07:58:03Z</time>
      </trkpt>
      <trkpt lat="44.78371" lon="4.23535">
        <ele>1253.22</ele>
        <time>2023-07-27T07:58:26Z</time>
      </trkpt>
      <trkpt lat="44.78393" lon="4.23546">
        <ele>1254.18</ele>
        <time>2023-07-27T07:58:47Z</time>
      </trkpt>
      <trkpt lat="44.78416" lon="4.23558">
        <ele>1255.14</ele>
        <time>2023-07-27T07:59:10Z</time>
      </trkpt>
      <trkpt lat="44.78443" lon="4.2357">
        <ele>1258.5</ele>
        <time>2023-07-27T07:59:36Z</time>
      </trkpt>
      <trkpt lat="44.78446" lon="4.23573">
        <ele>1258.5</ele>
        <time>2023-07-27T07:59:39Z</time>
      </trkpt>
      <trkpt lat="44.78462" lon="4.23601">
        <ele>1263.79</ele>
        <time>2023-07-27T07:59:57Z</time>
      </trkpt>
      <trkpt lat="44.78476" lon="4.2363">
        <ele>1270.04</ele>
        <time>2023-07-27T08:00:17Z</time>
      </trkpt>
      <trkpt lat="44.78483" lon="4.23659">
        <ele>1273.4</ele>
        <time>2023-07-27T08:00:33Z</time>
      </trkpt>
      <trkpt lat="44.78489" lon="4.23688">
        <ele>1277.73</ele>
        <time>2023-07-27T08:00:49Z</time>
      </trkpt>
      <trkpt lat="44.78495" lon="4.23705">
        <ele>1276.77</ele>
        <time>2023-07-27T08:00:59Z</time>
      </trkpt>
      <trkpt lat="44.78503" lon="4.23721">
        <ele>1277.25</ele>
        <time>2023-07-27T08:01:09Z</time>
      </trkpt>
      <trkpt lat="44.7851" lon="4.23742">
        <ele>1277.73</ele>
        <time>2023-07-27T08:01:20Z</time>
      </trkpt>
      <trkpt lat="44.78518" lon="4.23762">
        <ele>1278.69</ele>
        <time>2023-07-27T08:01:31Z</time>
      </trkpt>
      <trkpt lat="44.78526" lon="4.23777">
        <ele>1279.65</ele>
        <time>2023-07-27T08:01:41Z</time>
      </trkpt>
      <trkpt lat="44.78543" lon="4.23796">
        <ele>1280.61</ele>
        <time>2023-07-27T08:01:59Z</time>
      </trkpt>
      <trkpt lat="44.78562" lon="4.23817">
        <ele>1281.57</ele>
        <time>2023-07-27T08:02:17Z</time>
      </trkpt>
      <trkpt lat="44.7857" lon="4.23825">
        <ele>1281.57</ele>
        <time>2023-07-27T08:02:25Z</time>
      </trkpt>
      <trkpt lat="44.78592" lon="4.23834">
        <ele>1284.94</ele>
        <time>2023-07-27T08:02:45Z</time>
      </trkpt>
      <trkpt lat="44.78617" lon="4.2383">
        <ele>1287.34</ele>
        <time>2023-07-27T08:03:07Z</time>
      </trkpt>
      <trkpt lat="44.78626" lon="4.23852">
        <ele>1284.94</ele>
        <time>2023-07-27T08:03:22Z</time>
      </trkpt>
      <trkpt lat="44.78635" lon="4.2388">
        <ele>1283.02</ele>
        <time>2023-07-27T08:03:39Z</time>
      </trkpt>
      <trkpt lat="44.78653" lon="4.23898">
        <ele>1285.42</ele>
        <time>2023-07-27T08:03:55Z</time>
      </trkpt>
      <trkpt lat="44.78665" lon="4.23913">
        <ele>1286.38</ele>
        <time>2023-07-27T08:04:07Z</time>
      </trkpt>
      <trkpt lat="44.78671" lon="4.2393">
        <ele>1287.82</ele>
        <time>2023-07-27T08:04:17Z</time>
      </trkpt>
      <trkpt lat="44.78678" lon="4.23952">
        <ele>1288.78</ele>
        <time>2023-07-27T08:04:29Z</time>
      </trkpt>
      <trkpt lat="44.78685" lon="4.23971">
        <ele>1289.27</ele>
        <time>2023-07-27T08:04:40Z</time>
      </trkpt>
      <trkpt lat="44.78692" lon="4.23989">
        <ele>1287.34</ele>
        <time>2023-07-27T08:04:50Z</time>
      </trkpt>
      <trkpt lat="44.78695" lon="4.24004">
        <ele>1286.38</ele>
        <time>2023-07-27T08:05:00Z</time>
      </trkpt>
      <trkpt lat="44.78698" lon="4.24013">
        <ele>1285.42</ele>
        <time>2023-07-27T08:05:09Z</time>
      </trkpt>
      <trkpt lat="44.78708" lon="4.24027">
        <ele>1285.42</ele>
        <time>2023-07-27T08:05:20Z</time>
      </trkpt>
      <trkpt lat="44.7871" lon="4.24031">
        <ele>1284.94</ele>
        <time>2023-07-27T08:05:24Z</time>
      </trkpt>
      <trkpt lat="44.78721" lon="4.24044">
        <ele>1284.94</ele>
        <time>2023-07-27T08:05:39Z</time>
      </trkpt>
      <trkpt lat="44.78727" lon="4.2405">
        <ele>1283.98</ele>
        <time>2023-07-27T08:05:48Z</time>
      </trkpt>
      <trkpt lat="44.78741" lon="4.24058">
        <ele>1283.98</ele>
        <time>2023-07-27T08:05:59Z</time>
      </trkpt>
      <trkpt lat="44.78755" lon="4.24066">
        <ele>1283.02</ele>
        <time>2023-07-27T08:06:10Z</time>
      </trkpt>
      <trkpt lat="44.78765" lon="4.24071">
        <ele>1282.06</ele>
        <time>2023-07-27T08:06:19Z</time>
      </trkpt>
      <trkpt lat="44.78768" lon="4.24073">
        <ele>1282.06</ele>
        <time>2023-07-27T08:06:21Z</time>
      </trkpt>
      <trkpt lat="44.78774" lon="4.24076">
        <ele>1282.06</ele>
        <time>2023-07-27T08:06:25Z</time>
      </trkpt>
      <trkpt lat="44.78788" lon="4.24081">
        <ele>1281.57</ele>
        <time>2023-07-27T08:06:35Z</time>
      </trkpt>
      <trkpt lat="44.788" lon="4.24082">
        <ele>1282.06</ele>
        <time>2023-07-27T08:06:46Z</time>
      </trkpt>
      <trkpt lat="44.78816" lon="4.24083">
        <ele>1281.57</ele>
        <time>2023-07-27T08:06:56Z</time>
      </trkpt>
      <trkpt lat="44.78825" lon="4.24079">
        <ele>1280.13</ele>
        <time>2023-07-27T08:07:06Z</time>
      </trkpt>
      <trkpt lat="44.78838" lon="4.24063">
        <ele>1279.65</ele>
        <time>2023-07-27T08:07:19Z</time>
      </trkpt>
      <trkpt lat="44.78844" lon="4.24055">
        <ele>1279.17</ele>
        <time>2023-07-27T08:07:29Z</time>
      </trkpt>
      <trkpt lat="44.78856" lon="4.24045">
        <ele>1279.17</ele>
        <time>2023-07-27T08:07:39Z</time>
      </trkpt>
      <trkpt lat="44.78869" lon="4.24042">
        <ele>1279.17</ele>
        <time>2023-07-27T08:07:51Z</time>
      </trkpt>
      <trkpt lat="44.78869" lon="4.24043">
        <ele>1279.17</ele>
        <time>2023-07-27T08:07:52Z</time>
      </trkpt>
      <trkpt lat="44.78886" lon="4.24049">
        <ele>1279.17</ele>
        <time>2023-07-27T08:08:08Z</time>
      </trkpt>
      <trkpt lat="44.78895" lon="4.24049">
        <ele>1279.65</ele>
        <time>2023-07-27T08:08:13Z</time>
      </trkpt>
      <trkpt lat="44.78912" lon="4.24043">
        <ele>1277.73</ele>
        <time>2023-07-27T08:08:25Z</time>
      </trkpt>
      <trkpt lat="44.78926" lon="4.24035">
        <ele>1275.81</ele>
        <time>2023-07-27T08:08:37Z</time>
      </trkpt>
      <trkpt lat="44.7894" lon="4.24027">
        <ele>1275.33</ele>
        <time>2023-07-27T08:08:47Z</time>
      </trkpt>
      <trkpt lat="44.78954" lon="4.24021">
        <ele>1274.85</ele>
        <time>2023-07-27T08:08:57Z</time>
      </trkpt>
      <trkpt lat="44.78971" lon="4.2402">
        <ele>1274.36</ele>
        <time>2023-07-27T08:09:09Z</time>
      </trkpt>
      <trkpt lat="44.78987" lon="4.24021">
        <ele>1272.92</ele>
        <time>2023-07-27T08:09:21Z</time>
      </trkpt>
      <trkpt lat="44.78987" lon="4.24021">
        <ele>1272.92</ele>
        <time>2023-07-27T08:09:22Z</time>
      </trkpt>
      <trkpt lat="44.79005" lon="4.24024">
        <ele>1271.48</ele>
        <time>2023-07-27T08:09:34Z</time>
      </trkpt>
      <trkpt lat="44.79022" lon="4.24025">
        <ele>1271.48</ele>
        <time>2023-07-27T08:09:44Z</time>
      </trkpt>
      <trkpt lat="44.79037" lon="4.24027">
        <ele>1270.04</ele>
        <time>2023-07-27T08:09:54Z</time>
      </trkpt>
      <trkpt lat="44.79041" lon="4.24029">
        <ele>1269.08</ele>
        <time>2023-07-27T08:10:00Z</time>
      </trkpt>
      <trkpt lat="44.79048" lon="4.24044">
        <ele>1267.64</ele>
        <time>2023-07-27T08:10:08Z</time>
      </trkpt>
      <trkpt lat="44.79059" lon="4.24065">
        <ele>1265.23</ele>
        <time>2023-07-27T08:10:22Z</time>
      </trkpt>
      <trkpt lat="44.79059" lon="4.24067">
        <ele>1265.2</ele>
      </trkpt>
      <trkpt lat="44.79064" lon="4.24075">
        <ele>1264.6</ele>
      </trkpt>
      <trkpt lat="44.79065" lon="4.24077">
        <ele>1264.5</ele>
      </trkpt>
      <trkpt lat="44.79053" lon="4.24073">
        <ele>1264.3</ele>
      </trkpt>
      <trkpt lat="44.7904" lon="4.2406">
        <ele>1263.4</ele>
      </trkpt>
      <trkpt lat="44.79029" lon="4.24059">
        <ele>1261.8</ele>
      </trkpt>
      <trkpt lat="44.79023" lon="4.24059">
        <ele>1261.9</ele>
      </trkpt>
      <trkpt lat="44.79013" lon="4.2407">
        <ele>1260.4</ele>
      </trkpt>
      <trkpt lat="44.79002" lon="4.24071">
        <ele>1260.1</ele>
      </trkpt>
      <trkpt lat="44.78966" lon="4.24091">
        <ele>1257.7</ele>
      </trkpt>
      <trkpt lat="44.78951" lon="4.24104">
        <ele>1257.5</ele>
      </trkpt>
      <trkpt lat="44.78946" lon="4.24109">
        <ele>1257.2</ele>
      </trkpt>
      <trkpt lat="44.78937" lon="4.24123">
        <ele>1255.1</ele>
      </trkpt>
      <trkpt lat="44.78925" lon="4.24133">
        <ele>1254.3</ele>
      </trkpt>
      <trkpt lat="44.78915" lon="4.24146">
        <ele>1252.1</ele>
      </trkpt>
      <trkpt lat="44.78892" lon="4.24179">
        <ele>1245.2</ele>
      </trkpt>
      <trkpt lat="44.78876" lon="4.24197">
        <ele>1240.2</ele>
      </trkpt>
      <trkpt lat="44.78875" lon="4.24199">
        <ele>1239.6</ele>
      </trkpt>
      <trkpt lat="44.78858" lon="4.2421">
        <ele>1236.6</ele>
      </trkpt>
      <trkpt lat="44.7885" lon="4.24221">
        <ele>1235.2</ele>
      </trkpt>
      <trkpt lat="44.78844" lon="4.24235">
        <ele>1232.9</ele>
      </trkpt>
      <trkpt lat="44.78838" lon="4.2427">
        <ele>1225.6</ele>
      </trkpt>
      <trkpt lat="44.78838" lon="4.24298">
        <ele>1217.5</ele>
      </trkpt>
      <trkpt lat="44.78835" lon="4.24312">
        <ele>1214.5</ele>
      </trkpt>
      <trkpt lat="44.78836" lon="4.24332">
        <ele>1208.2</ele>
      </trkpt>
      <trkpt lat="44.7883" lon="4.24342">
        <ele>1207.4</ele>
      </trkpt>
      <trkpt lat="44.78826" lon="4.24356">
        <ele>1204.4</ele>
      </trkpt>
      <trkpt lat="44.78817" lon="4.24369">
        <ele>1201.6</ele>
      </trkpt>
      <trkpt lat="44.78813" lon="4.24382">
        <ele>1198.1</ele>
      </trkpt>
      <trkpt lat="44.78805" lon="4.24393">
        <ele>1196.8</ele>
      </trkpt>
      <trkpt lat="44.78794" lon="4.24434">
        <ele>1184.1</ele>
      </trkpt>
      <trkpt lat="44.78793" lon="4.24444">
        <ele>1181.1</ele>
      </trkpt>
      <trkpt lat="44.78787" lon="4.24461">
        <ele>1176.6</ele>
      </trkpt>
      <trkpt lat="44.78783" lon="4.24492">
        <ele>1169</ele>
      </trkpt>
      <trkpt lat="44.7878" lon="4.24505">
        <ele>1166.6</ele>
      </trkpt>
      <trkpt lat="44.7876" lon="4.24544">
        <ele>1159.1</ele>
      </trkpt>
      <trkpt lat="44.78759" lon="4.24545">
        <ele>1159</ele>
      </trkpt>
      <trkpt lat="44.78765" lon="4.24543">
        <ele>1158.3</ele>
      </trkpt>
      <trkpt lat="44.78777" lon="4.24541">
        <ele>1156.4</ele>
      </trkpt>
      <trkpt lat="44.78783" lon="4.24538">
        <ele>1154.7</ele>
      </trkpt>
      <trkpt lat="44.78794" lon="4.24536">
        <ele>1149.9</ele>
      </trkpt>
      <trkpt lat="44.78801" lon="4.2453">
        <ele>1148.5</ele>
      </trkpt>
      <trkpt lat="44.78807" lon="4.24529">
        <ele>1146.5</ele>
      </trkpt>
      <trkpt lat="44.78823" lon="4.24528">
        <ele>1146.3</ele>
      </trkpt>
      <trkpt lat="44.7883" lon="4.2453">
        <ele>1145.7</ele>
      </trkpt>
      <trkpt lat="44.78832" lon="4.24569">
        <ele>1140.1</ele>
      </trkpt>
      <trkpt lat="44.78828" lon="4.24594">
        <ele>1135.1</ele>
      </trkpt>
      <trkpt lat="44.78827" lon="4.24607">
        <ele>1143.14</ele>
        <time>2023-07-27T08:31:01Z</time>
      </trkpt>
      <trkpt lat="44.78828" lon="4.24609">
        <ele>1142.66</ele>
        <time>2023-07-27T08:31:02Z</time>
      </trkpt>
      <trkpt lat="44.78847" lon="4.24658">
        <ele>1134.01</ele>
        <time>2023-07-27T08:31:25Z</time>
      </trkpt>
      <trkpt lat="44.78855" lon="4.24675">
        <ele>1131.61</ele>
        <time>2023-07-27T08:31:40Z</time>
      </trkpt>
      <trkpt lat="44.7886" lon="4.24701">
        <ele>1128.24</ele>
        <time>2023-07-27T08:31:57Z</time>
      </trkpt>
      <trkpt lat="44.78861" lon="4.24724">
        <ele>1126.32</ele>
        <time>2023-07-27T08:32:11Z</time>
      </trkpt>
      <trkpt lat="44.78862" lon="4.2475">
        <ele>1122.48</ele>
        <time>2023-07-27T08:32:29Z</time>
      </trkpt>
      <trkpt lat="44.78861" lon="4.24768">
        <ele>1120.07</ele>
        <time>2023-07-27T08:32:44Z</time>
      </trkpt>
      <trkpt lat="44.7886" lon="4.24794">
        <ele>1115.75</ele>
        <time>2023-07-27T08:32:59Z</time>
      </trkpt>
      <trkpt lat="44.78864" lon="4.24817">
        <ele>1109.5</ele>
        <time>2023-07-27T08:33:14Z</time>
      </trkpt>
      <trkpt lat="44.78857" lon="4.24839">
        <ele>1106.13</ele>
        <time>2023-07-27T08:33:32Z</time>
      </trkpt>
      <trkpt lat="44.78856" lon="4.24853">
        <ele>1104.69</ele>
        <time>2023-07-27T08:33:45Z</time>
      </trkpt>
      <trkpt lat="44.78856" lon="4.2487">
        <ele>1102.77</ele>
        <time>2023-07-27T08:34:00Z</time>
      </trkpt>
      <trkpt lat="44.78864" lon="4.24873">
        <ele>1101.81</ele>
        <time>2023-07-27T08:34:15Z</time>
      </trkpt>
      <trkpt lat="44.78868" lon="4.24887">
        <ele>1097.48</ele>
        <time>2023-07-27T08:34:28Z</time>
      </trkpt>
      <trkpt lat="44.78863" lon="4.24906">
        <ele>1092.68</ele>
        <time>2023-07-27T08:34:44Z</time>
      </trkpt>
      <trkpt lat="44.78857" lon="4.24923">
        <ele>1085.95</ele>
        <time>2023-07-27T08:34:58Z</time>
      </trkpt>
      <trkpt lat="44.78852" lon="4.24934">
        <ele>1082.1</ele>
        <time>2023-07-27T08:35:07Z</time>
      </trkpt>
      <trkpt lat="44.78847" lon="4.24942">
        <ele>1080.18</ele>
        <time>2023-07-27T08:35:22Z</time>
      </trkpt>
      <trkpt lat="44.78839" lon="4.24947">
        <ele>1077.29</ele>
        <time>2023-07-27T08:35:40Z</time>
      </trkpt>
      <trkpt lat="44.78843" lon="4.24963">
        <ele>1072.01</ele>
        <time>2023-07-27T08:35:58Z</time>
      </trkpt>
      <trkpt lat="44.78843" lon="4.24969">
        <ele>1070.57</ele>
        <time>2023-07-27T08:36:09Z</time>
      </trkpt>
      <trkpt lat="44.78847" lon="4.24982">
        <ele>1068.64</ele>
        <time>2023-07-27T08:36:25Z</time>
      </trkpt>
      <trkpt lat="44.78851" lon="4.24993">
        <ele>1067.68</ele>
        <time>2023-07-27T08:36:38Z</time>
      </trkpt>
      <trkpt lat="44.78859" lon="4.24994">
        <ele>1063.84</ele>
        <time>2023-07-27T08:36:53Z</time>
      </trkpt>
      <trkpt lat="44.78858" lon="4.25005">
        <ele>1062.87</ele>
        <time>2023-07-27T08:37:06Z</time>
      </trkpt>
      <trkpt lat="44.78858" lon="4.25028">
        <ele>1061.91</ele>
        <time>2023-07-27T08:37:27Z</time>
      </trkpt>
      <trkpt lat="44.78855" lon="4.25047">
        <ele>1057.59</ele>
        <time>2023-07-27T08:37:42Z</time>
      </trkpt>
      <trkpt lat="44.78863" lon="4.25045">
        <ele>1052.78</ele>
        <time>2023-07-27T08:37:55Z</time>
      </trkpt>
      <trkpt lat="44.78862" lon="4.25055">
        <ele>1049.42</ele>
        <time>2023-07-27T08:38:11Z</time>
      </trkpt>
      <trkpt lat="44.78866" lon="4.25073">
        <ele>1044.13</ele>
        <time>2023-07-27T08:38:26Z</time>
      </trkpt>
      <trkpt lat="44.78861" lon="4.25097">
        <ele>1035.48</ele>
        <time>2023-07-27T08:38:43Z</time>
      </trkpt>
      <trkpt lat="44.78855" lon="4.25108">
        <ele>1032.11</ele>
        <time>2023-07-27T08:39:02Z</time>
      </trkpt>
      <trkpt lat="44.78856" lon="4.25117">
        <ele>1031.15</ele>
        <time>2023-07-27T08:39:17Z</time>
      </trkpt>
      <trkpt lat="44.78865" lon="4.25122">
        <ele>1025.86</ele>
        <time>2023-07-27T08:39:32Z</time>
      </trkpt>
      <trkpt lat="44.78873" lon="4.25112">
        <ele>1020.58</ele>
        <time>2023-07-27T08:39:49Z</time>
      </trkpt>
      <trkpt lat="44.78878" lon="4.25108">
        <ele>1019.13</ele>
        <time>2023-07-27T08:40:08Z</time>
      </trkpt>
      <trkpt lat="44.78879" lon="4.25106">
        <ele>1018.65</ele>
        <time>2023-07-27T08:40:31Z</time>
      </trkpt>
      <trkpt lat="44.7888" lon="4.25104">
        <ele>1018.65</ele>
        <time>2023-07-27T08:40:58Z</time>
      </trkpt>
      <trkpt lat="44.78885" lon="4.25107">
        <ele>1018.65</ele>
        <time>2023-07-27T08:41:16Z</time>
      </trkpt>
      <trkpt lat="44.78893" lon="4.25127">
        <ele>1016.25</ele>
        <time>2023-07-27T08:41:35Z</time>
      </trkpt>
      <trkpt lat="44.78897" lon="4.25136">
        <ele>1014.81</ele>
        <time>2023-07-27T08:41:42Z</time>
      </trkpt>
      <trkpt lat="44.78912" lon="4.25155">
        <ele>1009.52</ele>
        <time>2023-07-27T08:41:58Z</time>
      </trkpt>
      <trkpt lat="44.7892" lon="4.25177">
        <ele>1004.72</ele>
        <time>2023-07-27T08:42:19Z</time>
      </trkpt>
      <trkpt lat="44.78912" lon="4.25178">
        <ele>1003.27</ele>
        <time>2023-07-27T08:42:34Z</time>
      </trkpt>
      <trkpt lat="44.78906" lon="4.25175">
        <ele>1000.39</ele>
        <time>2023-07-27T08:42:43Z</time>
      </trkpt>
      <trkpt lat="44.78896" lon="4.25177">
        <ele>997.51</ele>
        <time>2023-07-27T08:42:52Z</time>
      </trkpt>
      <trkpt lat="44.789" lon="4.25191">
        <ele>998.95</ele>
        <time>2023-07-27T08:43:07Z</time>
      </trkpt>
      <trkpt lat="44.78909" lon="4.25212">
        <ele>996.54</ele>
        <time>2023-07-27T08:43:26Z</time>
      </trkpt>
      <trkpt lat="44.78905" lon="4.25226">
        <ele>996.54</ele>
        <time>2023-07-27T08:43:40Z</time>
      </trkpt>
      <trkpt lat="44.78902" lon="4.25232">
        <ele>995.58</ele>
        <time>2023-07-27T08:43:54Z</time>
      </trkpt>
      <trkpt lat="44.78889" lon="4.25241">
        <ele>994.14</ele>
        <time>2023-07-27T08:44:13Z</time>
      </trkpt>
      <trkpt lat="44.78886" lon="4.25246">
        <ele>993.18</ele>
        <time>2023-07-27T08:44:37Z</time>
      </trkpt>
      <trkpt lat="44.78888" lon="4.25256">
        <ele>988.85</ele>
        <time>2023-07-27T08:44:52Z</time>
      </trkpt>
      <trkpt lat="44.78888" lon="4.25263">
        <ele>987.89</ele>
        <time>2023-07-27T08:45:03Z</time>
      </trkpt>
      <trkpt lat="44.78888" lon="4.25265">
        <ele>985.97</ele>
        <time>2023-07-27T08:45:18Z</time>
      </trkpt>
      <trkpt lat="44.78888" lon="4.2527">
        <ele>984.05</ele>
        <time>2023-07-27T08:45:34Z</time>
      </trkpt>
      <trkpt lat="44.78886" lon="4.25289">
        <ele>978.28</ele>
        <time>2023-07-27T08:45:53Z</time>
      </trkpt>
      <trkpt lat="44.7889" lon="4.25299">
        <ele>972.51</ele>
        <time>2023-07-27T08:46:09Z</time>
      </trkpt>
      <trkpt lat="44.78884" lon="4.25309">
        <ele>968.18</ele>
        <time>2023-07-27T08:46:25Z</time>
      </trkpt>
      <trkpt lat="44.78882" lon="4.2532">
        <ele>963.38</ele>
        <time>2023-07-27T08:46:36Z</time>
      </trkpt>
      <trkpt lat="44.78881" lon="4.25334">
        <ele>960.98</ele>
        <time>2023-07-27T08:46:49Z</time>
      </trkpt>
      <trkpt lat="44.78876" lon="4.25343">
        <ele>958.57</ele>
        <time>2023-07-27T08:46:55Z</time>
      </trkpt>
      <trkpt lat="44.78871" lon="4.25351">
        <ele>955.69</ele>
        <time>2023-07-27T08:47:02Z</time>
      </trkpt>
      <trkpt lat="44.78864" lon="4.2536">
        <ele>954.25</ele>
        <time>2023-07-27T08:47:13Z</time>
      </trkpt>
      <trkpt lat="44.78861" lon="4.25378">
        <ele>948.96</ele>
        <time>2023-07-27T08:47:27Z</time>
      </trkpt>
      <trkpt lat="44.78852" lon="4.25389">
        <ele>947.04</ele>
        <time>2023-07-27T08:47:43Z</time>
      </trkpt>
      <trkpt lat="44.78848" lon="4.25402">
        <ele>943.67</ele>
        <time>2023-07-27T08:47:57Z</time>
      </trkpt>
      <trkpt lat="44.78852" lon="4.25399">
        <ele>942.23</ele>
        <time>2023-07-27T08:48:07Z</time>
      </trkpt>
      <trkpt lat="44.78852" lon="4.25398">
        <ele>941.75</ele>
        <time>2023-07-27T08:48:21Z</time>
      </trkpt>
      <trkpt lat="44.78852" lon="4.25398">
        <ele>941.27</ele>
        <time>2023-07-27T08:48:34Z</time>
      </trkpt>
      <trkpt lat="44.78852" lon="4.254">
        <ele>942.23</ele>
        <time>2023-07-27T08:48:45Z</time>
      </trkpt>
      <trkpt lat="44.78852" lon="4.25398">
        <ele>943.19</ele>
        <time>2023-07-27T08:48:56Z</time>
      </trkpt>
      <trkpt lat="44.78851" lon="4.25398">
        <ele>943.67</ele>
        <time>2023-07-27T08:49:13Z</time>
      </trkpt>
      <trkpt lat="44.7885" lon="4.25397">
        <ele>945.59</ele>
        <time>2023-07-27T08:49:30Z</time>
      </trkpt>
      <trkpt lat="44.7885" lon="4.25397">
        <ele>946.07</ele>
        <time>2023-07-27T08:49:45Z</time>
      </trkpt>
      <trkpt lat="44.78852" lon="4.25397">
        <ele>945.59</ele>
        <time>2023-07-27T08:49:57Z</time>
      </trkpt>
      <trkpt lat="44.78851" lon="4.25398">
        <ele>945.11</ele>
        <time>2023-07-27T08:50:11Z</time>
      </trkpt>
      <trkpt lat="44.78851" lon="4.25398">
        <ele>944.63</ele>
        <time>2023-07-27T08:50:21Z</time>
      </trkpt>
      <trkpt lat="44.78853" lon="4.25398">
        <ele>944.63</ele>
        <time>2023-07-27T08:50:34Z</time>
      </trkpt>
      <trkpt lat="44.78851" lon="4.25399">
        <ele>946.56</ele>
        <time>2023-07-27T08:50:42Z</time>
      </trkpt>
      <trkpt lat="44.78856" lon="4.25405">
        <ele>948</ele>
        <time>2023-07-27T08:50:53Z</time>
      </trkpt>
      <trkpt lat="44.78857" lon="4.25407">
        <ele>948.48</ele>
        <time>2023-07-27T08:51:05Z</time>
      </trkpt>
      <trkpt lat="44.78857" lon="4.25435">
        <ele>947.52</ele>
        <time>2023-07-27T08:51:19Z</time>
      </trkpt>
      <trkpt lat="44.78857" lon="4.25436">
        <ele>947.52</ele>
        <time>2023-07-27T08:51:20Z</time>
      </trkpt>
      <trkpt lat="44.78849" lon="4.25463">
        <ele>943.67</ele>
        <time>2023-07-27T08:51:35Z</time>
      </trkpt>
      <trkpt lat="44.78848" lon="4.25484">
        <ele>944.15</ele>
        <time>2023-07-27T08:51:46Z</time>
      </trkpt>
      <trkpt lat="44.78855" lon="4.25508">
        <ele>941.75</ele>
        <time>2023-07-27T08:51:58Z</time>
      </trkpt>
      <trkpt lat="44.78864" lon="4.25525">
        <ele>941.75</ele>
        <time>2023-07-27T08:52:09Z</time>
      </trkpt>
      <trkpt lat="44.78871" lon="4.25543">
        <ele>944.15</ele>
        <time>2023-07-27T08:52:21Z</time>
      </trkpt>
      <trkpt lat="44.78871" lon="4.2556">
        <ele>946.56</ele>
        <time>2023-07-27T08:52:31Z</time>
      </trkpt>
      <trkpt lat="44.78872" lon="4.25582">
        <ele>947.04</ele>
        <time>2023-07-27T08:52:42Z</time>
      </trkpt>
      <trkpt lat="44.78872" lon="4.25582">
        <ele>946.56</ele>
        <time>2023-07-27T08:52:43Z</time>
      </trkpt>
      <trkpt lat="44.78877" lon="4.25605">
        <ele>944.15</ele>
        <time>2023-07-27T08:52:54Z</time>
      </trkpt>
      <trkpt lat="44.78882" lon="4.25623">
        <ele>943.67</ele>
        <time>2023-07-27T08:53:03Z</time>
      </trkpt>
      <trkpt lat="44.78883" lon="4.25644">
        <ele>944.15</ele>
        <time>2023-07-27T08:53:16Z</time>
      </trkpt>
      <trkpt lat="44.78884" lon="4.25666">
        <ele>944.15</ele>
        <time>2023-07-27T08:53:27Z</time>
      </trkpt>
      <trkpt lat="44.78881" lon="4.2569">
        <ele>943.19</ele>
        <time>2023-07-27T08:53:39Z</time>
      </trkpt>
      <trkpt lat="44.78881" lon="4.2571">
        <ele>943.67</ele>
        <time>2023-07-27T08:53:51Z</time>
      </trkpt>
      <trkpt lat="44.78892" lon="4.25749">
        <ele>942.71</ele>
        <time>2023-07-27T08:54:09Z</time>
      </trkpt>
      <trkpt lat="44.78898" lon="4.25753">
        <ele>944.15</ele>
        <time>2023-07-27T08:54:14Z</time>
      </trkpt>
      <trkpt lat="44.78923" lon="4.25749">
        <ele>948.48</ele>
        <time>2023-07-27T08:54:31Z</time>
      </trkpt>
      <trkpt lat="44.78941" lon="4.2575">
        <ele>950.88</ele>
        <time>2023-07-27T08:54:45Z</time>
      </trkpt>
      <trkpt lat="44.78964" lon="4.25759">
        <ele>948</ele>
        <time>2023-07-27T08:55:01Z</time>
      </trkpt>
      <trkpt lat="44.78973" lon="4.25764">
        <ele>946.56</ele>
        <time>2023-07-27T08:55:08Z</time>
      </trkpt>
      <trkpt lat="44.78978" lon="4.25767">
        <ele>944.63</ele>
        <time>2023-07-27T08:55:12Z</time>
      </trkpt>
      <trkpt lat="44.78983" lon="4.25773">
        <ele>942.71</ele>
        <time>2023-07-27T08:55:16Z</time>
      </trkpt>
      <trkpt lat="44.79" lon="4.2578">
        <ele>939.35</ele>
        <time>2023-07-27T08:55:30Z</time>
      </trkpt>
      <trkpt lat="44.79012" lon="4.25793">
        <ele>936.94</ele>
        <time>2023-07-27T08:55:43Z</time>
      </trkpt>
      <trkpt lat="44.79025" lon="4.25804">
        <ele>935.98</ele>
        <time>2023-07-27T08:55:55Z</time>
      </trkpt>
      <trkpt lat="44.7903" lon="4.25809">
        <ele>934.54</ele>
        <time>2023-07-27T08:56:10Z</time>
      </trkpt>
      <trkpt lat="44.79043" lon="4.25825">
        <ele>935.02</ele>
        <time>2023-07-27T08:56:22Z</time>
      </trkpt>
      <trkpt lat="44.7906" lon="4.25843">
        <ele>934.54</ele>
        <time>2023-07-27T08:56:36Z</time>
      </trkpt>
      <trkpt lat="44.79074" lon="4.25859">
        <ele>934.54</ele>
        <time>2023-07-27T08:56:49Z</time>
      </trkpt>
      <trkpt lat="44.79087" lon="4.2588">
        <ele>935.02</ele>
        <time>2023-07-27T08:57:02Z</time>
      </trkpt>
      <trkpt lat="44.79103" lon="4.25894">
        <ele>935.02</ele>
        <time>2023-07-27T08:57:16Z</time>
      </trkpt>
      <trkpt lat="44.79112" lon="4.25904">
        <ele>934.54</ele>
        <time>2023-07-27T08:57:26Z</time>
      </trkpt>
      <trkpt lat="44.79106" lon="4.25913">
        <ele>915.9</ele>
      </trkpt>
      <trkpt lat="44.79071" lon="4.25951">
        <ele>921.7</ele>
      </trkpt>
      <trkpt lat="44.79066" lon="4.25955">
        <ele>925</ele>
      </trkpt>
      <trkpt lat="44.79067" lon="4.25962">
        <ele>925.8</ele>
      </trkpt>
      <trkpt lat="44.79068" lon="4.25965">
        <ele>925.8</ele>
      </trkpt>
      <trkpt lat="44.79067" lon="4.25977">
        <ele>928.9</ele>
      </trkpt>
      <trkpt lat="44.79056" lon="4.25976">
        <ele>934.3</ele>
      </trkpt>
      <trkpt lat="44.79041" lon="4.2599">
        <ele>943.5</ele>
      </trkpt>
      <trkpt lat="44.7902" lon="4.25999">
        <ele>953.1</ele>
      </trkpt>
      <trkpt lat="44.78988" lon="4.2601">
        <ele>961.1</ele>
      </trkpt>
      <trkpt lat="44.78975" lon="4.26015">
        <ele>964</ele>
      </trkpt>
      <trkpt lat="44.78969" lon="4.26032">
        <ele>969.9</ele>
      </trkpt>
      <trkpt lat="44.78983" lon="4.26033">
        <ele>969.6</ele>
      </trkpt>
      <trkpt lat="44.78976" lon="4.26048">
        <ele>976</ele>
      </trkpt>
      <trkpt lat="44.78972" lon="4.26102">
        <ele>988</ele>
      </trkpt>
      <trkpt lat="44.78975" lon="4.26124">
        <ele>991.3</ele>
      </trkpt>
      <trkpt lat="44.7897" lon="4.2614">
        <ele>996.3</ele>
      </trkpt>
      <trkpt lat="44.78977" lon="4.26158">
        <ele>999.5</ele>
      </trkpt>
      <trkpt lat="44.78989" lon="4.26207">
        <ele>1007.9</ele>
      </trkpt>
      <trkpt lat="44.79001" lon="4.26239">
        <ele>1010.1</ele>
      </trkpt>
      <trkpt lat="44.79006" lon="4.26258">
        <ele>1010.9</ele>
      </trkpt>
      <trkpt lat="44.79016" lon="4.26321">
        <ele>1017.8</ele>
      </trkpt>
      <trkpt lat="44.79027" lon="4.26364">
        <ele>1022.3</ele>
      </trkpt>
      <trkpt lat="44.79034" lon="4.26378">
        <ele>1025.5</ele>
      </trkpt>
      <trkpt lat="44.79043" lon="4.26392">
        <ele>1029.8</ele>
      </trkpt>
      <trkpt lat="44.79053" lon="4.2641">
        <ele>1033.9</ele>
      </trkpt>
      <trkpt lat="44.79061" lon="4.26436">
        <ele>1037.9</ele>
      </trkpt>
      <trkpt lat="44.79063" lon="4.2646">
        <ele>1040.3</ele>
      </trkpt>
      <trkpt lat="44.79064" lon="4.26491">
        <ele>1042.9</ele>
      </trkpt>
      <trkpt lat="44.79071" lon="4.26516">
        <ele>1044.9</ele>
      </trkpt>
      <trkpt lat="44.7908" lon="4.26526">
        <ele>1045.2</ele>
      </trkpt>
      <trkpt lat="44.7909" lon="4.26539">
        <ele>1043.8</ele>
      </trkpt>
      <trkpt lat="44.79093" lon="4.26556">
        <ele>1046.9</ele>
      </trkpt>
      <trkpt lat="44.79089" lon="4.26567">
        <ele>1049.2</ele>
      </trkpt>
      <trkpt lat="44.79092" lon="4.2659">
        <ele>1045.3</ele>
      </trkpt>
      <trkpt lat="44.79091" lon="4.26601">
        <ele>1046.2</ele>
      </trkpt>
      <trkpt lat="44.79098" lon="4.26642">
        <ele>1045.6</ele>
      </trkpt>
      <trkpt lat="44.79106" lon="4.26669">
        <ele>1044.6</ele>
      </trkpt>
      <trkpt lat="44.79113" lon="4.26683">
        <ele>1041.1</ele>
      </trkpt>
      <trkpt lat="44.79115" lon="4.2669">
        <ele>1040.8</ele>
      </trkpt>
      <trkpt lat="44.79113" lon="4.26707">
        <ele>1041.1</ele>
      </trkpt>
      <trkpt lat="44.7911" lon="4.26726">
        <ele>1040.1</ele>
      </trkpt>
      <trkpt lat="44.79113" lon="4.26756">
        <ele>1032.4</ele>
      </trkpt>
      <trkpt lat="44.79121" lon="4.26778">
        <ele>1023</ele>
      </trkpt>
      <trkpt lat="44.79126" lon="4.2679">
        <ele>1021.2</ele>
      </trkpt>
      <trkpt lat="44.79142" lon="4.268">
        <ele>1014</ele>
      </trkpt>
      <trkpt lat="44.79156" lon="4.26802">
        <ele>1006.4</ele>
      </trkpt>
      <trkpt lat="44.79142" lon="4.26798">
        <ele>1013.6</ele>
      </trkpt>
      <trkpt lat="44.79127" lon="4.26788">
        <ele>1020.3</ele>
      </trkpt>
      <trkpt lat="44.79115" lon="4.26757">
        <ele>1030.6</ele>
      </trkpt>
      <trkpt lat="44.79111" lon="4.26727">
        <ele>1039.2</ele>
      </trkpt>
      <trkpt lat="44.79116" lon="4.26691">
        <ele>1040.3</ele>
      </trkpt>
      <trkpt lat="44.79114" lon="4.26682">
        <ele>1040.5</ele>
      </trkpt>
      <trkpt lat="44.79107" lon="4.26668">
        <ele>1043.8</ele>
      </trkpt>
      <trkpt lat="44.79099" lon="4.26642">
        <ele>1044.1</ele>
      </trkpt>
      <trkpt lat="44.79092" lon="4.26601">
        <ele>1045.1</ele>
      </trkpt>
      <trkpt lat="44.79093" lon="4.26591">
        <ele>1044.1</ele>
      </trkpt>
      <trkpt lat="44.7909" lon="4.26568">
        <ele>1047.9</ele>
      </trkpt>
      <trkpt lat="44.79094" lon="4.26557">
        <ele>1045.8</ele>
      </trkpt>
      <trkpt lat="44.79092" lon="4.26539">
        <ele>1042.3</ele>
      </trkpt>
      <trkpt lat="44.79073" lon="4.26515">
        <ele>1043.6</ele>
      </trkpt>
      <trkpt lat="44.79065" lon="4.2649">
        <ele>1041.7</ele>
      </trkpt>
      <trkpt lat="44.79064" lon="4.26448">
        <ele>1039.2</ele>
      </trkpt>
      <trkpt lat="44.79062" lon="4.26438">
        <ele>1037.8</ele>
      </trkpt>
      <trkpt lat="44.79055" lon="4.2641">
        <ele>1033.4</ele>
      </trkpt>
      <trkpt lat="44.79035" lon="4.26375">
        <ele>1024.4</ele>
      </trkpt>
      <trkpt lat="44.79029" lon="4.26363">
        <ele>1021.4</ele>
      </trkpt>
      <trkpt lat="44.79018" lon="4.26319">
        <ele>1016.4</ele>
      </trkpt>
      <trkpt lat="44.79008" lon="4.26257">
        <ele>1009.7</ele>
      </trkpt>
      <trkpt lat="44.78989" lon="4.262">
        <ele>1006.8</ele>
      </trkpt>
      <trkpt lat="44.78979" lon="4.26157">
        <ele>998.1</ele>
      </trkpt>
      <trkpt lat="44.78971" lon="4.26139">
        <ele>996.7</ele>
      </trkpt>
      <trkpt lat="44.78976" lon="4.26126">
        <ele>990.9</ele>
      </trkpt>
      <trkpt lat="44.78973" lon="4.26101">
        <ele>986.8</ele>
      </trkpt>
      <trkpt lat="44.78977" lon="4.26051">
        <ele>976.2</ele>
      </trkpt>
      <trkpt lat="44.78985" lon="4.26031">
        <ele>969.1</ele>
      </trkpt>
      <trkpt lat="44.78971" lon="4.2603">
        <ele>970.3</ele>
      </trkpt>
      <trkpt lat="44.78976" lon="4.26016">
        <ele>964.3</ele>
      </trkpt>
      <trkpt lat="44.78977" lon="4.26012">
        <ele>962.2</ele>
      </trkpt>
      <trkpt lat="44.79018" lon="4.25998">
        <ele>953</ele>
      </trkpt>
      <trkpt lat="44.7904" lon="4.25988">
        <ele>943</ele>
      </trkpt>
      <trkpt lat="44.79055" lon="4.25974">
        <ele>933.8</ele>
      </trkpt>
      <trkpt lat="44.79066" lon="4.25976">
        <ele>929</ele>
      </trkpt>
      <trkpt lat="44.79067" lon="4.25965">
        <ele>926.7</ele>
      </trkpt>
      <trkpt lat="44.79064" lon="4.25956">
        <ele>925.9</ele>
      </trkpt>
      <trkpt lat="44.79106" lon="4.25909">
        <ele>918</ele>
      </trkpt>
      <trkpt lat="44.79095" lon="4.25901">
        <ele>1001.35</ele>
        <time>2023-07-27T10:06:19Z</time>
      </trkpt>
      <trkpt lat="44.79083" lon="4.25885">
        <ele>1000.39</ele>
        <time>2023-07-27T10:06:33Z</time>
      </trkpt>
      <trkpt lat="44.79069" lon="4.2587">
        <ele>999.91</ele>
        <time>2023-07-27T10:06:46Z</time>
      </trkpt>
      <trkpt lat="44.79052" lon="4.25849">
        <ele>998.95</ele>
        <time>2023-07-27T10:07:01Z</time>
      </trkpt>
      <trkpt lat="44.79038" lon="4.25825">
        <ele>997.99</ele>
        <time>2023-07-27T10:07:17Z</time>
      </trkpt>
      <trkpt lat="44.79021" lon="4.25806">
        <ele>997.51</ele>
        <time>2023-07-27T10:07:31Z</time>
      </trkpt>
      <trkpt lat="44.78996" lon="4.25792">
        <ele>997.02</ele>
        <time>2023-07-27T10:07:47Z</time>
      </trkpt>
      <trkpt lat="44.78976" lon="4.2578">
        <ele>996.06</ele>
        <time>2023-07-27T10:08:02Z</time>
      </trkpt>
      <trkpt lat="44.78956" lon="4.25768">
        <ele>990.3</ele>
        <time>2023-07-27T10:08:18Z</time>
      </trkpt>
      <trkpt lat="44.78931" lon="4.2576">
        <ele>978.28</ele>
        <time>2023-07-27T10:08:33Z</time>
      </trkpt>
      <trkpt lat="44.78908" lon="4.25752">
        <ele>962.42</ele>
        <time>2023-07-27T10:08:46Z</time>
      </trkpt>
      <trkpt lat="44.78906" lon="4.25752">
        <ele>960.98</ele>
        <time>2023-07-27T10:08:48Z</time>
      </trkpt>
      <trkpt lat="44.78895" lon="4.25759">
        <ele>960.49</ele>
        <time>2023-07-27T10:08:56Z</time>
      </trkpt>
      <trkpt lat="44.78887" lon="4.25748">
        <ele>960.01</ele>
        <time>2023-07-27T10:09:08Z</time>
      </trkpt>
      <trkpt lat="44.78884" lon="4.2573">
        <ele>960.01</ele>
        <time>2023-07-27T10:09:20Z</time>
      </trkpt>
      <trkpt lat="44.78883" lon="4.25697">
        <ele>959.53</ele>
        <time>2023-07-27T10:09:34Z</time>
      </trkpt>
      <trkpt lat="44.78883" lon="4.25687">
        <ele>959.53</ele>
        <time>2023-07-27T10:09:41Z</time>
      </trkpt>
      <trkpt lat="44.78885" lon="4.25661">
        <ele>959.05</ele>
        <time>2023-07-27T10:09:53Z</time>
      </trkpt>
      <trkpt lat="44.78886" lon="4.25652">
        <ele>959.05</ele>
        <time>2023-07-27T10:09:58Z</time>
      </trkpt>
      <trkpt lat="44.78886" lon="4.25639">
        <ele>959.05</ele>
        <time>2023-07-27T10:10:04Z</time>
      </trkpt>
      <trkpt lat="44.78879" lon="4.25612">
        <ele>958.57</ele>
        <time>2023-07-27T10:10:18Z</time>
      </trkpt>
      <trkpt lat="44.78876" lon="4.25603">
        <ele>958.57</ele>
        <time>2023-07-27T10:10:23Z</time>
      </trkpt>
      <trkpt lat="44.78875" lon="4.25574">
        <ele>958.57</ele>
        <time>2023-07-27T10:10:36Z</time>
      </trkpt>
      <trkpt lat="44.78875" lon="4.2555">
        <ele>958.09</ele>
        <time>2023-07-27T10:10:49Z</time>
      </trkpt>
      <trkpt lat="44.78867" lon="4.25532">
        <ele>958.09</ele>
        <time>2023-07-27T10:11:00Z</time>
      </trkpt>
      <trkpt lat="44.78858" lon="4.25504">
        <ele>957.61</ele>
        <time>2023-07-27T10:11:13Z</time>
      </trkpt>
      <trkpt lat="44.78859" lon="4.25487">
        <ele>957.61</ele>
        <time>2023-07-27T10:11:24Z</time>
      </trkpt>
      <trkpt lat="44.78861" lon="4.25473">
        <ele>957.13</ele>
        <time>2023-07-27T10:11:32Z</time>
      </trkpt>
      <trkpt lat="44.78865" lon="4.25454">
        <ele>957.13</ele>
        <time>2023-07-27T10:11:40Z</time>
      </trkpt>
      <trkpt lat="44.78866" lon="4.2545">
        <ele>957.13</ele>
        <time>2023-07-27T10:11:43Z</time>
      </trkpt>
      <trkpt lat="44.78866" lon="4.25432">
        <ele>957.13</ele>
        <time>2023-07-27T10:11:53Z</time>
      </trkpt>
      <trkpt lat="44.78864" lon="4.25423">
        <ele>956.65</ele>
        <time>2023-07-27T10:11:59Z</time>
      </trkpt>
      <trkpt lat="44.78861" lon="4.2542">
        <ele>956.65</ele>
        <time>2023-07-27T10:12:02Z</time>
      </trkpt>
      <trkpt lat="44.78839" lon="4.25413">
        <ele>956.17</ele>
        <time>2023-07-27T10:12:18Z</time>
      </trkpt>
      <trkpt lat="44.78832" lon="4.25412">
        <ele>956.17</ele>
        <time>2023-07-27T10:12:32Z</time>
      </trkpt>
      <trkpt lat="44.78828" lon="4.2541">
        <ele>955.69</ele>
        <time>2023-07-27T10:12:45Z</time>
      </trkpt>
      <trkpt lat="44.78819" lon="4.25407">
        <ele>955.21</ele>
        <time>2023-07-27T10:12:59Z</time>
      </trkpt>
      <trkpt lat="44.78807" lon="4.25403">
        <ele>955.21</ele>
        <time>2023-07-27T10:13:08Z</time>
      </trkpt>
      <trkpt lat="44.78795" lon="4.25393">
        <ele>954.73</ele>
        <time>2023-07-27T10:13:24Z</time>
      </trkpt>
      <trkpt lat="44.78795" lon="4.25388">
        <ele>954.25</ele>
        <time>2023-07-27T10:13:40Z</time>
      </trkpt>
      <trkpt lat="44.78795" lon="4.25388">
        <ele>954.25</ele>
        <time>2023-07-27T10:13:42Z</time>
      </trkpt>
      <trkpt lat="44.78792" lon="4.25388">
        <ele>954.25</ele>
        <time>2023-07-27T10:13:51Z</time>
      </trkpt>
      <trkpt lat="44.78784" lon="4.25383">
        <ele>953.77</ele>
        <time>2023-07-27T10:13:58Z</time>
      </trkpt>
      <trkpt lat="44.78774" lon="4.25383">
        <ele>985.01</ele>
        <time>2023-07-27T10:14:11Z</time>
      </trkpt>
      <trkpt lat="44.78754" lon="4.25371">
        <ele>984.05</ele>
        <time>2023-07-27T10:14:25Z</time>
      </trkpt>
      <trkpt lat="44.78743" lon="4.25361">
        <ele>983.09</ele>
        <time>2023-07-27T10:14:32Z</time>
      </trkpt>
      <trkpt lat="44.78734" lon="4.2536">
        <ele>982.12</ele>
        <time>2023-07-27T10:14:44Z</time>
      </trkpt>
      <trkpt lat="44.78737" lon="4.25355">
        <ele>981.64</ele>
        <time>2023-07-27T10:14:51Z</time>
      </trkpt>
      <trkpt lat="44.78738" lon="4.25348">
        <ele>981.16</ele>
        <time>2023-07-27T10:14:55Z</time>
      </trkpt>
      <trkpt lat="44.78726" lon="4.25326">
        <ele>980.2</ele>
        <time>2023-07-27T10:15:09Z</time>
      </trkpt>
      <trkpt lat="44.78718" lon="4.25301">
        <ele>979.24</ele>
        <time>2023-07-27T10:15:23Z</time>
      </trkpt>
      <trkpt lat="44.78716" lon="4.25299">
        <ele>972.51</ele>
        <time>2023-07-27T10:15:24Z</time>
      </trkpt>
      <trkpt lat="44.7871" lon="4.25269">
        <ele>953.77</ele>
        <time>2023-07-27T10:15:36Z</time>
      </trkpt>
      <trkpt lat="44.7869" lon="4.25252">
        <ele>940.31</ele>
        <time>2023-07-27T10:15:48Z</time>
      </trkpt>
      <trkpt lat="44.78687" lon="4.25252">
        <ele>938.38</ele>
        <time>2023-07-27T10:15:51Z</time>
      </trkpt>
      <trkpt lat="44.7868" lon="4.25253">
        <ele>935.02</ele>
        <time>2023-07-27T10:15:55Z</time>
      </trkpt>
      <trkpt lat="44.78655" lon="4.25265">
        <ele>928.77</ele>
        <time>2023-07-27T10:16:11Z</time>
      </trkpt>
      <trkpt lat="44.78637" lon="4.25273">
        <ele>925.89</ele>
        <time>2023-07-27T10:16:24Z</time>
      </trkpt>
      <trkpt lat="44.78622" lon="4.25265">
        <ele>917.24</ele>
        <time>2023-07-27T10:16:35Z</time>
      </trkpt>
      <trkpt lat="44.78611" lon="4.25261">
        <ele>914.83</ele>
        <time>2023-07-27T10:16:44Z</time>
      </trkpt>
      <trkpt lat="44.78608" lon="4.25249">
        <ele>917.24</ele>
        <time>2023-07-27T10:16:56Z</time>
      </trkpt>
      <trkpt lat="44.78604" lon="4.25233">
        <ele>918.2</ele>
        <time>2023-07-27T10:17:11Z</time>
      </trkpt>
      <trkpt lat="44.786" lon="4.25215">
        <ele>919.64</ele>
        <time>2023-07-27T10:17:28Z</time>
      </trkpt>
      <trkpt lat="44.78594" lon="4.25215">
        <ele>920.12</ele>
        <time>2023-07-27T10:17:47Z</time>
      </trkpt>
      <trkpt lat="44.78575" lon="4.25213">
        <ele>923</ele>
        <time>2023-07-27T10:18:03Z</time>
      </trkpt>
      <trkpt lat="44.78557" lon="4.25219">
        <ele>927.33</ele>
        <time>2023-07-27T10:18:26Z</time>
      </trkpt>
      <trkpt lat="44.78533" lon="4.25209">
        <ele>929.25</ele>
        <time>2023-07-27T10:18:47Z</time>
      </trkpt>
      <trkpt lat="44.78511" lon="4.25211">
        <ele>936.46</ele>
        <time>2023-07-27T10:19:07Z</time>
      </trkpt>
      <trkpt lat="44.78498" lon="4.25201">
        <ele>942.71</ele>
        <time>2023-07-27T10:19:30Z</time>
      </trkpt>
      <trkpt lat="44.78475" lon="4.252">
        <ele>947.52</ele>
        <time>2023-07-27T10:19:49Z</time>
      </trkpt>
      <trkpt lat="44.78454" lon="4.25207">
        <ele>951.84</ele>
        <time>2023-07-27T10:20:12Z</time>
      </trkpt>
      <trkpt lat="44.7844" lon="4.25204">
        <ele>956.17</ele>
        <time>2023-07-27T10:20:24Z</time>
      </trkpt>
      <trkpt lat="44.7842" lon="4.25221">
        <ele>956.17</ele>
        <time>2023-07-27T10:20:46Z</time>
      </trkpt>
      <trkpt lat="44.78402" lon="4.25224">
        <ele>950.4</ele>
        <time>2023-07-27T10:21:06Z</time>
      </trkpt>
      <trkpt lat="44.78388" lon="4.25236">
        <ele>949.92</ele>
        <time>2023-07-27T10:21:24Z</time>
      </trkpt>
      <trkpt lat="44.78374" lon="4.25251">
        <ele>950.88</ele>
        <time>2023-07-27T10:21:39Z</time>
      </trkpt>
      <trkpt lat="44.78358" lon="4.2527">
        <ele>957.13</ele>
        <time>2023-07-27T10:22:01Z</time>
      </trkpt>
      <trkpt lat="44.78344" lon="4.2528">
        <ele>957.13</ele>
        <time>2023-07-27T10:22:22Z</time>
      </trkpt>
      <trkpt lat="44.78324" lon="4.25287">
        <ele>953.77</ele>
        <time>2023-07-27T10:22:45Z</time>
      </trkpt>
      <trkpt lat="44.78308" lon="4.25314">
        <ele>954.73</ele>
        <time>2023-07-27T10:23:05Z</time>
      </trkpt>
      <trkpt lat="44.78298" lon="4.25329">
        <ele>953.28</ele>
        <time>2023-07-27T10:23:25Z</time>
      </trkpt>
      <trkpt lat="44.78278" lon="4.25333">
        <ele>948.96</ele>
        <time>2023-07-27T10:23:48Z</time>
      </trkpt>
      <trkpt lat="44.78263" lon="4.25346">
        <ele>947.04</ele>
        <time>2023-07-27T10:24:08Z</time>
      </trkpt>
      <trkpt lat="44.7826" lon="4.25343">
        <ele>947.04</ele>
        <time>2023-07-27T10:24:24Z</time>
      </trkpt>
      <trkpt lat="44.78258" lon="4.25339">
        <ele>947.04</ele>
        <time>2023-07-27T10:24:45Z</time>
      </trkpt>
      <trkpt lat="44.78257" lon="4.25337">
        <ele>947.52</ele>
        <time>2023-07-27T10:25:04Z</time>
      </trkpt>
      <trkpt lat="44.78255" lon="4.25332">
        <ele>948</ele>
        <time>2023-07-27T10:25:22Z</time>
      </trkpt>
      <trkpt lat="44.78245" lon="4.25312">
        <ele>971.55</ele>
        <time>2023-07-27T10:25:26Z</time>
      </trkpt>
      <trkpt lat="44.78219" lon="4.25297">
        <ele>1016.25</ele>
        <time>2023-07-27T10:25:41Z</time>
      </trkpt>
      <trkpt lat="44.78217" lon="4.25295">
        <ele>1022.5</ele>
        <time>2023-07-27T10:25:45Z</time>
      </trkpt>
      <trkpt lat="44.78216" lon="4.25271">
        <ele>1029.23</ele>
        <time>2023-07-27T10:26:01Z</time>
      </trkpt>
      <trkpt lat="44.78214" lon="4.25264">
        <ele>1041.73</ele>
        <time>2023-07-27T10:26:21Z</time>
      </trkpt>
      <trkpt lat="44.78208" lon="4.25251">
        <ele>1046.53</ele>
        <time>2023-07-27T10:26:38Z</time>
      </trkpt>
      <trkpt lat="44.78198" lon="4.25231">
        <ele>1047.49</ele>
        <time>2023-07-27T10:26:55Z</time>
      </trkpt>
      <trkpt lat="44.78193" lon="4.25203">
        <ele>1046.05</ele>
        <time>2023-07-27T10:27:08Z</time>
      </trkpt>
      <trkpt lat="44.78175" lon="4.25175">
        <ele>1042.69</ele>
        <time>2023-07-27T10:27:23Z</time>
      </trkpt>
      <trkpt lat="44.78165" lon="4.25154">
        <ele>1041.25</ele>
        <time>2023-07-27T10:27:37Z</time>
      </trkpt>
      <trkpt lat="44.78155" lon="4.25138">
        <ele>1040.28</ele>
        <time>2023-07-27T10:27:50Z</time>
      </trkpt>
      <trkpt lat="44.78146" lon="4.25131">
        <ele>1038.84</ele>
        <time>2023-07-27T10:28:01Z</time>
      </trkpt>
      <trkpt lat="44.78146" lon="4.25126">
        <ele>1033.07</ele>
        <time>2023-07-27T10:28:10Z</time>
      </trkpt>
      <trkpt lat="44.78141" lon="4.25094">
        <ele>1019.62</ele>
        <time>2023-07-27T10:28:25Z</time>
      </trkpt>
      <trkpt lat="44.7814" lon="4.2509">
        <ele>1014.33</ele>
        <time>2023-07-27T10:28:30Z</time>
      </trkpt>
      <trkpt lat="44.78129" lon="4.25082">
        <ele>1010</ele>
        <time>2023-07-27T10:28:48Z</time>
      </trkpt>
      <trkpt lat="44.78121" lon="4.25079">
        <ele>1008.08</ele>
        <time>2023-07-27T10:29:04Z</time>
      </trkpt>
      <trkpt lat="44.78098" lon="4.25075">
        <ele>997.51</ele>
        <time>2023-07-27T10:29:19Z</time>
      </trkpt>
      <trkpt lat="44.78096" lon="4.25079">
        <ele>991.26</ele>
        <time>2023-07-27T10:29:28Z</time>
      </trkpt>
      <trkpt lat="44.78097" lon="4.25101">
        <ele>986.93</ele>
        <time>2023-07-27T10:29:47Z</time>
      </trkpt>
      <trkpt lat="44.78093" lon="4.25107">
        <ele>984.05</ele>
        <time>2023-07-27T10:30:04Z</time>
      </trkpt>
      <trkpt lat="44.78089" lon="4.25108">
        <ele>981.64</ele>
        <time>2023-07-27T10:30:26Z</time>
      </trkpt>
      <trkpt lat="44.78084" lon="4.25127">
        <ele>980.2</ele>
        <time>2023-07-27T10:30:48Z</time>
      </trkpt>
      <trkpt lat="44.78095" lon="4.25152">
        <ele>978.28</ele>
        <time>2023-07-27T10:31:11Z</time>
      </trkpt>
      <trkpt lat="44.78102" lon="4.25181">
        <ele>975.39</ele>
        <time>2023-07-27T10:31:34Z</time>
      </trkpt>
      <trkpt lat="44.78098" lon="4.25213">
        <ele>971.55</ele>
        <time>2023-07-27T10:31:57Z</time>
      </trkpt>
      <trkpt lat="44.78078" lon="4.2524">
        <ele>957.61</ele>
        <time>2023-07-27T10:32:18Z</time>
      </trkpt>
      <trkpt lat="44.78061" lon="4.25261">
        <ele>933.1</ele>
        <time>2023-07-27T10:32:39Z</time>
      </trkpt>
      <trkpt lat="44.7804" lon="4.25289">
        <ele>922.52</ele>
        <time>2023-07-27T10:33:00Z</time>
      </trkpt>
      <trkpt lat="44.78028" lon="4.25314">
        <ele>914.83</ele>
        <time>2023-07-27T10:33:20Z</time>
      </trkpt>
      <trkpt lat="44.78024" lon="4.25339">
        <ele>906.66</ele>
        <time>2023-07-27T10:33:35Z</time>
      </trkpt>
      <trkpt lat="44.78014" lon="4.25362">
        <ele>897.53</ele>
        <time>2023-07-27T10:33:49Z</time>
      </trkpt>
      <trkpt lat="44.78003" lon="4.25387">
        <ele>894.16</ele>
        <time>2023-07-27T10:34:08Z</time>
      </trkpt>
      <trkpt lat="44.7799" lon="4.25402">
        <ele>889.36</ele>
        <time>2023-07-27T10:34:25Z</time>
      </trkpt>
      <trkpt lat="44.77983" lon="4.25414">
        <ele>888.88</ele>
        <time>2023-07-27T10:34:36Z</time>
      </trkpt>
      <trkpt lat="44.7797" lon="4.25412">
        <ele>888.4</ele>
        <time>2023-07-27T10:34:48Z</time>
      </trkpt>
      <trkpt lat="44.77965" lon="4.2541">
        <ele>887.91</ele>
        <time>2023-07-27T10:34:53Z</time>
      </trkpt>
      <trkpt lat="44.77952" lon="4.25417">
        <ele>885.51</ele>
        <time>2023-07-27T10:35:04Z</time>
      </trkpt>
      <trkpt lat="44.7794" lon="4.25419">
        <ele>881.67</ele>
        <time>2023-07-27T10:35:15Z</time>
      </trkpt>
      <trkpt lat="44.77937" lon="4.25416">
        <ele>879.74</ele>
        <time>2023-07-27T10:35:19Z</time>
      </trkpt>
      <trkpt lat="44.77929" lon="4.25422">
        <ele>879.26</ele>
        <time>2023-07-27T10:35:26Z</time>
      </trkpt>
      <trkpt lat="44.77926" lon="4.25427">
        <ele>879.26</ele>
        <time>2023-07-27T10:35:31Z</time>
      </trkpt>
      <trkpt lat="44.77918" lon="4.25426">
        <ele>879.26</ele>
        <time>2023-07-27T10:35:38Z</time>
      </trkpt>
      <trkpt lat="44.7791" lon="4.25431">
        <ele>879.26</ele>
        <time>2023-07-27T10:35:46Z</time>
      </trkpt>
      <trkpt lat="44.77903" lon="4.25426">
        <ele>879.26</ele>
        <time>2023-07-27T10:35:58Z</time>
      </trkpt>
      <trkpt lat="44.77893" lon="4.2542">
        <ele>879.26</ele>
        <time>2023-07-27T10:36:08Z</time>
      </trkpt>
      <trkpt lat="44.77891" lon="4.25419">
        <ele>879.26</ele>
        <time>2023-07-27T10:36:10Z</time>
      </trkpt>
      <trkpt lat="44.77885" lon="4.25416">
        <ele>879.26</ele>
        <time>2023-07-27T10:36:14Z</time>
      </trkpt>
      <trkpt lat="44.77879" lon="4.25409">
        <ele>878.78</ele>
        <time>2023-07-27T10:36:26Z</time>
      </trkpt>
      <trkpt lat="44.77877" lon="4.25402">
        <ele>878.78</ele>
        <time>2023-07-27T10:36:30Z</time>
      </trkpt>
      <trkpt lat="44.77861" lon="4.25386">
        <ele>878.78</ele>
        <time>2023-07-27T10:36:43Z</time>
      </trkpt>
      <trkpt lat="44.77847" lon="4.25378">
        <ele>878.78</ele>
        <time>2023-07-27T10:36:56Z</time>
      </trkpt>
      <trkpt lat="44.77842" lon="4.25376">
        <ele>878.78</ele>
        <time>2023-07-27T10:37:00Z</time>
      </trkpt>
      <trkpt lat="44.77832" lon="4.25376">
        <ele>878.3</ele>
        <time>2023-07-27T10:37:07Z</time>
      </trkpt>
      <trkpt lat="44.7783" lon="4.25376">
        <ele>878.3</ele>
        <time>2023-07-27T10:37:09Z</time>
      </trkpt>
      <trkpt lat="44.77819" lon="4.2537">
        <ele>877.82</ele>
        <time>2023-07-27T10:37:22Z</time>
      </trkpt>
      <trkpt lat="44.77805" lon="4.25365">
        <ele>877.82</ele>
        <time>2023-07-27T10:37:32Z</time>
      </trkpt>
      <trkpt lat="44.77802" lon="4.25357">
        <ele>877.34</ele>
        <time>2023-07-27T10:37:36Z</time>
      </trkpt>
      <trkpt lat="44.778" lon="4.25338">
        <ele>877.34</ele>
        <time>2023-07-27T10:37:48Z</time>
      </trkpt>
      <trkpt lat="44.77799" lon="4.25317">
        <ele>876.86</ele>
        <time>2023-07-27T10:38:00Z</time>
      </trkpt>
      <trkpt lat="44.7778" lon="4.25305">
        <ele>889.84</ele>
        <time>2023-07-27T10:38:24Z</time>
      </trkpt>
      <trkpt lat="44.77777" lon="4.25299">
        <ele>886.95</ele>
        <time>2023-07-27T10:38:38Z</time>
      </trkpt>
      <trkpt lat="44.77775" lon="4.25297">
        <ele>885.51</ele>
        <time>2023-07-27T10:38:54Z</time>
      </trkpt>
      <trkpt lat="44.77773" lon="4.25301">
        <ele>883.59</ele>
        <time>2023-07-27T10:39:07Z</time>
      </trkpt>
      <trkpt lat="44.77772" lon="4.25302">
        <ele>883.59</ele>
        <time>2023-07-27T10:39:10Z</time>
      </trkpt>
      <trkpt lat="44.7777" lon="4.25302">
        <ele>883.11</ele>
        <time>2023-07-27T10:39:14Z</time>
      </trkpt>
      <trkpt lat="44.77756" lon="4.25304">
        <ele>880.71</ele>
        <time>2023-07-27T10:39:26Z</time>
      </trkpt>
      <trkpt lat="44.7774" lon="4.25314">
        <ele>873.98</ele>
        <time>2023-07-27T10:39:44Z</time>
      </trkpt>
      <trkpt lat="44.77736" lon="4.25318">
        <ele>873.01</ele>
        <time>2023-07-27T10:39:50Z</time>
      </trkpt>
      <trkpt lat="44.77715" lon="4.25329">
        <ele>867.25</ele>
        <time>2023-07-27T10:40:06Z</time>
      </trkpt>
      <trkpt lat="44.77697" lon="4.25334">
        <ele>861</ele>
        <time>2023-07-27T10:40:20Z</time>
      </trkpt>
      <trkpt lat="44.77693" lon="4.25336">
        <ele>861</ele>
        <time>2023-07-27T10:40:23Z</time>
      </trkpt>
      <trkpt lat="44.77684" lon="4.25347">
        <ele>860.52</ele>
        <time>2023-07-27T10:40:33Z</time>
      </trkpt>
      <trkpt lat="44.77659" lon="4.25362">
        <ele>847.8</ele>
      </trkpt>
      <trkpt lat="44.77653" lon="4.25371">
        <ele>845.3</ele>
      </trkpt>
      <trkpt lat="44.77644" lon="4.25376">
        <ele>843.8</ele>
      </trkpt>
      <trkpt lat="44.77632" lon="4.25374">
        <ele>842.6</ele>
      </trkpt>
      <trkpt lat="44.77629" lon="4.25376">
        <ele>841.2</ele>
      </trkpt>
      <trkpt lat="44.77624" lon="4.25373">
        <ele>840.9</ele>
      </trkpt>
      <trkpt lat="44.77613" lon="4.25366">
        <ele>840.7</ele>
      </trkpt>
      <trkpt lat="44.77607" lon="4.25371">
        <ele>836.5</ele>
      </trkpt>
      <trkpt lat="44.77594" lon="4.25359">
        <ele>832.8</ele>
      </trkpt>
      <trkpt lat="44.77586" lon="4.25341">
        <ele>827.3</ele>
      </trkpt>
      <trkpt lat="44.7759" lon="4.25316">
        <ele>830.9</ele>
      </trkpt>
      <trkpt lat="44.77586" lon="4.25299">
        <ele>829.7</ele>
      </trkpt>
      <trkpt lat="44.77582" lon="4.25297">
        <ele>828.7</ele>
      </trkpt>
      <trkpt lat="44.77576" lon="4.25295">
        <ele>830.9</ele>
      </trkpt>
      <trkpt lat="44.77544" lon="4.25342">
        <ele>836.1</ele>
      </trkpt>
      <trkpt lat="44.77533" lon="4.25359">
        <ele>825.43</ele>
        <time>2023-07-27T11:35:17Z</time>
      </trkpt>
      <trkpt lat="44.77526" lon="4.25366">
        <ele>825.43</ele>
        <time>2023-07-27T11:35:27Z</time>
      </trkpt>
      <trkpt lat="44.77522" lon="4.25403">
        <ele>829.76</ele>
        <time>2023-07-27T11:35:40Z</time>
      </trkpt>
      <trkpt lat="44.77518" lon="4.25412">
        <ele>831.68</ele>
        <time>2023-07-27T11:35:45Z</time>
      </trkpt>
      <trkpt lat="44.77519" lon="4.25432">
        <ele>832.64</ele>
        <time>2023-07-27T11:35:57Z</time>
      </trkpt>
      <trkpt lat="44.77519" lon="4.25447">
        <ele>833.6</ele>
        <time>2023-07-27T11:36:06Z</time>
      </trkpt>
      <trkpt lat="44.77521" lon="4.25453">
        <ele>833.6</ele>
        <time>2023-07-27T11:36:10Z</time>
      </trkpt>
      <trkpt lat="44.77521" lon="4.25473">
        <ele>835.04</ele>
        <time>2023-07-27T11:36:24Z</time>
      </trkpt>
      <trkpt lat="44.77522" lon="4.25476">
        <ele>835.52</ele>
        <time>2023-07-27T11:36:26Z</time>
      </trkpt>
      <trkpt lat="44.77517" lon="4.25488">
        <ele>836.48</ele>
        <time>2023-07-27T11:36:37Z</time>
      </trkpt>
      <trkpt lat="44.77517" lon="4.25496">
        <ele>837.45</ele>
        <time>2023-07-27T11:36:43Z</time>
      </trkpt>
      <trkpt lat="44.77518" lon="4.25503">
        <ele>838.89</ele>
        <time>2023-07-27T11:36:48Z</time>
      </trkpt>
      <trkpt lat="44.77518" lon="4.25509">
        <ele>839.37</ele>
        <time>2023-07-27T11:36:52Z</time>
      </trkpt>
      <trkpt lat="44.77518" lon="4.25516">
        <ele>840.81</ele>
        <time>2023-07-27T11:36:57Z</time>
      </trkpt>
      <trkpt lat="44.77514" lon="4.25523">
        <ele>841.77</ele>
        <time>2023-07-27T11:37:03Z</time>
      </trkpt>
      <trkpt lat="44.77503" lon="4.25532">
        <ele>844.18</ele>
        <time>2023-07-27T11:37:17Z</time>
      </trkpt>
      <trkpt lat="44.77498" lon="4.25535">
        <ele>845.14</ele>
        <time>2023-07-27T11:37:22Z</time>
      </trkpt>
      <trkpt lat="44.77479" lon="4.25525">
        <ele>846.1</ele>
        <time>2023-07-27T11:37:42Z</time>
      </trkpt>
      <trkpt lat="44.77454" lon="4.2552">
        <ele>843.69</ele>
        <time>2023-07-27T11:38:05Z</time>
      </trkpt>
      <trkpt lat="44.77432" lon="4.25518">
        <ele>841.29</ele>
        <time>2023-07-27T11:38:27Z</time>
      </trkpt>
      <trkpt lat="44.77416" lon="4.25499">
        <ele>839.37</ele>
        <time>2023-07-27T11:38:45Z</time>
      </trkpt>
      <trkpt lat="44.77393" lon="4.25476">
        <ele>836.96</ele>
        <time>2023-07-27T11:39:07Z</time>
      </trkpt>
      <trkpt lat="44.77371" lon="4.25458">
        <ele>836</ele>
        <time>2023-07-27T11:39:26Z</time>
      </trkpt>
      <trkpt lat="44.77359" lon="4.25441">
        <ele>834.56</ele>
        <time>2023-07-27T11:39:37Z</time>
      </trkpt>
      <trkpt lat="44.77334" lon="4.25429">
        <ele>833.12</ele>
        <time>2023-07-27T11:39:58Z</time>
      </trkpt>
      <trkpt lat="44.77324" lon="4.25432">
        <ele>832.64</ele>
        <time>2023-07-27T11:40:06Z</time>
      </trkpt>
      <trkpt lat="44.77294" lon="4.25433">
        <ele>831.68</ele>
        <time>2023-07-27T11:40:28Z</time>
      </trkpt>
      <trkpt lat="44.77276" lon="4.25424">
        <ele>828.79</ele>
        <time>2023-07-27T11:40:45Z</time>
      </trkpt>
      <trkpt lat="44.77259" lon="4.25418">
        <ele>823.51</ele>
        <time>2023-07-27T11:41:01Z</time>
      </trkpt>
      <trkpt lat="44.77241" lon="4.25395">
        <ele>818.22</ele>
        <time>2023-07-27T11:41:20Z</time>
      </trkpt>
      <trkpt lat="44.77218" lon="4.2537">
        <ele>811.97</ele>
        <time>2023-07-27T11:41:44Z</time>
      </trkpt>
      <trkpt lat="44.77195" lon="4.25362">
        <ele>805.72</ele>
        <time>2023-07-27T11:42:05Z</time>
      </trkpt>
      <trkpt lat="44.7718" lon="4.25365">
        <ele>815.34</ele>
        <time>2023-07-27T11:42:18Z</time>
      </trkpt>
      <trkpt lat="44.77168" lon="4.2537">
        <ele>817.26</ele>
        <time>2023-07-27T11:42:29Z</time>
      </trkpt>
      <trkpt lat="44.77152" lon="4.25374">
        <ele>818.22</ele>
        <time>2023-07-27T11:42:48Z</time>
      </trkpt>
      <trkpt lat="44.77134" lon="4.25366">
        <ele>819.66</ele>
        <time>2023-07-27T11:43:11Z</time>
      </trkpt>
      <trkpt lat="44.77125" lon="4.25359">
        <ele>819.18</ele>
        <time>2023-07-27T11:43:28Z</time>
      </trkpt>
      <trkpt lat="44.77114" lon="4.2537">
        <ele>818.7</ele>
        <time>2023-07-27T11:43:40Z</time>
      </trkpt>
      <trkpt lat="44.77089" lon="4.25427">
        <ele>819.66</ele>
        <time>2023-07-27T11:43:56Z</time>
      </trkpt>
      <trkpt lat="44.77087" lon="4.25431">
        <ele>819.66</ele>
        <time>2023-07-27T11:43:59Z</time>
      </trkpt>
      <trkpt lat="44.77081" lon="4.25442">
        <ele>819.66</ele>
        <time>2023-07-27T11:44:08Z</time>
      </trkpt>
      <trkpt lat="44.77078" lon="4.25448">
        <ele>819.66</ele>
        <time>2023-07-27T11:44:12Z</time>
      </trkpt>
      <trkpt lat="44.77074" lon="4.25453">
        <ele>819.18</ele>
        <time>2023-07-27T11:44:17Z</time>
      </trkpt>
      <trkpt lat="44.77071" lon="4.25456">
        <ele>819.18</ele>
        <time>2023-07-27T11:44:22Z</time>
      </trkpt>
      <trkpt lat="44.77067" lon="4.25467">
        <ele>819.18</ele>
        <time>2023-07-27T11:44:35Z</time>
      </trkpt>
      <trkpt lat="44.77064" lon="4.25476">
        <ele>819.18</ele>
        <time>2023-07-27T11:44:51Z</time>
      </trkpt>
      <trkpt lat="44.77059" lon="4.25473">
        <ele>819.18</ele>
        <time>2023-07-27T11:45:11Z</time>
      </trkpt>
      <trkpt lat="44.77057" lon="4.25479">
        <ele>819.18</ele>
        <time>2023-07-27T11:45:28Z</time>
      </trkpt>
      <trkpt lat="44.77059" lon="4.25483">
        <ele>818.22</ele>
        <time>2023-07-27T11:45:47Z</time>
      </trkpt>
      <trkpt lat="44.77063" lon="4.25487">
        <ele>818.22</ele>
        <time>2023-07-27T11:46:09Z</time>
      </trkpt>
      <trkpt lat="44.77065" lon="4.25485">
        <ele>818.22</ele>
        <time>2023-07-27T11:46:18Z</time>
      </trkpt>
      <trkpt lat="44.77066" lon="4.25484">
        <ele>817.74</ele>
        <time>2023-07-27T11:46:38Z</time>
      </trkpt>
      <trkpt lat="44.7706" lon="4.2549">
        <ele>817.74</ele>
        <time>2023-07-27T11:46:49Z</time>
      </trkpt>
      <trkpt lat="44.77051" lon="4.25501">
        <ele>817.26</ele>
        <time>2023-07-27T11:47:09Z</time>
      </trkpt>
      <trkpt lat="44.77055" lon="4.255">
        <ele>817.26</ele>
        <time>2023-07-27T11:47:29Z</time>
      </trkpt>
      <trkpt lat="44.77046" lon="4.25512">
        <ele>815.34</ele>
        <time>2023-07-27T11:47:51Z</time>
      </trkpt>
      <trkpt lat="44.77045" lon="4.25521">
        <ele>814.37</ele>
        <time>2023-07-27T11:48:09Z</time>
      </trkpt>
      <trkpt lat="44.77038" lon="4.25544">
        <ele>813.89</ele>
        <time>2023-07-27T11:48:29Z</time>
      </trkpt>
      <trkpt lat="44.77026" lon="4.25556">
        <ele>812.93</ele>
        <time>2023-07-27T11:48:47Z</time>
      </trkpt>
      <trkpt lat="44.77015" lon="4.25583">
        <ele>811.01</ele>
        <time>2023-07-27T11:49:03Z</time>
      </trkpt>
      <trkpt lat="44.77" lon="4.25598">
        <ele>808.61</ele>
        <time>2023-07-27T11:49:18Z</time>
      </trkpt>
      <trkpt lat="44.76996" lon="4.25609">
        <ele>806.68</ele>
        <time>2023-07-27T11:49:22Z</time>
      </trkpt>
      <trkpt lat="44.76992" lon="4.25613">
        <ele>804.28</ele>
        <time>2023-07-27T11:49:26Z</time>
      </trkpt>
      <trkpt lat="44.76987" lon="4.25619">
        <ele>799.95</ele>
        <time>2023-07-27T11:49:39Z</time>
      </trkpt>
      <trkpt lat="44.76981" lon="4.25632">
        <ele>794.67</ele>
        <time>2023-07-27T11:49:52Z</time>
      </trkpt>
      <trkpt lat="44.76968" lon="4.2565">
        <ele>787.46</ele>
        <time>2023-07-27T11:50:13Z</time>
      </trkpt>
      <trkpt lat="44.76964" lon="4.25653">
        <ele>785.05</ele>
        <time>2023-07-27T11:50:21Z</time>
      </trkpt>
      <trkpt lat="44.76945" lon="4.25683">
        <ele>777.84</ele>
        <time>2023-07-27T11:50:44Z</time>
      </trkpt>
      <trkpt lat="44.76929" lon="4.25711">
        <ele>771.6</ele>
        <time>2023-07-27T11:51:04Z</time>
      </trkpt>
      <trkpt lat="44.76909" lon="4.25739">
        <ele>765.83</ele>
        <time>2023-07-27T11:51:28Z</time>
      </trkpt>
      <trkpt lat="44.76909" lon="4.25756">
        <ele>783.13</ele>
        <time>2023-07-27T11:51:38Z</time>
      </trkpt>
      <trkpt lat="44.76903" lon="4.25759">
        <ele>784.09</ele>
        <time>2023-07-27T11:51:47Z</time>
      </trkpt>
      <trkpt lat="44.76888" lon="4.25744">
        <ele>783.61</ele>
        <time>2023-07-27T11:52:03Z</time>
      </trkpt>
      <trkpt lat="44.76887" lon="4.25743">
        <ele>784.09</ele>
        <time>2023-07-27T11:52:04Z</time>
      </trkpt>
      <trkpt lat="44.76873" lon="4.25729">
        <ele>786.5</ele>
        <time>2023-07-27T11:52:19Z</time>
      </trkpt>
      <trkpt lat="44.76865" lon="4.25723">
        <ele>789.86</ele>
        <time>2023-07-27T11:52:32Z</time>
      </trkpt>
      <trkpt lat="44.7686" lon="4.25728">
        <ele>791.78</ele>
        <time>2023-07-27T11:52:52Z</time>
      </trkpt>
      <trkpt lat="44.76853" lon="4.25737">
        <ele>794.19</ele>
        <time>2023-07-27T11:53:04Z</time>
      </trkpt>
      <trkpt lat="44.7685" lon="4.25755">
        <ele>798.99</ele>
        <time>2023-07-27T11:53:20Z</time>
      </trkpt>
      <trkpt lat="44.76837" lon="4.25765">
        <ele>797.07</ele>
        <time>2023-07-27T11:53:36Z</time>
      </trkpt>
      <trkpt lat="44.76833" lon="4.25768">
        <ele>798.03</ele>
        <time>2023-07-27T11:53:41Z</time>
      </trkpt>
      <trkpt lat="44.76824" lon="4.25778">
        <ele>800.44</ele>
        <time>2023-07-27T11:53:53Z</time>
      </trkpt>
      <trkpt lat="44.76807" lon="4.25799">
        <ele>804.28</ele>
        <time>2023-07-27T11:54:11Z</time>
      </trkpt>
      <trkpt lat="44.76797" lon="4.25813">
        <ele>807.64</ele>
        <time>2023-07-27T11:54:24Z</time>
      </trkpt>
      <trkpt lat="44.76789" lon="4.25825">
        <ele>807.16</ele>
        <time>2023-07-27T11:54:34Z</time>
      </trkpt>
      <trkpt lat="44.76775" lon="4.25839">
        <ele>806.68</ele>
        <time>2023-07-27T11:54:47Z</time>
      </trkpt>
      <trkpt lat="44.76768" lon="4.25846">
        <ele>806.2</ele>
        <time>2023-07-27T11:54:55Z</time>
      </trkpt>
      <trkpt lat="44.76757" lon="4.25864">
        <ele>805.24</ele>
        <time>2023-07-27T11:55:07Z</time>
      </trkpt>
      <trkpt lat="44.76754" lon="4.25868">
        <ele>804.76</ele>
        <time>2023-07-27T11:55:10Z</time>
      </trkpt>
      <trkpt lat="44.76748" lon="4.2587">
        <ele>804.76</ele>
        <time>2023-07-27T11:55:14Z</time>
      </trkpt>
      <trkpt lat="44.76736" lon="4.25881">
        <ele>804.28</ele>
        <time>2023-07-27T11:55:29Z</time>
      </trkpt>
      <trkpt lat="44.76728" lon="4.25911">
        <ele>802.36</ele>
        <time>2023-07-27T11:55:51Z</time>
      </trkpt>
      <trkpt lat="44.76727" lon="4.25916">
        <ele>802.36</ele>
        <time>2023-07-27T11:55:55Z</time>
      </trkpt>
      <trkpt lat="44.76713" lon="4.2594">
        <ele>801.4</ele>
        <time>2023-07-27T11:56:13Z</time>
      </trkpt>
      <trkpt lat="44.76706" lon="4.25944">
        <ele>801.4</ele>
        <time>2023-07-27T11:56:18Z</time>
      </trkpt>
      <trkpt lat="44.76696" lon="4.25957">
        <ele>800.44</ele>
        <time>2023-07-27T11:56:31Z</time>
      </trkpt>
      <trkpt lat="44.76691" lon="4.2597">
        <ele>799.95</ele>
        <time>2023-07-27T11:56:49Z</time>
      </trkpt>
      <trkpt lat="44.76691" lon="4.25973">
        <ele>798.99</ele>
        <time>2023-07-27T11:57:14Z</time>
      </trkpt>
      <trkpt lat="44.76689" lon="4.25976">
        <ele>797.55</ele>
        <time>2023-07-27T11:57:39Z</time>
      </trkpt>
      <trkpt lat="44.7669" lon="4.25975">
        <ele>797.07</ele>
        <time>2023-07-27T11:58:00Z</time>
      </trkpt>
      <trkpt lat="44.76689" lon="4.25975">
        <ele>797.07</ele>
        <time>2023-07-27T11:58:08Z</time>
      </trkpt>
      <trkpt lat="44.76674" lon="4.25999">
        <ele>797.07</ele>
        <time>2023-07-27T11:58:25Z</time>
      </trkpt>
      <trkpt lat="44.7666" lon="4.26021">
        <ele>796.59</ele>
        <time>2023-07-27T11:58:42Z</time>
      </trkpt>
      <trkpt lat="44.76645" lon="4.26036">
        <ele>796.59</ele>
        <time>2023-07-27T11:58:58Z</time>
      </trkpt>
      <trkpt lat="44.7663" lon="4.2605">
        <ele>789.38</ele>
        <time>2023-07-27T11:59:08Z</time>
      </trkpt>
      <trkpt lat="44.76616" lon="4.26072">
        <ele>782.65</ele>
        <time>2023-07-27T11:59:28Z</time>
      </trkpt>
      <trkpt lat="44.76605" lon="4.26076">
        <ele>779.29</ele>
        <time>2023-07-27T11:59:44Z</time>
      </trkpt>
      <trkpt lat="44.76604" lon="4.26078">
        <ele>779.77</ele>
        <time>2023-07-27T11:59:46Z</time>
      </trkpt>
      <trkpt lat="44.76598" lon="4.26095">
        <ele>781.69</ele>
        <time>2023-07-27T11:59:55Z</time>
      </trkpt>
      <trkpt lat="44.76577" lon="4.26105">
        <ele>783.13</ele>
        <time>2023-07-27T12:00:11Z</time>
      </trkpt>
      <trkpt lat="44.76566" lon="4.26113">
        <ele>783.61</ele>
        <time>2023-07-27T12:00:30Z</time>
      </trkpt>
      <trkpt lat="44.76543" lon="4.2613">
        <ele>782.65</ele>
        <time>2023-07-27T12:00:49Z</time>
      </trkpt>
      <trkpt lat="44.76541" lon="4.26131">
        <ele>782.65</ele>
        <time>2023-07-27T12:00:50Z</time>
      </trkpt>
      <trkpt lat="44.76526" lon="4.2615">
        <ele>777.36</ele>
        <time>2023-07-27T12:00:57Z</time>
      </trkpt>
      <trkpt lat="44.76522" lon="4.26153">
        <ele>775.92</ele>
        <time>2023-07-27T12:01:00Z</time>
      </trkpt>
      <trkpt lat="44.76514" lon="4.26161">
        <ele>774</ele>
        <time>2023-07-27T12:01:06Z</time>
      </trkpt>
      <trkpt lat="44.76509" lon="4.26171">
        <ele>775.44</ele>
        <time>2023-07-27T12:01:15Z</time>
      </trkpt>
      <trkpt lat="44.76501" lon="4.26191">
        <ele>773.04</ele>
        <time>2023-07-27T12:01:25Z</time>
      </trkpt>
      <trkpt lat="44.7649" lon="4.26194">
        <ele>770.15</ele>
        <time>2023-07-27T12:01:38Z</time>
      </trkpt>
      <trkpt lat="44.76487" lon="4.26201">
        <ele>766.79</ele>
        <time>2023-07-27T12:01:55Z</time>
      </trkpt>
      <trkpt lat="44.76486" lon="4.26204">
        <ele>765.35</ele>
        <time>2023-07-27T12:02:16Z</time>
      </trkpt>
      <trkpt lat="44.76486" lon="4.26205">
        <ele>763.42</ele>
        <time>2023-07-27T12:02:44Z</time>
      </trkpt>
      <trkpt lat="44.76481" lon="4.26191">
        <ele>763.9</ele>
        <time>2023-07-27T12:03:04Z</time>
      </trkpt>
      <trkpt lat="44.7646" lon="4.26181">
        <ele>759.58</ele>
        <time>2023-07-27T12:03:27Z</time>
      </trkpt>
      <trkpt lat="44.76448" lon="4.26179">
        <ele>751.89</ele>
        <time>2023-07-27T12:03:47Z</time>
      </trkpt>
      <trkpt lat="44.76431" lon="4.26177">
        <ele>745.64</ele>
        <time>2023-07-27T12:04:04Z</time>
      </trkpt>
      <trkpt lat="44.76424" lon="4.26168">
        <ele>745.16</ele>
        <time>2023-07-27T12:04:23Z</time>
      </trkpt>
      <trkpt lat="44.76407" lon="4.26158">
        <ele>742.76</ele>
        <time>2023-07-27T12:04:44Z</time>
      </trkpt>
      <trkpt lat="44.76394" lon="4.26147">
        <ele>741.31</ele>
        <time>2023-07-27T12:05:05Z</time>
      </trkpt>
      <trkpt lat="44.76377" lon="4.26137">
        <ele>737.47</ele>
        <time>2023-07-27T12:05:29Z</time>
      </trkpt>
      <trkpt lat="44.76362" lon="4.26134">
        <ele>736.03</ele>
        <time>2023-07-27T12:05:38Z</time>
      </trkpt>
      <trkpt lat="44.76337" lon="4.2613">
        <ele>731.22</ele>
        <time>2023-07-27T12:06:01Z</time>
      </trkpt>
      <trkpt lat="44.76328" lon="4.26132">
        <ele>730.26</ele>
        <time>2023-07-27T12:06:19Z</time>
      </trkpt>
      <trkpt lat="44.76324" lon="4.26123">
        <ele>731.22</ele>
        <time>2023-07-27T12:06:38Z</time>
      </trkpt>
      <trkpt lat="44.763" lon="4.26116">
        <ele>729.78</ele>
        <time>2023-07-27T12:07:03Z</time>
      </trkpt>
      <trkpt lat="44.76266" lon="4.26108">
        <ele>724.49</ele>
        <time>2023-07-27T12:07:30Z</time>
      </trkpt>
      <trkpt lat="44.7626" lon="4.26094">
        <ele>723.53</ele>
        <time>2023-07-27T12:07:51Z</time>
      </trkpt>
      <trkpt lat="44.76251" lon="4.26097">
        <ele>724.01</ele>
        <time>2023-07-27T12:08:15Z</time>
      </trkpt>
      <trkpt lat="44.76229" lon="4.26116">
        <ele>724.97</ele>
        <time>2023-07-27T12:08:36Z</time>
      </trkpt>
      <trkpt lat="44.76198" lon="4.26126">
        <ele>723.53</ele>
        <time>2023-07-27T12:08:56Z</time>
      </trkpt>
      <trkpt lat="44.7618" lon="4.2612">
        <ele>720.65</ele>
        <time>2023-07-27T12:09:16Z</time>
      </trkpt>
      <trkpt lat="44.76159" lon="4.26095">
        <ele>718.72</ele>
        <time>2023-07-27T12:09:40Z</time>
      </trkpt>
      <trkpt lat="44.76135" lon="4.26085">
        <ele>712.95</ele>
        <time>2023-07-27T12:10:03Z</time>
      </trkpt>
      <trkpt lat="44.76133" lon="4.26061">
        <ele>706.71</ele>
        <time>2023-07-27T12:10:23Z</time>
      </trkpt>
      <trkpt lat="44.76135" lon="4.26057">
        <ele>704.78</ele>
        <time>2023-07-27T12:10:27Z</time>
      </trkpt>
      <trkpt lat="44.76138" lon="4.26043">
        <ele>698.53</ele>
        <time>2023-07-27T12:10:50Z</time>
      </trkpt>
      <trkpt lat="44.76082" lon="4.26036">
        <ele>712.47</ele>
        <time>2023-07-27T12:11:11Z</time>
      </trkpt>
      <trkpt lat="44.76077" lon="4.26038">
        <ele>713.92</ele>
        <time>2023-07-27T12:11:14Z</time>
      </trkpt>
      <trkpt lat="44.76061" lon="4.26037">
        <ele>717.76</ele>
        <time>2023-07-27T12:11:29Z</time>
      </trkpt>
      <trkpt lat="44.7605" lon="4.26025">
        <ele>720.16</ele>
        <time>2023-07-27T12:11:46Z</time>
      </trkpt>
      <trkpt lat="44.76044" lon="4.26017">
        <ele>722.09</ele>
        <time>2023-07-27T12:11:59Z</time>
      </trkpt>
      <trkpt lat="44.76043" lon="4.26016">
        <ele>722.09</ele>
        <time>2023-07-27T12:12:01Z</time>
      </trkpt>
      <trkpt lat="44.76035" lon="4.26015">
        <ele>722.57</ele>
        <time>2023-07-27T12:12:09Z</time>
      </trkpt>
      <trkpt lat="44.76023" lon="4.26008">
        <ele>724.01</ele>
        <time>2023-07-27T12:12:25Z</time>
      </trkpt>
      <trkpt lat="44.76014" lon="4.25992">
        <ele>725.45</ele>
        <time>2023-07-27T12:12:44Z</time>
      </trkpt>
      <trkpt lat="44.76" lon="4.25978">
        <ele>726.89</ele>
        <time>2023-07-27T12:12:58Z</time>
      </trkpt>
      <trkpt lat="44.75999" lon="4.25978">
        <ele>726.89</ele>
        <time>2023-07-27T12:12:59Z</time>
      </trkpt>
      <trkpt lat="44.75993" lon="4.25977">
        <ele>725.93</ele>
        <time>2023-07-27T12:13:10Z</time>
      </trkpt>
      <trkpt lat="44.7599" lon="4.25977">
        <ele>725.93</ele>
        <time>2023-07-27T12:13:22Z</time>
      </trkpt>
      <trkpt lat="44.75989" lon="4.25977">
        <ele>726.89</ele>
        <time>2023-07-27T12:13:38Z</time>
      </trkpt>
      <trkpt lat="44.75987" lon="4.25973">
        <ele>727.37</ele>
        <time>2023-07-27T12:13:57Z</time>
      </trkpt>
      <trkpt lat="44.75975" lon="4.25975">
        <ele>727.86</ele>
        <time>2023-07-27T12:14:18Z</time>
      </trkpt>
      <trkpt lat="44.75962" lon="4.25981">
        <ele>728.34</ele>
        <time>2023-07-27T12:14:40Z</time>
      </trkpt>
      <trkpt lat="44.75968" lon="4.25978">
        <ele>729.78</ele>
        <time>2023-07-27T12:15:01Z</time>
      </trkpt>
      <trkpt lat="44.75967" lon="4.25975">
        <ele>730.26</ele>
        <time>2023-07-27T12:15:21Z</time>
      </trkpt>
      <trkpt lat="44.7597" lon="4.25981">
        <ele>730.74</ele>
        <time>2023-07-27T12:17:25Z</time>
      </trkpt>
      <trkpt lat="44.7597" lon="4.25975">
        <ele>732.18</ele>
        <time>2023-07-27T12:17:55Z</time>
      </trkpt>
      <trkpt lat="44.75972" lon="4.25973">
        <ele>729.78</ele>
        <time>2023-07-27T12:18:23Z</time>
      </trkpt>
      <trkpt lat="44.75976" lon="4.2597">
        <ele>729.78</ele>
        <time>2023-07-27T12:18:33Z</time>
      </trkpt>
      <trkpt lat="44.7598" lon="4.25969">
        <ele>728.34</ele>
        <time>2023-07-27T12:18:57Z</time>
      </trkpt>
      <trkpt lat="44.75959" lon="4.2597">
        <ele>733.62</ele>
        <time>2023-07-27T12:19:17Z</time>
      </trkpt>
      <trkpt lat="44.75957" lon="4.25968">
        <ele>730.74</ele>
        <time>2023-07-27T12:19:22Z</time>
      </trkpt>
      <trkpt lat="44.75944" lon="4.2597">
        <ele>725.93</ele>
        <time>2023-07-27T12:19:38Z</time>
      </trkpt>
      <trkpt lat="44.75943" lon="4.2598">
        <ele>724.97</ele>
        <time>2023-07-27T12:19:55Z</time>
      </trkpt>
      <trkpt lat="44.75944" lon="4.25983">
        <ele>723.53</ele>
        <time>2023-07-27T12:20:13Z</time>
      </trkpt>
      <trkpt lat="44.75945" lon="4.25979">
        <ele>723.53</ele>
        <time>2023-07-27T12:20:22Z</time>
      </trkpt>
      <trkpt lat="44.75943" lon="4.25958">
        <ele>723.05</ele>
        <time>2023-07-27T12:20:46Z</time>
      </trkpt>
      <trkpt lat="44.75951" lon="4.25965">
        <ele>723.05</ele>
        <time>2023-07-27T12:21:09Z</time>
      </trkpt>
      <trkpt lat="44.75945" lon="4.25969">
        <ele>723.05</ele>
        <time>2023-07-27T12:21:27Z</time>
      </trkpt>
      <trkpt lat="44.75933" lon="4.25962">
        <ele>722.57</ele>
        <time>2023-07-27T12:21:49Z</time>
      </trkpt>
      <trkpt lat="44.75926" lon="4.25951">
        <ele>722.57</ele>
        <time>2023-07-27T12:22:13Z</time>
      </trkpt>
      <trkpt lat="44.75925" lon="4.25948">
        <ele>722.57</ele>
        <time>2023-07-27T12:22:15Z</time>
      </trkpt>
      <trkpt lat="44.75894" lon="4.25956">
        <ele>736.03</ele>
        <time>2023-07-27T12:22:27Z</time>
      </trkpt>
      <trkpt lat="44.75881" lon="4.25972">
        <ele>729.78</ele>
        <time>2023-07-27T12:22:43Z</time>
      </trkpt>
      <trkpt lat="44.75871" lon="4.25984">
        <ele>727.86</ele>
        <time>2023-07-27T12:22:57Z</time>
      </trkpt>
      <trkpt lat="44.75865" lon="4.25993">
        <ele>726.89</ele>
        <time>2023-07-27T12:23:05Z</time>
      </trkpt>
      <trkpt lat="44.75852" lon="4.25994">
        <ele>725.93</ele>
        <time>2023-07-27T12:23:15Z</time>
      </trkpt>
      <trkpt lat="44.75829" lon="4.25987">
        <ele>723.05</ele>
        <time>2023-07-27T12:23:30Z</time>
      </trkpt>
      <trkpt lat="44.75815" lon="4.25977">
        <ele>722.09</ele>
        <time>2023-07-27T12:23:43Z</time>
      </trkpt>
      <trkpt lat="44.75796" lon="4.25966">
        <ele>720.65</ele>
        <time>2023-07-27T12:24:01Z</time>
      </trkpt>
      <trkpt lat="44.75774" lon="4.25953">
        <ele>720.65</ele>
        <time>2023-07-27T12:24:17Z</time>
      </trkpt>
      <trkpt lat="44.75759" lon="4.2594">
        <ele>719.68</ele>
        <time>2023-07-27T12:24:33Z</time>
      </trkpt>
      <trkpt lat="44.75741" lon="4.25933">
        <ele>719.68</ele>
        <time>2023-07-27T12:24:47Z</time>
      </trkpt>
      <trkpt lat="44.75737" lon="4.25927">
        <ele>719.68</ele>
        <time>2023-07-27T12:24:52Z</time>
      </trkpt>
      <trkpt lat="44.75726" lon="4.25908">
        <ele>721.13</ele>
        <time>2023-07-27T12:25:06Z</time>
      </trkpt>
      <trkpt lat="44.75721" lon="4.25882">
        <ele>720.65</ele>
        <time>2023-07-27T12:25:21Z</time>
      </trkpt>
      <trkpt lat="44.75716" lon="4.25865">
        <ele>720.65</ele>
        <time>2023-07-27T12:25:31Z</time>
      </trkpt>
      <trkpt lat="44.75714" lon="4.25852">
        <ele>720.65</ele>
        <time>2023-07-27T12:25:41Z</time>
      </trkpt>
      <trkpt lat="44.75714" lon="4.25828">
        <ele>720.65</ele>
        <time>2023-07-27T12:25:52Z</time>
      </trkpt>
      <trkpt lat="44.75713" lon="4.25805">
        <ele>720.65</ele>
        <time>2023-07-27T12:26:05Z</time>
      </trkpt>
      <trkpt lat="44.7571" lon="4.25781">
        <ele>720.65</ele>
        <time>2023-07-27T12:26:16Z</time>
      </trkpt>
      <trkpt lat="44.75705" lon="4.25758">
        <ele>720.16</ele>
        <time>2023-07-27T12:26:30Z</time>
      </trkpt>
      <trkpt lat="44.75701" lon="4.25746">
        <ele>720.16</ele>
        <time>2023-07-27T12:26:38Z</time>
      </trkpt>
      <trkpt lat="44.75693" lon="4.25719">
        <ele>720.16</ele>
        <time>2023-07-27T12:26:53Z</time>
      </trkpt>
      <trkpt lat="44.75682" lon="4.25701">
        <ele>720.16</ele>
        <time>2023-07-27T12:27:04Z</time>
      </trkpt>
      <trkpt lat="44.75677" lon="4.25691">
        <ele>720.16</ele>
        <time>2023-07-27T12:27:11Z</time>
      </trkpt>
      <trkpt lat="44.75664" lon="4.25676">
        <ele>720.16</ele>
        <time>2023-07-27T12:27:25Z</time>
      </trkpt>
      <trkpt lat="44.75645" lon="4.25642">
        <ele>720.65</ele>
        <time>2023-07-27T12:27:41Z</time>
      </trkpt>
      <trkpt lat="44.75746" lon="4.25698">
        <ele>771.11</ele>
        <time>2023-07-27T12:27:47Z</time>
      </trkpt>
      <trkpt lat="44.75732" lon="4.25689">
        <ele>765.83</ele>
        <time>2023-07-27T12:27:49Z</time>
      </trkpt>
      <trkpt lat="44.7568" lon="4.25636">
        <ele>747.08</ele>
        <time>2023-07-27T12:28:02Z</time>
      </trkpt>
      <trkpt lat="44.75662" lon="4.25604">
        <ele>735.07</ele>
        <time>2023-07-27T12:28:14Z</time>
      </trkpt>
      <trkpt lat="44.75655" lon="4.25593">
        <ele>733.14</ele>
        <time>2023-07-27T12:28:19Z</time>
      </trkpt>
      <trkpt lat="44.75634" lon="4.25567">
        <ele>727.86</ele>
        <time>2023-07-27T12:28:32Z</time>
      </trkpt>
      <trkpt lat="44.75621" lon="4.25549">
        <ele>725.93</ele>
        <time>2023-07-27T12:28:42Z</time>
      </trkpt>
      <trkpt lat="44.75614" lon="4.25528">
        <ele>724.49</ele>
        <time>2023-07-27T12:28:52Z</time>
      </trkpt>
      <trkpt lat="44.75608" lon="4.2551">
        <ele>723.05</ele>
        <time>2023-07-27T12:29:03Z</time>
      </trkpt>
      <trkpt lat="44.75601" lon="4.25489">
        <ele>722.57</ele>
        <time>2023-07-27T12:29:13Z</time>
      </trkpt>
      <trkpt lat="44.756" lon="4.25481">
        <ele>722.09</ele>
        <time>2023-07-27T12:29:18Z</time>
      </trkpt>
      <trkpt lat="44.75601" lon="4.25467">
        <ele>721.13</ele>
        <time>2023-07-27T12:29:26Z</time>
      </trkpt>
      <trkpt lat="44.75599" lon="4.25435">
        <ele>721.13</ele>
        <time>2023-07-27T12:29:48Z</time>
      </trkpt>
      <trkpt lat="44.75595" lon="4.25428">
        <ele>719.2</ele>
        <time>2023-07-27T12:29:58Z</time>
      </trkpt>
      <trkpt lat="44.75572" lon="4.25393">
        <ele>709.11</ele>
        <time>2023-07-27T12:30:18Z</time>
      </trkpt>
      <trkpt lat="44.75569" lon="4.25392">
        <ele>703.34</ele>
        <time>2023-07-27T12:30:34Z</time>
      </trkpt>
      <trkpt lat="44.75569" lon="4.25395">
        <ele>703.34</ele>
        <time>2023-07-27T12:30:37Z</time>
      </trkpt>
      <trkpt lat="44.75564" lon="4.25405">
        <ele>700.94</ele>
        <time>2023-07-27T12:30:55Z</time>
      </trkpt>
      <trkpt lat="44.75546" lon="4.25373">
        <ele>693.25</ele>
        <time>2023-07-27T12:31:14Z</time>
      </trkpt>
      <trkpt lat="44.75544" lon="4.25363">
        <ele>691.81</ele>
        <time>2023-07-27T12:31:22Z</time>
      </trkpt>
      <trkpt lat="44.75541" lon="4.25352">
        <ele>687.96</ele>
        <time>2023-07-27T12:31:36Z</time>
      </trkpt>
      <trkpt lat="44.75541" lon="4.25351">
        <ele>686.52</ele>
        <time>2023-07-27T12:31:39Z</time>
      </trkpt>
      <trkpt lat="44.75538" lon="4.25338">
        <ele>681.23</ele>
        <time>2023-07-27T12:31:50Z</time>
      </trkpt>
      <trkpt lat="44.75536" lon="4.25334">
        <ele>678.83</ele>
        <time>2023-07-27T12:32:11Z</time>
      </trkpt>
      <trkpt lat="44.75536" lon="4.25333">
        <ele>677.87</ele>
        <time>2023-07-27T12:32:27Z</time>
      </trkpt>
      <trkpt lat="44.75535" lon="4.25332">
        <ele>675.46</ele>
        <time>2023-07-27T12:32:44Z</time>
      </trkpt>
      <trkpt lat="44.75535" lon="4.25331">
        <ele>674.02</ele>
        <time>2023-07-27T12:32:57Z</time>
      </trkpt>
      <trkpt lat="44.75534" lon="4.2533">
        <ele>672.58</ele>
        <time>2023-07-27T12:33:11Z</time>
      </trkpt>
      <trkpt lat="44.75533" lon="4.25331">
        <ele>672.58</ele>
        <time>2023-07-27T12:33:26Z</time>
      </trkpt>
      <trkpt lat="44.75531" lon="4.25326">
        <ele>672.1</ele>
        <time>2023-07-27T12:33:42Z</time>
      </trkpt>
      <trkpt lat="44.75538" lon="4.2533">
        <ele>671.62</ele>
        <time>2023-07-27T12:34:02Z</time>
      </trkpt>
      <trkpt lat="44.75543" lon="4.25326">
        <ele>671.14</ele>
        <time>2023-07-27T12:34:24Z</time>
      </trkpt>
      <trkpt lat="44.75548" lon="4.25322">
        <ele>670.18</ele>
        <time>2023-07-27T12:34:38Z</time>
      </trkpt>
      <trkpt lat="44.75553" lon="4.25305">
        <ele>670.18</ele>
        <time>2023-07-27T12:34:51Z</time>
      </trkpt>
      <trkpt lat="44.75552" lon="4.25302">
        <ele>669.7</ele>
        <time>2023-07-27T12:35:01Z</time>
      </trkpt>
      <trkpt lat="44.75552" lon="4.25302">
        <ele>669.7</ele>
        <time>2023-07-27T12:35:13Z</time>
      </trkpt>
      <trkpt lat="44.75552" lon="4.25302">
        <ele>668.25</ele>
        <time>2023-07-27T12:35:27Z</time>
      </trkpt>
      <trkpt lat="44.75553" lon="4.25302">
        <ele>668.25</ele>
        <time>2023-07-27T12:35:49Z</time>
      </trkpt>
      <trkpt lat="44.75553" lon="4.25302">
        <ele>667.77</ele>
        <time>2023-07-27T12:36:13Z</time>
      </trkpt>
      <trkpt lat="44.75553" lon="4.25302">
        <ele>667.77</ele>
        <time>2023-07-27T12:36:38Z</time>
      </trkpt>
      <trkpt lat="44.75559" lon="4.25307">
        <ele>667.29</ele>
        <time>2023-07-27T12:37:08Z</time>
      </trkpt>
      <trkpt lat="44.75556" lon="4.25304">
        <ele>666.81</ele>
        <time>2023-07-27T12:37:26Z</time>
      </trkpt>
      <trkpt lat="44.75555" lon="4.25303">
        <ele>666.81</ele>
        <time>2023-07-27T12:37:48Z</time>
      </trkpt>
      <trkpt lat="44.75555" lon="4.25305">
        <ele>666.33</ele>
        <time>2023-07-27T12:38:08Z</time>
      </trkpt>
      <trkpt lat="44.75557" lon="4.25306">
        <ele>666.33</ele>
        <time>2023-07-27T12:38:29Z</time>
      </trkpt>
      <trkpt lat="44.75558" lon="4.25305">
        <ele>666.81</ele>
        <time>2023-07-27T12:38:50Z</time>
      </trkpt>
      <trkpt lat="44.7556" lon="4.25302">
        <ele>667.29</ele>
        <time>2023-07-27T12:39:12Z</time>
      </trkpt>
      <trkpt lat="44.75557" lon="4.25294">
        <ele>667.29</ele>
        <time>2023-07-27T12:39:18Z</time>
      </trkpt>
      <trkpt lat="44.75551" lon="4.25286">
        <ele>667.29</ele>
        <time>2023-07-27T12:39:24Z</time>
      </trkpt>
      <trkpt lat="44.75528" lon="4.25272">
        <ele>665.85</ele>
        <time>2023-07-27T12:39:46Z</time>
      </trkpt>
      <trkpt lat="44.75507" lon="4.25268">
        <ele>664.89</ele>
        <time>2023-07-27T12:40:03Z</time>
      </trkpt>
      <trkpt lat="44.7549" lon="4.25267">
        <ele>662.01</ele>
        <time>2023-07-27T12:40:17Z</time>
      </trkpt>
      <trkpt lat="44.75476" lon="4.25259">
        <ele>660.56</ele>
        <time>2023-07-27T12:40:35Z</time>
      </trkpt>
      <trkpt lat="44.75476" lon="4.25262">
        <ele>659.6</ele>
        <time>2023-07-27T12:40:48Z</time>
      </trkpt>
      <trkpt lat="44.75475" lon="4.25262">
        <ele>659.12</ele>
        <time>2023-07-27T12:41:07Z</time>
      </trkpt>
      <trkpt lat="44.7547" lon="4.25261">
        <ele>659.12</ele>
        <time>2023-07-27T12:41:27Z</time>
      </trkpt>
      <trkpt lat="44.75469" lon="4.25262">
        <ele>659.6</ele>
        <time>2023-07-27T12:41:51Z</time>
      </trkpt>
      <trkpt lat="44.75466" lon="4.25259">
        <ele>656.24</ele>
        <time>2023-07-27T12:42:17Z</time>
      </trkpt>
      <trkpt lat="44.75466" lon="4.25259">
        <ele>653.83</ele>
        <time>2023-07-27T12:42:30Z</time>
      </trkpt>
      <trkpt lat="44.75466" lon="4.25258">
        <ele>652.87</ele>
        <time>2023-07-27T12:42:44Z</time>
      </trkpt>
      <trkpt lat="44.75465" lon="4.2526">
        <ele>651.91</ele>
        <time>2023-07-27T12:42:55Z</time>
      </trkpt>
      <trkpt lat="44.75465" lon="4.2526">
        <ele>649.99</ele>
        <time>2023-07-27T12:43:08Z</time>
      </trkpt>
      <trkpt lat="44.7547" lon="4.25256">
        <ele>647.1</ele>
        <time>2023-07-27T12:43:33Z</time>
      </trkpt>
      <trkpt lat="44.75468" lon="4.25258">
        <ele>646.14</ele>
        <time>2023-07-27T12:43:55Z</time>
      </trkpt>
      <trkpt lat="44.7545" lon="4.2526">
        <ele>645.18</ele>
        <time>2023-07-27T12:44:10Z</time>
      </trkpt>
      <trkpt lat="44.75439" lon="4.25254">
        <ele>642.78</ele>
        <time>2023-07-27T12:44:20Z</time>
      </trkpt>
      <trkpt lat="44.7542" lon="4.25247">
        <ele>641.34</ele>
        <time>2023-07-27T12:44:31Z</time>
      </trkpt>
      <trkpt lat="44.75417" lon="4.25245">
        <ele>640.38</ele>
        <time>2023-07-27T12:44:37Z</time>
      </trkpt>
      <trkpt lat="44.75409" lon="4.25259">
        <ele>640.38</ele>
        <time>2023-07-27T12:44:45Z</time>
      </trkpt>
      <trkpt lat="44.75404" lon="4.25251">
        <ele>639.89</ele>
        <time>2023-07-27T12:44:51Z</time>
      </trkpt>
      <trkpt lat="44.75395" lon="4.25231">
        <ele>638.93</ele>
        <time>2023-07-27T12:45:02Z</time>
      </trkpt>
      <trkpt lat="44.75393" lon="4.25233">
        <ele>637.01</ele>
        <time>2023-07-27T12:45:15Z</time>
      </trkpt>
      <trkpt lat="44.75393" lon="4.25233">
        <ele>636.53</ele>
        <time>2023-07-27T12:45:21Z</time>
      </trkpt>
      <trkpt lat="44.75369" lon="4.25224">
        <ele>634.13</ele>
        <time>2023-07-27T12:45:33Z</time>
      </trkpt>
      <trkpt lat="44.75366" lon="4.25222">
        <ele>634.13</ele>
        <time>2023-07-27T12:45:36Z</time>
      </trkpt>
      <trkpt lat="44.75362" lon="4.25214">
        <ele>633.65</ele>
        <time>2023-07-27T12:45:41Z</time>
      </trkpt>
      <trkpt lat="44.75357" lon="4.25208">
        <ele>631.72</ele>
        <time>2023-07-27T12:45:47Z</time>
      </trkpt>
      <trkpt lat="44.75345" lon="4.25195">
        <ele>630.76</ele>
        <time>2023-07-27T12:46:05Z</time>
      </trkpt>
      <trkpt lat="44.75344" lon="4.25199">
        <ele>630.28</ele>
        <time>2023-07-27T12:46:10Z</time>
      </trkpt>
      <trkpt lat="44.75343" lon="4.2519">
        <ele>629.8</ele>
        <time>2023-07-27T12:46:17Z</time>
      </trkpt>
      <trkpt lat="44.75337" lon="4.25185">
        <ele>628.36</ele>
        <time>2023-07-27T12:46:28Z</time>
      </trkpt>
      <trkpt lat="44.75331" lon="4.25176">
        <ele>626.92</ele>
        <time>2023-07-27T12:46:52Z</time>
      </trkpt>
      <trkpt lat="44.75325" lon="4.25167">
        <ele>626.92</ele>
        <time>2023-07-27T12:47:06Z</time>
      </trkpt>
      <trkpt lat="44.75319" lon="4.25157">
        <ele>626.92</ele>
        <time>2023-07-27T12:47:15Z</time>
      </trkpt>
      <trkpt lat="44.75304" lon="4.25127">
        <ele>626.44</ele>
        <time>2023-07-27T12:47:34Z</time>
      </trkpt>
      <trkpt lat="44.75295" lon="4.25112">
        <ele>626.44</ele>
        <time>2023-07-27T12:47:44Z</time>
      </trkpt>
      <trkpt lat="44.75283" lon="4.25103">
        <ele>626.92</ele>
        <time>2023-07-27T12:47:55Z</time>
      </trkpt>
      <trkpt lat="44.75272" lon="4.25096">
        <ele>627.4</ele>
        <time>2023-07-27T12:48:02Z</time>
      </trkpt>
      <trkpt lat="44.75268" lon="4.25093">
        <ele>627.88</ele>
        <time>2023-07-27T12:48:05Z</time>
      </trkpt>
      <trkpt lat="44.75266" lon="4.25084">
        <ele>627.88</ele>
        <time>2023-07-27T12:48:10Z</time>
      </trkpt>
      <trkpt lat="44.75252" lon="4.25072">
        <ele>627.88</ele>
        <time>2023-07-27T12:48:23Z</time>
      </trkpt>
      <trkpt lat="44.75242" lon="4.25067">
        <ele>627.88</ele>
        <time>2023-07-27T12:48:31Z</time>
      </trkpt>
      <trkpt lat="44.75229" lon="4.25054">
        <ele>628.36</ele>
        <time>2023-07-27T12:48:41Z</time>
      </trkpt>
      <trkpt lat="44.75213" lon="4.25039">
        <ele>628.36</ele>
        <time>2023-07-27T12:48:54Z</time>
      </trkpt>
      <trkpt lat="44.75195" lon="4.25023">
        <ele>628.36</ele>
        <time>2023-07-27T12:49:08Z</time>
      </trkpt>
      <trkpt lat="44.7519" lon="4.25019">
        <ele>628.36</ele>
        <time>2023-07-27T12:49:11Z</time>
      </trkpt>
      <trkpt lat="44.75171" lon="4.25016">
        <ele>628.36</ele>
        <time>2023-07-27T12:49:21Z</time>
      </trkpt>
      <trkpt lat="44.75165" lon="4.25002">
        <ele>628.36</ele>
        <time>2023-07-27T12:49:30Z</time>
      </trkpt>
      <trkpt lat="44.75158" lon="4.24984">
        <ele>628.36</ele>
        <time>2023-07-27T12:49:42Z</time>
      </trkpt>
      <trkpt lat="44.75153" lon="4.24962">
        <ele>628.36</ele>
        <time>2023-07-27T12:49:55Z</time>
      </trkpt>
      <trkpt lat="44.75143" lon="4.24956">
        <ele>677.39</ele>
        <time>2023-07-27T12:50:10Z</time>
      </trkpt>
      <trkpt lat="44.75135" lon="4.24933">
        <ele>686.52</ele>
        <time>2023-07-27T12:50:23Z</time>
      </trkpt>
      <trkpt lat="44.75136" lon="4.24907">
        <ele>673.06</ele>
        <time>2023-07-27T12:50:34Z</time>
      </trkpt>
      <trkpt lat="44.75136" lon="4.24904">
        <ele>672.1</ele>
        <time>2023-07-27T12:50:36Z</time>
      </trkpt>
      <trkpt lat="44.75133" lon="4.2488">
        <ele>664.41</ele>
        <time>2023-07-27T12:50:47Z</time>
      </trkpt>
      <trkpt lat="44.75132" lon="4.24862">
        <ele>654.8</ele>
        <time>2023-07-27T12:50:55Z</time>
      </trkpt>
      <trkpt lat="44.75122" lon="4.24843">
        <ele>651.91</ele>
        <time>2023-07-27T12:51:06Z</time>
      </trkpt>
      <trkpt lat="44.75117" lon="4.24826">
        <ele>641.82</ele>
        <time>2023-07-27T12:51:17Z</time>
      </trkpt>
      <trkpt lat="44.7511" lon="4.2482">
        <ele>641.82</ele>
        <time>2023-07-27T12:51:22Z</time>
      </trkpt>
      <trkpt lat="44.7511" lon="4.24817">
        <ele>641.82</ele>
        <time>2023-07-27T12:51:24Z</time>
      </trkpt>
      <trkpt lat="44.75101" lon="4.24805">
        <ele>641.82</ele>
        <time>2023-07-27T12:51:37Z</time>
      </trkpt>
      <trkpt lat="44.751" lon="4.24799">
        <ele>641.82</ele>
        <time>2023-07-27T12:51:42Z</time>
      </trkpt>
      <trkpt lat="44.751" lon="4.24791">
        <ele>640.38</ele>
        <time>2023-07-27T12:51:48Z</time>
      </trkpt>
      <trkpt lat="44.751" lon="4.24781">
        <ele>639.41</ele>
        <time>2023-07-27T12:51:52Z</time>
      </trkpt>
      <trkpt lat="44.75097" lon="4.24765">
        <ele>637.97</ele>
        <time>2023-07-27T12:52:03Z</time>
      </trkpt>
      <trkpt lat="44.75097" lon="4.24763">
        <ele>637.97</ele>
        <time>2023-07-27T12:52:05Z</time>
      </trkpt>
      <trkpt lat="44.75094" lon="4.24756">
        <ele>637.97</ele>
        <time>2023-07-27T12:52:12Z</time>
      </trkpt>
      <trkpt lat="44.75081" lon="4.2473">
        <ele>637.49</ele>
        <time>2023-07-27T12:52:31Z</time>
      </trkpt>
      <trkpt lat="44.75079" lon="4.24725">
        <ele>637.49</ele>
        <time>2023-07-27T12:52:44Z</time>
      </trkpt>
      <trkpt lat="44.75079" lon="4.24725">
        <ele>637.49</ele>
        <time>2023-07-27T12:53:10Z</time>
      </trkpt>
      <trkpt lat="44.75079" lon="4.24725">
        <ele>637.49</ele>
        <time>2023-07-27T12:53:35Z</time>
      </trkpt>
      <trkpt lat="44.75078" lon="4.24726">
        <ele>637.49</ele>
        <time>2023-07-27T12:53:47Z</time>
      </trkpt>
      <trkpt lat="44.75082" lon="4.24748">
        <ele>646.62</ele>
        <time>2023-07-27T12:54:11Z</time>
      </trkpt>
      <trkpt lat="44.75075" lon="4.24739">
        <ele>646.62</ele>
        <time>2023-07-27T12:54:38Z</time>
      </trkpt>
      <trkpt lat="44.75071" lon="4.24725">
        <ele>641.34</ele>
        <time>2023-07-27T12:54:51Z</time>
      </trkpt>
      <trkpt lat="44.75048" lon="4.24702">
        <ele>634.13</ele>
        <time>2023-07-27T12:55:09Z</time>
      </trkpt>
      <trkpt lat="44.75023" lon="4.24686">
        <ele>632.2</ele>
        <time>2023-07-27T12:55:29Z</time>
      </trkpt>
      <trkpt lat="44.75021" lon="4.24684">
        <ele>632.2</ele>
        <time>2023-07-27T12:55:33Z</time>
      </trkpt>
      <trkpt lat="44.75019" lon="4.24681">
        <ele>630.76</ele>
        <time>2023-07-27T12:55:37Z</time>
      </trkpt>
      <trkpt lat="44.75014" lon="4.24675">
        <ele>627.88</ele>
        <time>2023-07-27T12:55:42Z</time>
      </trkpt>
      <trkpt lat="44.75007" lon="4.24666">
        <ele>623.07</ele>
        <time>2023-07-27T12:55:48Z</time>
      </trkpt>
      <trkpt lat="44.7499" lon="4.24649">
        <ele>612.98</ele>
        <time>2023-07-27T12:56:03Z</time>
      </trkpt>
      <trkpt lat="44.74988" lon="4.24634">
        <ele>611.54</ele>
        <time>2023-07-27T12:56:07Z</time>
      </trkpt>
      <trkpt lat="44.74986" lon="4.24603">
        <ele>607.69</ele>
        <time>2023-07-27T12:56:24Z</time>
      </trkpt>
      <trkpt lat="44.74985" lon="4.24593">
        <ele>605.77</ele>
        <time>2023-07-27T12:56:35Z</time>
      </trkpt>
      <trkpt lat="44.74981" lon="4.24584">
        <ele>605.77</ele>
        <time>2023-07-27T12:56:41Z</time>
      </trkpt>
      <trkpt lat="44.74976" lon="4.24572">
        <ele>606.25</ele>
        <time>2023-07-27T12:56:46Z</time>
      </trkpt>
      <trkpt lat="44.74967" lon="4.24562">
        <ele>605.29</ele>
        <time>2023-07-27T12:56:55Z</time>
      </trkpt>
      <trkpt lat="44.74963" lon="4.24561">
        <ele>605.77</ele>
        <time>2023-07-27T12:56:59Z</time>
      </trkpt>
      <trkpt lat="44.74955" lon="4.24557">
        <ele>605.77</ele>
        <time>2023-07-27T12:57:03Z</time>
      </trkpt>
      <trkpt lat="44.74944" lon="4.24551">
        <ele>605.29</ele>
        <time>2023-07-27T12:57:16Z</time>
      </trkpt>
      <trkpt lat="44.74943" lon="4.2455">
        <ele>605.29</ele>
        <time>2023-07-27T12:57:17Z</time>
      </trkpt>
      <trkpt lat="44.74924" lon="4.24547">
        <ele>604.81</ele>
        <time>2023-07-27T12:57:30Z</time>
      </trkpt>
      <trkpt lat="44.74906" lon="4.24547">
        <ele>604.33</ele>
        <time>2023-07-27T12:57:44Z</time>
      </trkpt>
      <trkpt lat="44.7489" lon="4.24551">
        <ele>604.33</ele>
        <time>2023-07-27T12:57:56Z</time>
      </trkpt>
      <trkpt lat="44.74873" lon="4.24551">
        <ele>604.33</ele>
        <time>2023-07-27T12:58:10Z</time>
      </trkpt>
      <trkpt lat="44.74857" lon="4.24547">
        <ele>604.81</ele>
        <time>2023-07-27T12:58:23Z</time>
      </trkpt>
      <trkpt lat="44.74856" lon="4.24547">
        <ele>604.81</ele>
        <time>2023-07-27T12:58:24Z</time>
      </trkpt>
      <trkpt lat="44.74839" lon="4.24553">
        <ele>605.77</ele>
        <time>2023-07-27T12:58:39Z</time>
      </trkpt>
      <trkpt lat="44.74822" lon="4.24559">
        <ele>608.17</ele>
        <time>2023-07-27T12:58:53Z</time>
      </trkpt>
      <trkpt lat="44.74805" lon="4.24555">
        <ele>609.61</ele>
        <time>2023-07-27T12:59:05Z</time>
      </trkpt>
      <trkpt lat="44.74794" lon="4.24552">
        <ele>611.06</ele>
        <time>2023-07-27T12:59:12Z</time>
      </trkpt>
      <trkpt lat="44.7478" lon="4.24543">
        <ele>611.54</ele>
        <time>2023-07-27T12:59:24Z</time>
      </trkpt>
      <trkpt lat="44.74777" lon="4.24541">
        <ele>611.54</ele>
        <time>2023-07-27T12:59:27Z</time>
      </trkpt>
      <trkpt lat="44.74766" lon="4.24541">
        <ele>612.02</ele>
        <time>2023-07-27T12:59:38Z</time>
      </trkpt>
      <trkpt lat="44.74755" lon="4.2455">
        <ele>613.46</ele>
        <time>2023-07-27T12:59:50Z</time>
      </trkpt>
      <trkpt lat="44.74753" lon="4.24557">
        <ele>619.8</ele>
      </trkpt>
      <trkpt lat="44.7474" lon="4.24563">
        <ele>624.2</ele>
      </trkpt>
      <trkpt lat="44.74712" lon="4.2462">
        <ele>627.2</ele>
      </trkpt>
      <trkpt lat="44.74697" lon="4.24644">
        <ele>629</ele>
      </trkpt>
      <trkpt lat="44.74689" lon="4.24656">
        <ele>629.7</ele>
      </trkpt>
      <trkpt lat="44.74653" lon="4.24672">
        <ele>633.9</ele>
      </trkpt>
      <trkpt lat="44.74616" lon="4.24668">
        <ele>635.7</ele>
      </trkpt>
      <trkpt lat="44.74589" lon="4.24637">
        <ele>642.6</ele>
      </trkpt>
      <trkpt lat="44.74592" lon="4.24636">
        <ele>642.9</ele>
      </trkpt>
      <trkpt lat="44.74657" lon="4.24611">
        <ele>649.4</ele>
      </trkpt>
      <trkpt lat="44.74675" lon="4.24529">
        <ele>658.8</ele>
      </trkpt>
      <trkpt lat="44.74686" lon="4.24509">
        <ele>661.6</ele>
      </trkpt>
      <trkpt lat="44.74691" lon="4.24497">
        <ele>664.2</ele>
      </trkpt>
      <trkpt lat="44.74739" lon="4.2442">
        <ele>676</ele>
      </trkpt>
      <trkpt lat="44.74769" lon="4.24407">
        <ele>678.9</ele>
      </trkpt>
      <trkpt lat="44.7479" lon="4.24381">
        <ele>686.6</ele>
      </trkpt>
      <trkpt lat="44.74745" lon="4.24393">
        <ele>686.2</ele>
      </trkpt>
      <trkpt lat="44.74762" lon="4.24373">
        <ele>692.5</ele>
      </trkpt>
      <trkpt lat="44.74777" lon="4.24355">
        <ele>697.8</ele>
      </trkpt>
      <trkpt lat="44.74805" lon="4.2433">
        <ele>700.5</ele>
      </trkpt>
      <trkpt lat="44.74825" lon="4.24283">
        <ele>710.9</ele>
      </trkpt>
      <trkpt lat="44.74835" lon="4.24216">
        <ele>716.2</ele>
      </trkpt>
      <trkpt lat="44.74844" lon="4.24168">
        <ele>723.8</ele>
      </trkpt>
      <trkpt lat="44.7485" lon="4.24154">
        <ele>720.16</ele>
        <time>2023-07-27T13:30:37Z</time>
      </trkpt>
      <trkpt lat="44.74855" lon="4.24139">
        <ele>722.57</ele>
        <time>2023-07-27T13:30:59Z</time>
      </trkpt>
      <trkpt lat="44.74859" lon="4.2412">
        <ele>722.57</ele>
        <time>2023-07-27T13:31:24Z</time>
      </trkpt>
      <trkpt lat="44.74862" lon="4.24059">
        <ele>726.89</ele>
        <time>2023-07-27T13:31:48Z</time>
      </trkpt>
      <trkpt lat="44.74861" lon="4.24022">
        <ele>736.99</ele>
        <time>2023-07-27T13:32:08Z</time>
      </trkpt>
      <trkpt lat="44.74856" lon="4.24022">
        <ele>741.79</ele>
        <time>2023-07-27T13:32:24Z</time>
      </trkpt>
      <trkpt lat="44.74856" lon="4.24021">
        <ele>743.24</ele>
        <time>2023-07-27T13:32:44Z</time>
      </trkpt>
      <trkpt lat="44.74857" lon="4.24023">
        <ele>746.12</ele>
        <time>2023-07-27T13:33:11Z</time>
      </trkpt>
      <trkpt lat="44.74857" lon="4.24023">
        <ele>749</ele>
        <time>2023-07-27T13:33:40Z</time>
      </trkpt>
      <trkpt lat="44.74858" lon="4.24018">
        <ele>749.49</ele>
        <time>2023-07-27T13:33:52Z</time>
      </trkpt>
      <trkpt lat="44.74858" lon="4.23995">
        <ele>750.45</ele>
        <time>2023-07-27T13:34:06Z</time>
      </trkpt>
      <trkpt lat="44.74855" lon="4.23973">
        <ele>751.41</ele>
        <time>2023-07-27T13:34:20Z</time>
      </trkpt>
      <trkpt lat="44.74855" lon="4.23951">
        <ele>753.81</ele>
        <time>2023-07-27T13:34:33Z</time>
      </trkpt>
      <trkpt lat="44.74854" lon="4.23938">
        <ele>756.21</ele>
        <time>2023-07-27T13:34:42Z</time>
      </trkpt>
      <trkpt lat="44.74853" lon="4.23932">
        <ele>757.18</ele>
        <time>2023-07-27T13:34:47Z</time>
      </trkpt>
      <trkpt lat="44.74854" lon="4.23912">
        <ele>761.5</ele>
        <time>2023-07-27T13:35:01Z</time>
      </trkpt>
      <trkpt lat="44.74854" lon="4.23892">
        <ele>766.31</ele>
        <time>2023-07-27T13:35:16Z</time>
      </trkpt>
      <trkpt lat="44.74859" lon="4.23873">
        <ele>769.19</ele>
        <time>2023-07-27T13:35:29Z</time>
      </trkpt>
      <trkpt lat="44.74864" lon="4.23854">
        <ele>771.6</ele>
        <time>2023-07-27T13:35:43Z</time>
      </trkpt>
      <trkpt lat="44.74871" lon="4.23831">
        <ele>774</ele>
        <time>2023-07-27T13:35:57Z</time>
      </trkpt>
      <trkpt lat="44.74873" lon="4.23821">
        <ele>774.48</ele>
        <time>2023-07-27T13:36:13Z</time>
      </trkpt>
      <trkpt lat="44.74884" lon="4.2377">
        <ele>774.96</ele>
        <time>2023-07-27T13:36:38Z</time>
      </trkpt>
      <trkpt lat="44.74879" lon="4.23744">
        <ele>776.4</ele>
        <time>2023-07-27T13:36:53Z</time>
      </trkpt>
      <trkpt lat="44.74867" lon="4.23708">
        <ele>775.92</ele>
        <time>2023-07-27T13:37:19Z</time>
      </trkpt>
      <trkpt lat="44.74869" lon="4.23704">
        <ele>775.92</ele>
        <time>2023-07-27T13:37:22Z</time>
      </trkpt>
      <trkpt lat="44.74892" lon="4.2366">
        <ele>785.53</ele>
        <time>2023-07-27T13:37:45Z</time>
      </trkpt>
      <trkpt lat="44.7488" lon="4.23641">
        <ele>790.34</ele>
        <time>2023-07-27T13:38:05Z</time>
      </trkpt>
      <trkpt lat="44.74868" lon="4.23666">
        <ele>792.26</ele>
        <time>2023-07-27T13:38:18Z</time>
      </trkpt>
      <trkpt lat="44.7486" lon="4.23682">
        <ele>790.82</ele>
        <time>2023-07-27T13:38:31Z</time>
      </trkpt>
      <trkpt lat="44.74855" lon="4.23704">
        <ele>792.26</ele>
        <time>2023-07-27T13:38:45Z</time>
      </trkpt>
      <trkpt lat="44.7485" lon="4.23727">
        <ele>795.63</ele>
        <time>2023-07-27T13:38:56Z</time>
      </trkpt>
      <trkpt lat="44.74849" lon="4.23733">
        <ele>796.11</ele>
        <time>2023-07-27T13:39:00Z</time>
      </trkpt>
      <trkpt lat="44.74847" lon="4.23759">
        <ele>795.63</ele>
        <time>2023-07-27T13:39:14Z</time>
      </trkpt>
      <trkpt lat="44.7484" lon="4.23778">
        <ele>796.11</ele>
        <time>2023-07-27T13:39:26Z</time>
      </trkpt>
      <trkpt lat="44.74831" lon="4.23795">
        <ele>796.59</ele>
        <time>2023-07-27T13:39:37Z</time>
      </trkpt>
      <trkpt lat="44.74826" lon="4.23802">
        <ele>796.59</ele>
        <time>2023-07-27T13:39:45Z</time>
      </trkpt>
      <trkpt lat="44.74824" lon="4.23797">
        <ele>797.07</ele>
        <time>2023-07-27T13:39:50Z</time>
      </trkpt>
      <trkpt lat="44.74826" lon="4.23789">
        <ele>798.03</ele>
        <time>2023-07-27T13:39:56Z</time>
      </trkpt>
      <trkpt lat="44.74826" lon="4.23785">
        <ele>798.03</ele>
        <time>2023-07-27T13:39:58Z</time>
      </trkpt>
      <trkpt lat="44.74828" lon="4.23767">
        <ele>798.99</ele>
        <time>2023-07-27T13:40:10Z</time>
      </trkpt>
      <trkpt lat="44.74828" lon="4.23747">
        <ele>801.4</ele>
        <time>2023-07-27T13:40:22Z</time>
      </trkpt>
      <trkpt lat="44.74827" lon="4.23727">
        <ele>803.8</ele>
        <time>2023-07-27T13:40:36Z</time>
      </trkpt>
      <trkpt lat="44.74825" lon="4.2372">
        <ele>803.8</ele>
        <time>2023-07-27T13:40:41Z</time>
      </trkpt>
      <trkpt lat="44.74823" lon="4.23698">
        <ele>805.24</ele>
        <time>2023-07-27T13:40:54Z</time>
      </trkpt>
      <trkpt lat="44.7482" lon="4.23688">
        <ele>805.72</ele>
        <time>2023-07-27T13:41:01Z</time>
      </trkpt>
      <trkpt lat="44.74824" lon="4.23667">
        <ele>809.57</ele>
        <time>2023-07-27T13:41:13Z</time>
      </trkpt>
      <trkpt lat="44.74829" lon="4.23648">
        <ele>812.45</ele>
        <time>2023-07-27T13:41:26Z</time>
      </trkpt>
      <trkpt lat="44.7483" lon="4.23639">
        <ele>813.41</ele>
        <time>2023-07-27T13:41:32Z</time>
      </trkpt>
      <trkpt lat="44.7483" lon="4.2362">
        <ele>816.3</ele>
        <time>2023-07-27T13:41:45Z</time>
      </trkpt>
      <trkpt lat="44.7483" lon="4.23599">
        <ele>818.7</ele>
        <time>2023-07-27T13:41:58Z</time>
      </trkpt>
      <trkpt lat="44.74829" lon="4.23572">
        <ele>821.1</ele>
        <time>2023-07-27T13:42:16Z</time>
      </trkpt>
      <trkpt lat="44.74828" lon="4.23546">
        <ele>823.99</ele>
        <time>2023-07-27T13:42:31Z</time>
      </trkpt>
      <trkpt lat="44.74828" lon="4.23525">
        <ele>824.95</ele>
        <time>2023-07-27T13:42:44Z</time>
      </trkpt>
      <trkpt lat="44.74829" lon="4.23503">
        <ele>827.83</ele>
        <time>2023-07-27T13:42:56Z</time>
      </trkpt>
      <trkpt lat="44.74834" lon="4.23486">
        <ele>827.83</ele>
        <time>2023-07-27T13:43:07Z</time>
      </trkpt>
      <trkpt lat="44.74837" lon="4.23469">
        <ele>829.27</ele>
        <time>2023-07-27T13:43:18Z</time>
      </trkpt>
      <trkpt lat="44.74839" lon="4.23461">
        <ele>829.76</ele>
        <time>2023-07-27T13:43:23Z</time>
      </trkpt>
      <trkpt lat="44.74841" lon="4.23452">
        <ele>830.24</ele>
        <time>2023-07-27T13:43:29Z</time>
      </trkpt>
      <trkpt lat="44.74844" lon="4.23439">
        <ele>833.6</ele>
        <time>2023-07-27T13:43:39Z</time>
      </trkpt>
      <trkpt lat="44.74845" lon="4.23422">
        <ele>836.48</ele>
        <time>2023-07-27T13:43:49Z</time>
      </trkpt>
      <trkpt lat="44.7485" lon="4.23407">
        <ele>838.41</ele>
        <time>2023-07-27T13:44:00Z</time>
      </trkpt>
      <trkpt lat="44.74852" lon="4.23387">
        <ele>841.77</ele>
        <time>2023-07-27T13:44:12Z</time>
      </trkpt>
      <trkpt lat="44.74853" lon="4.2338">
        <ele>843.21</ele>
        <time>2023-07-27T13:44:17Z</time>
      </trkpt>
      <trkpt lat="44.74858" lon="4.23357">
        <ele>846.58</ele>
        <time>2023-07-27T13:44:31Z</time>
      </trkpt>
      <trkpt lat="44.74861" lon="4.23339">
        <ele>848.02</ele>
        <time>2023-07-27T13:44:43Z</time>
      </trkpt>
      <trkpt lat="44.74861" lon="4.2333">
        <ele>848.98</ele>
        <time>2023-07-27T13:44:51Z</time>
      </trkpt>
      <trkpt lat="44.7486" lon="4.23321">
        <ele>849.46</ele>
        <time>2023-07-27T13:44:57Z</time>
      </trkpt>
      <trkpt lat="44.74859" lon="4.23293">
        <ele>850.42</ele>
        <time>2023-07-27T13:45:12Z</time>
      </trkpt>
      <trkpt lat="44.7486" lon="4.23288">
        <ele>851.38</ele>
        <time>2023-07-27T13:45:15Z</time>
      </trkpt>
      <trkpt lat="44.7486" lon="4.23261">
        <ele>851.87</ele>
        <time>2023-07-27T13:45:30Z</time>
      </trkpt>
      <trkpt lat="44.74862" lon="4.2325">
        <ele>852.83</ele>
        <time>2023-07-27T13:45:36Z</time>
      </trkpt>
      <trkpt lat="44.74871" lon="4.2323">
        <ele>855.23</ele>
        <time>2023-07-27T13:45:49Z</time>
      </trkpt>
      <trkpt lat="44.74877" lon="4.23218">
        <ele>856.19</ele>
        <time>2023-07-27T13:45:58Z</time>
      </trkpt>
      <trkpt lat="44.7488" lon="4.2321">
        <ele>856.67</ele>
        <time>2023-07-27T13:46:04Z</time>
      </trkpt>
      <trkpt lat="44.7489" lon="4.23194">
        <ele>859.08</ele>
        <time>2023-07-27T13:46:20Z</time>
      </trkpt>
      <trkpt lat="44.74891" lon="4.23187">
        <ele>860.04</ele>
        <time>2023-07-27T13:46:24Z</time>
      </trkpt>
      <trkpt lat="44.7489" lon="4.23173">
        <ele>862.44</ele>
        <time>2023-07-27T13:46:40Z</time>
      </trkpt>
      <trkpt lat="44.74889" lon="4.23165">
        <ele>863.88</ele>
        <time>2023-07-27T13:47:02Z</time>
      </trkpt>
      <trkpt lat="44.74906" lon="4.23153">
        <ele>867.73</ele>
        <time>2023-07-27T13:47:23Z</time>
      </trkpt>
      <trkpt lat="44.74924" lon="4.23123">
        <ele>873.01</ele>
        <time>2023-07-27T13:47:48Z</time>
      </trkpt>
      <trkpt lat="44.74924" lon="4.2312">
        <ele>873.5</ele>
        <time>2023-07-27T13:47:55Z</time>
      </trkpt>
      <trkpt lat="44.74928" lon="4.23115">
        <ele>873.98</ele>
        <time>2023-07-27T13:48:02Z</time>
      </trkpt>
      <trkpt lat="44.74934" lon="4.23094">
        <ele>874.46</ele>
        <time>2023-07-27T13:48:18Z</time>
      </trkpt>
      <trkpt lat="44.74939" lon="4.23073">
        <ele>875.9</ele>
        <time>2023-07-27T13:48:33Z</time>
      </trkpt>
      <trkpt lat="44.74943" lon="4.23062">
        <ele>875.42</ele>
        <time>2023-07-27T13:48:51Z</time>
      </trkpt>
      <trkpt lat="44.74945" lon="4.23052">
        <ele>877.82</ele>
        <time>2023-07-27T13:49:03Z</time>
      </trkpt>
      <trkpt lat="44.74947" lon="4.23032">
        <ele>882.15</ele>
        <time>2023-07-27T13:49:17Z</time>
      </trkpt>
      <trkpt lat="44.74946" lon="4.23011">
        <ele>884.07</ele>
        <time>2023-07-27T13:49:32Z</time>
      </trkpt>
      <trkpt lat="44.74946" lon="4.23009">
        <ele>884.07</ele>
        <time>2023-07-27T13:49:33Z</time>
      </trkpt>
      <trkpt lat="44.74951" lon="4.22987">
        <ele>886.47</ele>
        <time>2023-07-27T13:49:48Z</time>
      </trkpt>
      <trkpt lat="44.74952" lon="4.22973">
        <ele>890.32</ele>
        <time>2023-07-27T13:50:01Z</time>
      </trkpt>
      <trkpt lat="44.74955" lon="4.22946">
        <ele>893.2</ele>
        <time>2023-07-27T13:50:16Z</time>
      </trkpt>
      <trkpt lat="44.74958" lon="4.22927">
        <ele>895.61</ele>
        <time>2023-07-27T13:50:31Z</time>
      </trkpt>
      <trkpt lat="44.74962" lon="4.22905">
        <ele>896.57</ele>
        <time>2023-07-27T13:50:45Z</time>
      </trkpt>
      <trkpt lat="44.74965" lon="4.22892">
        <ele>898.01</ele>
        <time>2023-07-27T13:51:02Z</time>
      </trkpt>
      <trkpt lat="44.74967" lon="4.22891">
        <ele>898.01</ele>
        <time>2023-07-27T13:51:20Z</time>
      </trkpt>
      <trkpt lat="44.74977" lon="4.22881">
        <ele>900.89</ele>
        <time>2023-07-27T13:51:44Z</time>
      </trkpt>
      <trkpt lat="44.74975" lon="4.22877">
        <ele>902.33</ele>
        <time>2023-07-27T13:52:06Z</time>
      </trkpt>
      <trkpt lat="44.7498" lon="4.22876">
        <ele>905.22</ele>
        <time>2023-07-27T13:52:31Z</time>
      </trkpt>
      <trkpt lat="44.74977" lon="4.22874">
        <ele>905.7</ele>
        <time>2023-07-27T13:52:57Z</time>
      </trkpt>
      <trkpt lat="44.74976" lon="4.22874">
        <ele>905.7</ele>
        <time>2023-07-27T13:53:24Z</time>
      </trkpt>
      <trkpt lat="44.74975" lon="4.22876">
        <ele>903.78</ele>
        <time>2023-07-27T13:53:42Z</time>
      </trkpt>
      <trkpt lat="44.74974" lon="4.22867">
        <ele>900.41</ele>
        <time>2023-07-27T13:54:05Z</time>
      </trkpt>
      <trkpt lat="44.74974" lon="4.22873">
        <ele>900.41</ele>
        <time>2023-07-27T13:54:26Z</time>
      </trkpt>
      <trkpt lat="44.74974" lon="4.22863">
        <ele>900.89</ele>
        <time>2023-07-27T13:54:47Z</time>
      </trkpt>
      <trkpt lat="44.74973" lon="4.22829">
        <ele>898.97</ele>
        <time>2023-07-27T13:55:09Z</time>
      </trkpt>
      <trkpt lat="44.74994" lon="4.22793">
        <ele>902.33</ele>
        <time>2023-07-27T13:55:33Z</time>
      </trkpt>
      <trkpt lat="44.75002" lon="4.22753">
        <ele>903.78</ele>
        <time>2023-07-27T13:56:01Z</time>
      </trkpt>
      <trkpt lat="44.75005" lon="4.22725">
        <ele>907.14</ele>
        <time>2023-07-27T13:56:18Z</time>
      </trkpt>
      <trkpt lat="44.75007" lon="4.22688">
        <ele>912.43</ele>
        <time>2023-07-27T13:56:40Z</time>
      </trkpt>
      <trkpt lat="44.75008" lon="4.22683">
        <ele>912.43</ele>
        <time>2023-07-27T13:56:43Z</time>
      </trkpt>
      <trkpt lat="44.75005" lon="4.22674">
        <ele>913.87</ele>
        <time>2023-07-27T13:56:45Z</time>
      </trkpt>
      <trkpt lat="44.75043" lon="4.22605">
        <ele>926.85</ele>
        <time>2023-07-27T13:58:04Z</time>
      </trkpt>
      <trkpt lat="44.75052" lon="4.22605">
        <ele>930.21</ele>
        <time>2023-07-27T13:58:14Z</time>
      </trkpt>
      <trkpt lat="44.75065" lon="4.22588">
        <ele>929.25</ele>
        <time>2023-07-27T13:58:32Z</time>
      </trkpt>
      <trkpt lat="44.75079" lon="4.22568">
        <ele>931.17</ele>
        <time>2023-07-27T13:58:48Z</time>
      </trkpt>
      <trkpt lat="44.75086" lon="4.22559">
        <ele>933.1</ele>
        <time>2023-07-27T13:58:54Z</time>
      </trkpt>
      <trkpt lat="44.75088" lon="4.22553">
        <ele>933.58</ele>
        <time>2023-07-27T13:58:57Z</time>
      </trkpt>
      <trkpt lat="44.751" lon="4.22535">
        <ele>935.02</ele>
        <time>2023-07-27T13:59:11Z</time>
      </trkpt>
      <trkpt lat="44.75115" lon="4.22506">
        <ele>942.23</ele>
        <time>2023-07-27T13:59:29Z</time>
      </trkpt>
      <trkpt lat="44.75123" lon="4.22495">
        <ele>943.67</ele>
        <time>2023-07-27T13:59:44Z</time>
      </trkpt>
      <trkpt lat="44.75125" lon="4.22496">
        <ele>950.88</ele>
        <time>2023-07-27T14:00:04Z</time>
      </trkpt>
      <trkpt lat="44.75127" lon="4.22501">
        <ele>954.73</ele>
        <time>2023-07-27T14:00:28Z</time>
      </trkpt>
      <trkpt lat="44.75132" lon="4.22501">
        <ele>957.61</ele>
        <time>2023-07-27T14:00:48Z</time>
      </trkpt>
      <trkpt lat="44.75126" lon="4.22506">
        <ele>957.13</ele>
        <time>2023-07-27T14:01:12Z</time>
      </trkpt>
      <trkpt lat="44.75127" lon="4.22507">
        <ele>957.61</ele>
        <time>2023-07-27T14:01:14Z</time>
      </trkpt>
      <trkpt lat="44.75141" lon="4.22519">
        <ele>959.53</ele>
        <time>2023-07-27T14:01:28Z</time>
      </trkpt>
      <trkpt lat="44.75141" lon="4.22519">
        <ele>959.05</ele>
        <time>2023-07-27T14:01:29Z</time>
      </trkpt>
      <trkpt lat="44.75155" lon="4.22515">
        <ele>955.21</ele>
        <time>2023-07-27T14:01:45Z</time>
      </trkpt>
      <trkpt lat="44.75165" lon="4.22526">
        <ele>956.17</ele>
        <time>2023-07-27T14:01:58Z</time>
      </trkpt>
      <trkpt lat="44.75175" lon="4.22532">
        <ele>956.17</ele>
        <time>2023-07-27T14:02:13Z</time>
      </trkpt>
      <trkpt lat="44.75183" lon="4.2254">
        <ele>958.09</ele>
        <time>2023-07-27T14:02:30Z</time>
      </trkpt>
      <trkpt lat="44.75202" lon="4.22547">
        <ele>958.09</ele>
        <time>2023-07-27T14:02:48Z</time>
      </trkpt>
      <trkpt lat="44.75226" lon="4.22559">
        <ele>963.38</ele>
        <time>2023-07-27T14:03:09Z</time>
      </trkpt>
      <trkpt lat="44.75241" lon="4.22572">
        <ele>963.86</ele>
        <time>2023-07-27T14:03:22Z</time>
      </trkpt>
      <trkpt lat="44.7526" lon="4.22584">
        <ele>965.3</ele>
        <time>2023-07-27T14:03:42Z</time>
      </trkpt>
      <trkpt lat="44.75278" lon="4.22596">
        <ele>966.74</ele>
        <time>2023-07-27T14:03:59Z</time>
      </trkpt>
      <trkpt lat="44.75285" lon="4.22597">
        <ele>965.78</ele>
        <time>2023-07-27T14:04:04Z</time>
      </trkpt>
      <trkpt lat="44.75312" lon="4.22582">
        <ele>965.3</ele>
        <time>2023-07-27T14:04:28Z</time>
      </trkpt>
      <trkpt lat="44.75319" lon="4.22573">
        <ele>965.3</ele>
        <time>2023-07-27T14:04:34Z</time>
      </trkpt>
      <trkpt lat="44.75338" lon="4.22549">
        <ele>967.22</ele>
        <time>2023-07-27T14:04:55Z</time>
      </trkpt>
      <trkpt lat="44.75357" lon="4.22523">
        <ele>970.11</ele>
        <time>2023-07-27T14:05:15Z</time>
      </trkpt>
      <trkpt lat="44.75368" lon="4.22505">
        <ele>972.03</ele>
        <time>2023-07-27T14:05:33Z</time>
      </trkpt>
      <trkpt lat="44.75381" lon="4.22474">
        <ele>972.03</ele>
        <time>2023-07-27T14:05:54Z</time>
      </trkpt>
      <trkpt lat="44.75395" lon="4.22447">
        <ele>975.88</ele>
        <time>2023-07-27T14:06:13Z</time>
      </trkpt>
      <trkpt lat="44.75406" lon="4.22423">
        <ele>976.84</ele>
        <time>2023-07-27T14:06:33Z</time>
      </trkpt>
      <trkpt lat="44.75412" lon="4.22408">
        <ele>978.76</ele>
        <time>2023-07-27T14:06:50Z</time>
      </trkpt>
      <trkpt lat="44.7541" lon="4.2241">
        <ele>978.28</ele>
        <time>2023-07-27T14:07:13Z</time>
      </trkpt>
      <trkpt lat="44.75411" lon="4.224">
        <ele>979.72</ele>
        <time>2023-07-27T14:07:33Z</time>
      </trkpt>
      <trkpt lat="44.75411" lon="4.22392">
        <ele>982.6</ele>
        <time>2023-07-27T14:07:53Z</time>
      </trkpt>
      <trkpt lat="44.75411" lon="4.22389">
        <ele>985.49</ele>
        <time>2023-07-27T14:08:09Z</time>
      </trkpt>
      <trkpt lat="44.75413" lon="4.22387">
        <ele>989.81</ele>
        <time>2023-07-27T14:08:31Z</time>
      </trkpt>
      <trkpt lat="44.75413" lon="4.22386">
        <ele>990.3</ele>
        <time>2023-07-27T14:08:55Z</time>
      </trkpt>
      <trkpt lat="44.75413" lon="4.22387">
        <ele>989.81</ele>
        <time>2023-07-27T14:09:13Z</time>
      </trkpt>
      <trkpt lat="44.75414" lon="4.22386">
        <ele>989.81</ele>
        <time>2023-07-27T14:09:37Z</time>
      </trkpt>
      <trkpt lat="44.75413" lon="4.22387">
        <ele>990.3</ele>
        <time>2023-07-27T14:10:05Z</time>
      </trkpt>
      <trkpt lat="44.75416" lon="4.22385">
        <ele>991.74</ele>
        <time>2023-07-27T14:10:24Z</time>
      </trkpt>
      <trkpt lat="44.75419" lon="4.22381">
        <ele>995.1</ele>
        <time>2023-07-27T14:10:41Z</time>
      </trkpt>
      <trkpt lat="44.75427" lon="4.22361">
        <ele>997.99</ele>
        <time>2023-07-27T14:10:58Z</time>
      </trkpt>
      <trkpt lat="44.75444" lon="4.22323">
        <ele>1000.39</ele>
        <time>2023-07-27T14:11:14Z</time>
      </trkpt>
      <trkpt lat="44.75444" lon="4.22318">
        <ele>1003.27</ele>
        <time>2023-07-27T14:11:34Z</time>
      </trkpt>
      <trkpt lat="44.75448" lon="4.22308">
        <ele>1009.52</ele>
        <time>2023-07-27T14:11:49Z</time>
      </trkpt>
      <trkpt lat="44.75453" lon="4.22289">
        <ele>1013.37</ele>
        <time>2023-07-27T14:12:03Z</time>
      </trkpt>
      <trkpt lat="44.75458" lon="4.22273">
        <ele>1013.37</ele>
        <time>2023-07-27T14:12:16Z</time>
      </trkpt>
      <trkpt lat="44.75464" lon="4.22254">
        <ele>1014.81</ele>
        <time>2023-07-27T14:12:30Z</time>
      </trkpt>
      <trkpt lat="44.75473" lon="4.2223">
        <ele>1017.21</ele>
        <time>2023-07-27T14:12:46Z</time>
      </trkpt>
      <trkpt lat="44.75486" lon="4.22191">
        <ele>1017.21</ele>
        <time>2023-07-27T14:13:01Z</time>
      </trkpt>
      <trkpt lat="44.755" lon="4.22161">
        <ele>1018.65</ele>
        <time>2023-07-27T14:13:15Z</time>
      </trkpt>
      <trkpt lat="44.75505" lon="4.22148">
        <ele>1022.98</ele>
        <time>2023-07-27T14:13:34Z</time>
      </trkpt>
      <trkpt lat="44.75521" lon="4.22115">
        <ele>1026.34</ele>
        <time>2023-07-27T14:13:44Z</time>
      </trkpt>
      <trkpt lat="44.7553" lon="4.22092">
        <ele>1030.19</ele>
        <time>2023-07-27T14:13:59Z</time>
      </trkpt>
      <trkpt lat="44.75538" lon="4.22058">
        <ele>1035.96</ele>
        <time>2023-07-27T14:14:14Z</time>
      </trkpt>
      <trkpt lat="44.75541" lon="4.22027">
        <ele>1040.76</ele>
        <time>2023-07-27T14:14:30Z</time>
      </trkpt>
      <trkpt lat="44.75535" lon="4.22007">
        <ele>1045.09</ele>
        <time>2023-07-27T14:14:45Z</time>
      </trkpt>
      <trkpt lat="44.75533" lon="4.21989">
        <ele>1048.94</ele>
        <time>2023-07-27T14:15:01Z</time>
      </trkpt>
      <trkpt lat="44.7554" lon="4.21968">
        <ele>1050.38</ele>
        <time>2023-07-27T14:15:16Z</time>
      </trkpt>
      <trkpt lat="44.75542" lon="4.21954">
        <ele>1052.3</ele>
        <time>2023-07-27T14:15:22Z</time>
      </trkpt>
      <trkpt lat="44.75548" lon="4.21925">
        <ele>1058.55</ele>
        <time>2023-07-27T14:15:37Z</time>
      </trkpt>
      <trkpt lat="44.75546" lon="4.2192">
        <ele>1059.03</ele>
        <time>2023-07-27T14:15:40Z</time>
      </trkpt>
      <trkpt lat="44.75546" lon="4.21918">
        <ele>1059.51</ele>
        <time>2023-07-27T14:15:42Z</time>
      </trkpt>
      <trkpt lat="44.75552" lon="4.21897">
        <ele>1066.24</ele>
        <time>2023-07-27T14:15:56Z</time>
      </trkpt>
      <trkpt lat="44.7555" lon="4.21883">
        <ele>1066.24</ele>
        <time>2023-07-27T14:16:08Z</time>
      </trkpt>
      <trkpt lat="44.75549" lon="4.21872">
        <ele>1066.24</ele>
        <time>2023-07-27T14:16:20Z</time>
      </trkpt>
      <trkpt lat="44.75547" lon="4.21868">
        <ele>1065.76</ele>
        <time>2023-07-27T14:16:32Z</time>
      </trkpt>
      <trkpt lat="44.75551" lon="4.21854">
        <ele>1064.8</ele>
        <time>2023-07-27T14:16:45Z</time>
      </trkpt>
      <trkpt lat="44.75555" lon="4.21838">
        <ele>1063.36</ele>
        <time>2023-07-27T14:17:01Z</time>
      </trkpt>
      <trkpt lat="44.75575" lon="4.21805">
        <ele>1063.36</ele>
        <time>2023-07-27T14:17:14Z</time>
      </trkpt>
      <trkpt lat="44.75578" lon="4.21799">
        <ele>1063.36</ele>
        <time>2023-07-27T14:17:30Z</time>
      </trkpt>
      <trkpt lat="44.75591" lon="4.21781">
        <ele>1064.32</ele>
        <time>2023-07-27T14:17:47Z</time>
      </trkpt>
      <trkpt lat="44.75594" lon="4.21775">
        <ele>1065.76</ele>
        <time>2023-07-27T14:18:01Z</time>
      </trkpt>
      <trkpt lat="44.75594" lon="4.21772">
        <ele>1066.72</ele>
        <time>2023-07-27T14:18:20Z</time>
      </trkpt>
      <trkpt lat="44.75599" lon="4.21761">
        <ele>1067.2</ele>
        <time>2023-07-27T14:18:33Z</time>
      </trkpt>
      <trkpt lat="44.75601" lon="4.21753">
        <ele>1066.72</ele>
        <time>2023-07-27T14:18:46Z</time>
      </trkpt>
      <trkpt lat="44.75602" lon="4.21739">
        <ele>1066.24</ele>
        <time>2023-07-27T14:19:02Z</time>
      </trkpt>
      <trkpt lat="44.75601" lon="4.21732">
        <ele>1066.72</ele>
        <time>2023-07-27T14:19:17Z</time>
      </trkpt>
      <trkpt lat="44.75618" lon="4.21698">
        <ele>1067.2</ele>
        <time>2023-07-27T14:19:29Z</time>
      </trkpt>
      <trkpt lat="44.75624" lon="4.21672">
        <ele>1067.2</ele>
        <time>2023-07-27T14:19:41Z</time>
      </trkpt>
      <trkpt lat="44.75629" lon="4.21648">
        <ele>1069.12</ele>
        <time>2023-07-27T14:19:55Z</time>
      </trkpt>
      <trkpt lat="44.75632" lon="4.21637">
        <ele>1071.53</ele>
        <time>2023-07-27T14:20:09Z</time>
      </trkpt>
      <trkpt lat="44.75639" lon="4.21617">
        <ele>1072.49</ele>
        <time>2023-07-27T14:20:23Z</time>
      </trkpt>
      <trkpt lat="44.75639" lon="4.21611">
        <ele>1072.49</ele>
        <time>2023-07-27T14:20:27Z</time>
      </trkpt>
      <trkpt lat="44.75643" lon="4.21597">
        <ele>1071.53</ele>
        <time>2023-07-27T14:20:42Z</time>
      </trkpt>
      <trkpt lat="44.75642" lon="4.21596">
        <ele>1071.05</ele>
        <time>2023-07-27T14:21:01Z</time>
      </trkpt>
      <trkpt lat="44.75645" lon="4.21592">
        <ele>1070.57</ele>
        <time>2023-07-27T14:21:20Z</time>
      </trkpt>
      <trkpt lat="44.75644" lon="4.2159">
        <ele>1071.53</ele>
        <time>2023-07-27T14:21:42Z</time>
      </trkpt>
      <trkpt lat="44.75645" lon="4.21591">
        <ele>1070.57</ele>
        <time>2023-07-27T14:21:59Z</time>
      </trkpt>
      <trkpt lat="44.75648" lon="4.21585">
        <ele>1070.08</ele>
        <time>2023-07-27T14:22:14Z</time>
      </trkpt>
      <trkpt lat="44.75648" lon="4.21579">
        <ele>1068.64</ele>
        <time>2023-07-27T14:22:27Z</time>
      </trkpt>
      <trkpt lat="44.75652" lon="4.21568">
        <ele>1068.16</ele>
        <time>2023-07-27T14:22:37Z</time>
      </trkpt>
      <trkpt lat="44.75657" lon="4.21554">
        <ele>1068.16</ele>
        <time>2023-07-27T14:22:51Z</time>
      </trkpt>
      <trkpt lat="44.75664" lon="4.21536">
        <ele>1069.12</ele>
        <time>2023-07-27T14:23:03Z</time>
      </trkpt>
      <trkpt lat="44.75665" lon="4.21527">
        <ele>1070.08</ele>
        <time>2023-07-27T14:23:16Z</time>
      </trkpt>
      <trkpt lat="44.75663" lon="4.21517">
        <ele>1069.6</ele>
        <time>2023-07-27T14:23:27Z</time>
      </trkpt>
      <trkpt lat="44.75673" lon="4.21489">
        <ele>1070.57</ele>
        <time>2023-07-27T14:23:39Z</time>
      </trkpt>
      <trkpt lat="44.75679" lon="4.21483">
        <ele>1070.57</ele>
        <time>2023-07-27T14:23:52Z</time>
      </trkpt>
      <trkpt lat="44.75681" lon="4.21485">
        <ele>1071.05</ele>
        <time>2023-07-27T14:24:06Z</time>
      </trkpt>
      <trkpt lat="44.75691" lon="4.21482">
        <ele>1072.01</ele>
        <time>2023-07-27T14:24:16Z</time>
      </trkpt>
      <trkpt lat="44.75697" lon="4.21482">
        <ele>1072.49</ele>
        <time>2023-07-27T14:24:29Z</time>
      </trkpt>
      <trkpt lat="44.75709" lon="4.21475">
        <ele>1072.49</ele>
        <time>2023-07-27T14:24:39Z</time>
      </trkpt>
      <trkpt lat="44.75719" lon="4.21465">
        <ele>1072.49</ele>
        <time>2023-07-27T14:24:49Z</time>
      </trkpt>
      <trkpt lat="44.75737" lon="4.21446">
        <ele>1075.85</ele>
        <time>2023-07-27T14:25:03Z</time>
      </trkpt>
      <trkpt lat="44.75745" lon="4.21441">
        <ele>1077.29</ele>
        <time>2023-07-27T14:25:16Z</time>
      </trkpt>
      <trkpt lat="44.7576" lon="4.21436">
        <ele>1079.7</ele>
        <time>2023-07-27T14:25:33Z</time>
      </trkpt>
      <trkpt lat="44.75803" lon="4.21429">
        <ele>1093.64</ele>
        <time>2023-07-27T14:25:51Z</time>
      </trkpt>
      <trkpt lat="44.75827" lon="4.21436">
        <ele>1100.85</ele>
        <time>2023-07-27T14:26:10Z</time>
      </trkpt>
      <trkpt lat="44.75846" lon="4.21427">
        <ele>1101.33</ele>
        <time>2023-07-27T14:26:28Z</time>
      </trkpt>
      <trkpt lat="44.75853" lon="4.21415">
        <ele>1101.81</ele>
        <time>2023-07-27T14:26:43Z</time>
      </trkpt>
      <trkpt lat="44.75856" lon="4.21409">
        <ele>1101.81</ele>
        <time>2023-07-27T14:26:57Z</time>
      </trkpt>
      <trkpt lat="44.75861" lon="4.21386">
        <ele>1103.73</ele>
        <time>2023-07-27T14:27:13Z</time>
      </trkpt>
      <trkpt lat="44.75863" lon="4.2138">
        <ele>1104.21</ele>
        <time>2023-07-27T14:27:15Z</time>
      </trkpt>
      <trkpt lat="44.75878" lon="4.21338">
        <ele>1107.58</ele>
        <time>2023-07-27T14:27:30Z</time>
      </trkpt>
      <trkpt lat="44.75882" lon="4.21319">
        <ele>1110.94</ele>
        <time>2023-07-27T14:27:45Z</time>
      </trkpt>
      <trkpt lat="44.75887" lon="4.21301">
        <ele>1113.34</ele>
        <time>2023-07-27T14:28:00Z</time>
      </trkpt>
      <trkpt lat="44.75889" lon="4.21283">
        <ele>1119.11</ele>
        <time>2023-07-27T14:28:14Z</time>
      </trkpt>
      <trkpt lat="44.75892" lon="4.2126">
        <ele>1123.44</ele>
        <time>2023-07-27T14:28:28Z</time>
      </trkpt>
      <trkpt lat="44.75893" lon="4.21244">
        <ele>1128.24</ele>
        <time>2023-07-27T14:28:43Z</time>
      </trkpt>
      <trkpt lat="44.75895" lon="4.21237">
        <ele>1130.17</ele>
        <time>2023-07-27T14:28:46Z</time>
      </trkpt>
      <trkpt lat="44.75897" lon="4.21206">
        <ele>1135.94</ele>
        <time>2023-07-27T14:29:00Z</time>
      </trkpt>
      <trkpt lat="44.75893" lon="4.21185">
        <ele>1135.45</ele>
        <time>2023-07-27T14:29:12Z</time>
      </trkpt>
      <trkpt lat="44.75892" lon="4.2117">
        <ele>1135.45</ele>
        <time>2023-07-27T14:29:21Z</time>
      </trkpt>
      <trkpt lat="44.75903" lon="4.21144">
        <ele>1138.34</ele>
        <time>2023-07-27T14:29:39Z</time>
      </trkpt>
      <trkpt lat="44.759" lon="4.2114">
        <ele>1139.3</ele>
        <time>2023-07-27T14:29:58Z</time>
      </trkpt>
      <trkpt lat="44.75899" lon="4.21139">
        <ele>1139.78</ele>
        <time>2023-07-27T14:30:21Z</time>
      </trkpt>
      <trkpt lat="44.75899" lon="4.21139">
        <ele>1140.26</ele>
        <time>2023-07-27T14:30:39Z</time>
      </trkpt>
      <trkpt lat="44.75899" lon="4.21139">
        <ele>1140.74</ele>
        <time>2023-07-27T14:30:59Z</time>
      </trkpt>
      <trkpt lat="44.75898" lon="4.21134">
        <ele>1141.22</ele>
        <time>2023-07-27T14:31:12Z</time>
      </trkpt>
      <trkpt lat="44.75895" lon="4.21126">
        <ele>1141.22</ele>
        <time>2023-07-27T14:31:26Z</time>
      </trkpt>
      <trkpt lat="44.75891" lon="4.21119">
        <ele>1142.66</ele>
        <time>2023-07-27T14:31:41Z</time>
      </trkpt>
      <trkpt lat="44.75889" lon="4.21112">
        <ele>1143.63</ele>
        <time>2023-07-27T14:31:56Z</time>
      </trkpt>
      <trkpt lat="44.7589" lon="4.21105">
        <ele>1145.07</ele>
        <time>2023-07-27T14:32:09Z</time>
      </trkpt>
      <trkpt lat="44.75893" lon="4.21093">
        <ele>1145.55</ele>
        <time>2023-07-27T14:32:19Z</time>
      </trkpt>
      <trkpt lat="44.75891" lon="4.21084">
        <ele>1146.51</ele>
        <time>2023-07-27T14:32:32Z</time>
      </trkpt>
      <trkpt lat="44.75889" lon="4.21071">
        <ele>1146.03</ele>
        <time>2023-07-27T14:32:44Z</time>
      </trkpt>
      <trkpt lat="44.75888" lon="4.21059">
        <ele>1146.51</ele>
        <time>2023-07-27T14:32:54Z</time>
      </trkpt>
      <trkpt lat="44.75893" lon="4.21048">
        <ele>1147.95</ele>
        <time>2023-07-27T14:32:59Z</time>
      </trkpt>
      <trkpt lat="44.75892" lon="4.21031">
        <ele>1148.43</ele>
        <time>2023-07-27T14:33:11Z</time>
      </trkpt>
      <trkpt lat="44.75892" lon="4.21017">
        <ele>1148.91</ele>
        <time>2023-07-27T14:33:16Z</time>
      </trkpt>
      <trkpt lat="44.75891" lon="4.20994">
        <ele>1149.87</ele>
        <time>2023-07-27T14:33:27Z</time>
      </trkpt>
      <trkpt lat="44.75888" lon="4.20972">
        <ele>1150.84</ele>
        <time>2023-07-27T14:33:40Z</time>
      </trkpt>
      <trkpt lat="44.75886" lon="4.20957">
        <ele>1150.35</ele>
        <time>2023-07-27T14:33:53Z</time>
      </trkpt>
      <trkpt lat="44.75885" lon="4.2096">
        <ele>1149.39</ele>
        <time>2023-07-27T14:34:04Z</time>
      </trkpt>
      <trkpt lat="44.75885" lon="4.20965">
        <ele>1149.87</ele>
        <time>2023-07-27T14:34:18Z</time>
      </trkpt>
      <trkpt lat="44.75898" lon="4.20966">
        <ele>1153.72</ele>
        <time>2023-07-27T14:34:35Z</time>
      </trkpt>
      <trkpt lat="44.75903" lon="4.20966">
        <ele>1153.72</ele>
        <time>2023-07-27T14:34:59Z</time>
      </trkpt>
      <trkpt lat="44.75906" lon="4.20963">
        <ele>1153.72</ele>
        <time>2023-07-27T14:35:15Z</time>
      </trkpt>
      <trkpt lat="44.75917" lon="4.20969">
        <ele>1155.64</ele>
        <time>2023-07-27T14:35:29Z</time>
      </trkpt>
      <trkpt lat="44.75931" lon="4.2097">
        <ele>1157.56</ele>
        <time>2023-07-27T14:35:44Z</time>
      </trkpt>
      <trkpt lat="44.75938" lon="4.2097">
        <ele>1156.6</ele>
        <time>2023-07-27T14:35:48Z</time>
      </trkpt>
      <trkpt lat="44.75972" lon="4.20959">
        <ele>1152.76</ele>
        <time>2023-07-27T14:36:02Z</time>
      </trkpt>
      <trkpt lat="44.75984" lon="4.20946">
        <ele>1151.32</ele>
        <time>2023-07-27T14:36:14Z</time>
      </trkpt>
      <trkpt lat="44.75993" lon="4.20937">
        <ele>1150.84</ele>
        <time>2023-07-27T14:36:24Z</time>
      </trkpt>
      <trkpt lat="44.76007" lon="4.20922">
        <ele>1150.84</ele>
        <time>2023-07-27T14:36:38Z</time>
      </trkpt>
      <trkpt lat="44.76017" lon="4.20907">
        <ele>1151.32</ele>
        <time>2023-07-27T14:36:51Z</time>
      </trkpt>
      <trkpt lat="44.76033" lon="4.20892">
        <ele>1151.8</ele>
        <time>2023-07-27T14:37:05Z</time>
      </trkpt>
      <trkpt lat="44.76034" lon="4.20893">
        <ele>1151.8</ele>
        <time>2023-07-27T14:37:17Z</time>
      </trkpt>
      <trkpt lat="44.76035" lon="4.20899">
        <ele>1154.2</ele>
        <time>2023-07-27T14:37:32Z</time>
      </trkpt>
      <trkpt lat="44.76056" lon="4.20898">
        <ele>1157.08</ele>
        <time>2023-07-27T14:37:45Z</time>
      </trkpt>
      <trkpt lat="44.76075" lon="4.20899">
        <ele>1159.01</ele>
        <time>2023-07-27T14:37:59Z</time>
      </trkpt>
      <trkpt lat="44.76077" lon="4.20899">
        <ele>1159.49</ele>
        <time>2023-07-27T14:38:18Z</time>
      </trkpt>
      <trkpt lat="44.76083" lon="4.20899">
        <ele>1159.97</ele>
        <time>2023-07-27T14:38:30Z</time>
      </trkpt>
      <trkpt lat="44.76088" lon="4.20903">
        <ele>1160.45</ele>
        <time>2023-07-27T14:38:44Z</time>
      </trkpt>
      <trkpt lat="44.76092" lon="4.20907">
        <ele>1160.93</ele>
        <time>2023-07-27T14:38:59Z</time>
      </trkpt>
      <trkpt lat="44.76093" lon="4.20906">
        <ele>1160.93</ele>
        <time>2023-07-27T14:39:06Z</time>
      </trkpt>
      <trkpt lat="44.76111" lon="4.20888">
        <ele>1162.37</ele>
        <time>2023-07-27T14:39:22Z</time>
      </trkpt>
      <trkpt lat="44.76118" lon="4.20881">
        <ele>1162.85</ele>
        <time>2023-07-27T14:39:31Z</time>
      </trkpt>
      <trkpt lat="44.76157" lon="4.20852">
        <ele>1163.33</ele>
        <time>2023-07-27T14:39:47Z</time>
      </trkpt>
      <trkpt lat="44.76189" lon="4.20832">
        <ele>1165.26</ele>
        <time>2023-07-27T14:40:02Z</time>
      </trkpt>
      <trkpt lat="44.76204" lon="4.20829">
        <ele>1165.26</ele>
        <time>2023-07-27T14:40:20Z</time>
      </trkpt>
      <trkpt lat="44.76211" lon="4.20829">
        <ele>1165.74</ele>
        <time>2023-07-27T14:40:26Z</time>
      </trkpt>
      <trkpt lat="44.76231" lon="4.20823">
        <ele>1166.22</ele>
        <time>2023-07-27T14:40:44Z</time>
      </trkpt>
      <trkpt lat="44.76237" lon="4.20827">
        <ele>1168.14</ele>
        <time>2023-07-27T14:41:09Z</time>
      </trkpt>
      <trkpt lat="44.76247" lon="4.20831">
        <ele>1196.5</ele>
        <time>2023-07-27T14:41:33Z</time>
      </trkpt>
      <trkpt lat="44.7624" lon="4.20826">
        <ele>1200.82</ele>
        <time>2023-07-27T14:41:49Z</time>
      </trkpt>
      <trkpt lat="44.76243" lon="4.2082">
        <ele>1209.48</ele>
        <time>2023-07-27T14:42:09Z</time>
      </trkpt>
      <trkpt lat="44.76244" lon="4.2082">
        <ele>1213.8</ele>
        <time>2023-07-27T14:42:31Z</time>
      </trkpt>
      <trkpt lat="44.76239" lon="4.20825">
        <ele>1213.8</ele>
        <time>2023-07-27T14:42:45Z</time>
      </trkpt>
      <trkpt lat="44.76234" lon="4.20838">
        <ele>1213.32</ele>
        <time>2023-07-27T14:42:57Z</time>
      </trkpt>
      <trkpt lat="44.76228" lon="4.20851">
        <ele>1210.44</ele>
        <time>2023-07-27T14:43:16Z</time>
      </trkpt>
      <trkpt lat="44.76223" lon="4.20859">
        <ele>1209</ele>
        <time>2023-07-27T14:43:30Z</time>
      </trkpt>
      <trkpt lat="44.76216" lon="4.20881">
        <ele>1206.11</ele>
        <time>2023-07-27T14:43:44Z</time>
      </trkpt>
      <trkpt lat="44.76207" lon="4.20886">
        <ele>1202.27</ele>
        <time>2023-07-27T14:43:51Z</time>
      </trkpt>
      <trkpt lat="44.762" lon="4.20905">
        <ele>1194.09</ele>
        <time>2023-07-27T14:44:04Z</time>
      </trkpt>
      <trkpt lat="44.76197" lon="4.20912">
        <ele>1193.13</ele>
        <time>2023-07-27T14:44:09Z</time>
      </trkpt>
      <trkpt lat="44.76188" lon="4.20931">
        <ele>1191.21</ele>
        <time>2023-07-27T14:44:23Z</time>
      </trkpt>
      <trkpt lat="44.76175" lon="4.20952">
        <ele>1189.77</ele>
        <time>2023-07-27T14:44:38Z</time>
      </trkpt>
      <trkpt lat="44.76171" lon="4.20967">
        <ele>1187.37</ele>
        <time>2023-07-27T14:44:45Z</time>
      </trkpt>
      <trkpt lat="44.76171" lon="4.20979">
        <ele>1186.88</ele>
        <time>2023-07-27T14:44:50Z</time>
      </trkpt>
      <trkpt lat="44.76173" lon="4.21001">
        <ele>1185.44</ele>
        <time>2023-07-27T14:45:03Z</time>
      </trkpt>
      <trkpt lat="44.76174" lon="4.2102">
        <ele>1184.96</ele>
        <time>2023-07-27T14:45:14Z</time>
      </trkpt>
      <trkpt lat="44.76171" lon="4.21042">
        <ele>1184</ele>
        <time>2023-07-27T14:45:27Z</time>
      </trkpt>
      <trkpt lat="44.76171" lon="4.21047">
        <ele>1184</ele>
        <time>2023-07-27T14:45:30Z</time>
      </trkpt>
      <trkpt lat="44.76169" lon="4.21055">
        <ele>1184</ele>
        <time>2023-07-27T14:45:34Z</time>
      </trkpt>
      <trkpt lat="44.76166" lon="4.21066">
        <ele>1184</ele>
        <time>2023-07-27T14:45:42Z</time>
      </trkpt>
      <trkpt lat="44.76162" lon="4.21082">
        <ele>1184</ele>
        <time>2023-07-27T14:45:54Z</time>
      </trkpt>
      <trkpt lat="44.76162" lon="4.21088">
        <ele>1184.48</ele>
        <time>2023-07-27T14:45:58Z</time>
      </trkpt>
      <trkpt lat="44.76166" lon="4.21106">
        <ele>1184.96</ele>
        <time>2023-07-27T14:46:09Z</time>
      </trkpt>
      <trkpt lat="44.76166" lon="4.21108">
        <ele>1184.96</ele>
        <time>2023-07-27T14:46:10Z</time>
      </trkpt>
      <trkpt lat="44.76167" lon="4.21114">
        <ele>1185.44</ele>
        <time>2023-07-27T14:46:14Z</time>
      </trkpt>
      <trkpt lat="44.7617" lon="4.21126">
        <ele>1185.92</ele>
        <time>2023-07-27T14:46:24Z</time>
      </trkpt>
      <trkpt lat="44.76184" lon="4.2114">
        <ele>1188.33</ele>
        <time>2023-07-27T14:46:37Z</time>
      </trkpt>
      <trkpt lat="44.76193" lon="4.21146">
        <ele>1190.25</ele>
        <time>2023-07-27T14:46:45Z</time>
      </trkpt>
      <trkpt lat="44.76197" lon="4.21137">
        <ele>1192.17</ele>
        <time>2023-07-27T14:46:56Z</time>
      </trkpt>
      <trkpt lat="44.76195" lon="4.21128">
        <ele>1194.58</ele>
        <time>2023-07-27T14:47:04Z</time>
      </trkpt>
      <trkpt lat="44.76196" lon="4.21114">
        <ele>1195.54</ele>
        <time>2023-07-27T14:47:12Z</time>
      </trkpt>
      <trkpt lat="44.76204" lon="4.21099">
        <ele>1196.02</ele>
        <time>2023-07-27T14:47:24Z</time>
      </trkpt>
      <trkpt lat="44.76208" lon="4.21102">
        <ele>1196.98</ele>
        <time>2023-07-27T14:47:32Z</time>
      </trkpt>
      <trkpt lat="44.76209" lon="4.21104">
        <ele>1196.98</ele>
        <time>2023-07-27T14:47:35Z</time>
      </trkpt>
      <trkpt lat="44.76211" lon="4.21108">
        <ele>1197.46</ele>
        <time>2023-07-27T14:47:39Z</time>
      </trkpt>
      <trkpt lat="44.76218" lon="4.2112">
        <ele>1199.38</ele>
        <time>2023-07-27T14:47:50Z</time>
      </trkpt>
      <trkpt lat="44.76222" lon="4.21123">
        <ele>1199.86</ele>
        <time>2023-07-27T14:47:55Z</time>
      </trkpt>
      <trkpt lat="44.7623" lon="4.21127">
        <ele>1200.34</ele>
        <time>2023-07-27T14:48:05Z</time>
      </trkpt>
      <trkpt lat="44.76245" lon="4.21136">
        <ele>1201.3</ele>
        <time>2023-07-27T14:48:20Z</time>
      </trkpt>
      <trkpt lat="44.7626" lon="4.21146">
        <ele>1202.75</ele>
        <time>2023-07-27T14:48:36Z</time>
      </trkpt>
      <trkpt lat="44.76277" lon="4.21149">
        <ele>1205.63</ele>
        <time>2023-07-27T14:48:50Z</time>
      </trkpt>
      <trkpt lat="44.76292" lon="4.21153">
        <ele>1207.55</ele>
        <time>2023-07-27T14:49:05Z</time>
      </trkpt>
      <trkpt lat="44.76315" lon="4.21154">
        <ele>1209</ele>
        <time>2023-07-27T14:49:21Z</time>
      </trkpt>
      <trkpt lat="44.76325" lon="4.21157">
        <ele>1209.48</ele>
        <time>2023-07-27T14:49:28Z</time>
      </trkpt>
      <trkpt lat="44.7633" lon="4.21165">
        <ele>1209.96</ele>
        <time>2023-07-27T14:49:34Z</time>
      </trkpt>
      <trkpt lat="44.76346" lon="4.21167">
        <ele>1212.36</ele>
        <time>2023-07-27T14:49:47Z</time>
      </trkpt>
      <trkpt lat="44.76364" lon="4.21176">
        <ele>1215.72</ele>
        <time>2023-07-27T14:50:04Z</time>
      </trkpt>
      <trkpt lat="44.76367" lon="4.21177">
        <ele>1216.21</ele>
        <time>2023-07-27T14:50:07Z</time>
      </trkpt>
      <trkpt lat="44.7639" lon="4.21184">
        <ele>1220.53</ele>
        <time>2023-07-27T14:50:23Z</time>
      </trkpt>
      <trkpt lat="44.76408" lon="4.21188">
        <ele>1224.38</ele>
        <time>2023-07-27T14:50:35Z</time>
      </trkpt>
      <trkpt lat="44.7642" lon="4.21188">
        <ele>1225.82</ele>
        <time>2023-07-27T14:50:43Z</time>
      </trkpt>
      <trkpt lat="44.76421" lon="4.21187">
        <ele>1225.82</ele>
        <time>2023-07-27T14:50:44Z</time>
      </trkpt>
      <trkpt lat="44.76434" lon="4.2119">
        <ele>1227.26</ele>
        <time>2023-07-27T14:50:56Z</time>
      </trkpt>
      <trkpt lat="44.76445" lon="4.21193">
        <ele>1228.22</ele>
        <time>2023-07-27T14:51:04Z</time>
      </trkpt>
      <trkpt lat="44.7646" lon="4.21202">
        <ele>1228.7</ele>
        <time>2023-07-27T14:51:15Z</time>
      </trkpt>
      <trkpt lat="44.76461" lon="4.21205">
        <ele>1228.7</ele>
        <time>2023-07-27T14:51:19Z</time>
      </trkpt>
      <trkpt lat="44.76474" lon="4.21209">
        <ele>1228.7</ele>
        <time>2023-07-27T14:51:29Z</time>
      </trkpt>
      <trkpt lat="44.76482" lon="4.2121">
        <ele>1228.22</ele>
        <time>2023-07-27T14:51:38Z</time>
      </trkpt>
      <trkpt lat="44.76481" lon="4.21209">
        <ele>1227.74</ele>
        <time>2023-07-27T14:51:54Z</time>
      </trkpt>
      <trkpt lat="44.76477" lon="4.21209">
        <ele>1227.74</ele>
        <time>2023-07-27T14:52:12Z</time>
      </trkpt>
      <trkpt lat="44.76476" lon="4.21208">
        <ele>1228.7</ele>
        <time>2023-07-27T14:52:29Z</time>
      </trkpt>
      <trkpt lat="44.76475" lon="4.21206">
        <ele>1230.14</ele>
        <time>2023-07-27T14:53:13Z</time>
      </trkpt>
      <trkpt lat="44.76475" lon="4.21206">
        <ele>1230.14</ele>
        <time>2023-07-27T14:53:51Z</time>
      </trkpt>
      <trkpt lat="44.76475" lon="4.21206">
        <ele>1230.14</ele>
        <time>2023-07-27T14:54:24Z</time>
      </trkpt>
      <trkpt lat="44.76475" lon="4.21206">
        <ele>1229.66</ele>
        <time>2023-07-27T14:54:50Z</time>
      </trkpt>
      <trkpt lat="44.76475" lon="4.21206">
        <ele>1229.18</ele>
        <time>2023-07-27T14:55:19Z</time>
      </trkpt>
      <trkpt lat="44.76475" lon="4.21206">
        <ele>1229.18</ele>
        <time>2023-07-27T14:55:43Z</time>
      </trkpt>
      <trkpt lat="44.76475" lon="4.21206">
        <ele>1229.18</ele>
        <time>2023-07-27T14:56:10Z</time>
      </trkpt>
      <trkpt lat="44.76475" lon="4.21207">
        <ele>1229.18</ele>
        <time>2023-07-27T14:56:40Z</time>
      </trkpt>
      <trkpt lat="44.76475" lon="4.21207">
        <ele>1229.18</ele>
        <time>2023-07-27T14:56:58Z</time>
      </trkpt>
      <trkpt lat="44.76476" lon="4.21208">
        <ele>1229.18</ele>
        <time>2023-07-27T14:57:05Z</time>
      </trkpt>
      <trkpt lat="44.76501" lon="4.2123">
        <ele>1229.18</ele>
        <time>2023-07-27T14:57:25Z</time>
      </trkpt>
      <trkpt lat="44.76522" lon="4.2124">
        <ele>1229.66</ele>
        <time>2023-07-27T14:57:40Z</time>
      </trkpt>
      <trkpt lat="44.7654" lon="4.21273">
        <ele>1230.62</ele>
        <time>2023-07-27T14:57:59Z</time>
      </trkpt>
      <trkpt lat="44.76556" lon="4.21296">
        <ele>1231.11</ele>
        <time>2023-07-27T14:58:16Z</time>
      </trkpt>
      <trkpt lat="44.76574" lon="4.21323">
        <ele>1233.99</ele>
        <time>2023-07-27T14:58:37Z</time>
      </trkpt>
      <trkpt lat="44.7659" lon="4.21341">
        <ele>1237.35</ele>
        <time>2023-07-27T14:58:53Z</time>
      </trkpt>
      <trkpt lat="44.76612" lon="4.21361">
        <ele>1240.72</ele>
        <time>2023-07-27T14:59:14Z</time>
      </trkpt>
      <trkpt lat="44.76631" lon="4.21382">
        <ele>1242.64</ele>
        <time>2023-07-27T14:59:32Z</time>
      </trkpt>
      <trkpt lat="44.76649" lon="4.21409">
        <ele>1245.04</ele>
        <time>2023-07-27T14:59:51Z</time>
      </trkpt>
      <trkpt lat="44.76673" lon="4.2142">
        <ele>1243.12</ele>
        <time>2023-07-27T15:00:09Z</time>
      </trkpt>
      <trkpt lat="44.76697" lon="4.21434">
        <ele>1242.64</ele>
        <time>2023-07-27T15:00:27Z</time>
      </trkpt>
      <trkpt lat="44.76712" lon="4.21451">
        <ele>1241.68</ele>
        <time>2023-07-27T15:00:43Z</time>
      </trkpt>
      <trkpt lat="44.76727" lon="4.21474">
        <ele>1239.76</ele>
        <time>2023-07-27T15:00:59Z</time>
      </trkpt>
      <trkpt lat="44.76744" lon="4.21488">
        <ele>1239.28</ele>
        <time>2023-07-27T15:01:14Z</time>
      </trkpt>
      <trkpt lat="44.76766" lon="4.21499">
        <ele>1237.35</ele>
        <time>2023-07-27T15:01:31Z</time>
      </trkpt>
      <trkpt lat="44.76787" lon="4.21512">
        <ele>1234.95</ele>
        <time>2023-07-27T15:01:48Z</time>
      </trkpt>
      <trkpt lat="44.76811" lon="4.21515">
        <ele>1229.18</ele>
        <time>2023-07-27T15:02:06Z</time>
      </trkpt>
      <trkpt lat="44.76831" lon="4.21519">
        <ele>1226.78</ele>
        <time>2023-07-27T15:02:20Z</time>
      </trkpt>
      <trkpt lat="44.7685" lon="4.21518">
        <ele>1226.78</ele>
        <time>2023-07-27T15:02:35Z</time>
      </trkpt>
      <trkpt lat="44.76874" lon="4.21515">
        <ele>1228.22</ele>
        <time>2023-07-27T15:02:53Z</time>
      </trkpt>
      <trkpt lat="44.76896" lon="4.21504">
        <ele>1232.07</ele>
        <time>2023-07-27T15:03:12Z</time>
      </trkpt>
      <trkpt lat="44.76905" lon="4.21497">
        <ele>1232.55</ele>
        <time>2023-07-27T15:03:26Z</time>
      </trkpt>
      <trkpt lat="44.76927" lon="4.21478">
        <ele>1233.51</ele>
        <time>2023-07-27T15:03:45Z</time>
      </trkpt>
      <trkpt lat="44.76938" lon="4.21466">
        <ele>1234.47</ele>
        <time>2023-07-27T15:03:54Z</time>
      </trkpt>
      <trkpt lat="44.76943" lon="4.2146">
        <ele>1236.87</ele>
        <time>2023-07-27T15:04:00Z</time>
      </trkpt>
      <trkpt lat="44.76959" lon="4.21452">
        <ele>1238.32</ele>
        <time>2023-07-27T15:04:12Z</time>
      </trkpt>
      <trkpt lat="44.7697" lon="4.21447">
        <ele>1240.72</ele>
        <time>2023-07-27T15:04:23Z</time>
      </trkpt>
      <trkpt lat="44.76983" lon="4.21442">
        <ele>1242.16</ele>
        <time>2023-07-27T15:04:32Z</time>
      </trkpt>
      <trkpt lat="44.77001" lon="4.21439">
        <ele>1241.68</ele>
        <time>2023-07-27T15:04:45Z</time>
      </trkpt>
      <trkpt lat="44.77013" lon="4.21439">
        <ele>1243.12</ele>
        <time>2023-07-27T15:04:54Z</time>
      </trkpt>
      <trkpt lat="44.77024" lon="4.21438">
        <ele>1244.56</ele>
        <time>2023-07-27T15:05:03Z</time>
      </trkpt>
      <trkpt lat="44.77038" lon="4.21439">
        <ele>1245.53</ele>
        <time>2023-07-27T15:05:14Z</time>
      </trkpt>
      <trkpt lat="44.77051" lon="4.21448">
        <ele>1245.53</ele>
        <time>2023-07-27T15:05:25Z</time>
      </trkpt>
      <trkpt lat="44.77062" lon="4.21463">
        <ele>1246.01</ele>
        <time>2023-07-27T15:05:36Z</time>
      </trkpt>
      <trkpt lat="44.77077" lon="4.21477">
        <ele>1246.01</ele>
        <time>2023-07-27T15:05:49Z</time>
      </trkpt>
      <trkpt lat="44.77089" lon="4.2149">
        <ele>1247.45</ele>
        <time>2023-07-27T15:06:00Z</time>
      </trkpt>
      <trkpt lat="44.77101" lon="4.21502">
        <ele>1248.41</ele>
        <time>2023-07-27T15:06:11Z</time>
      </trkpt>
      <trkpt lat="44.77115" lon="4.21515">
        <ele>1249.85</ele>
        <time>2023-07-27T15:06:22Z</time>
      </trkpt>
      <trkpt lat="44.77126" lon="4.21526">
        <ele>1250.81</ele>
        <time>2023-07-27T15:06:32Z</time>
      </trkpt>
      <trkpt lat="44.77129" lon="4.21529">
        <ele>1250.81</ele>
        <time>2023-07-27T15:06:34Z</time>
      </trkpt>
      <trkpt lat="44.77146" lon="4.21545">
        <ele>1253.22</ele>
        <time>2023-07-27T15:06:47Z</time>
      </trkpt>
      <trkpt lat="44.77154" lon="4.21554">
        <ele>1254.18</ele>
        <time>2023-07-27T15:06:57Z</time>
      </trkpt>
      <trkpt lat="44.77163" lon="4.21569">
        <ele>1255.14</ele>
        <time>2023-07-27T15:07:07Z</time>
      </trkpt>
      <trkpt lat="44.77169" lon="4.21574">
        <ele>1255.14</ele>
        <time>2023-07-27T15:07:12Z</time>
      </trkpt>
      <trkpt lat="44.77172" lon="4.21582">
        <ele>1255.14</ele>
        <time>2023-07-27T15:07:28Z</time>
      </trkpt>
      <trkpt lat="44.7717" lon="4.21579">
        <ele>1255.14</ele>
        <time>2023-07-27T15:07:49Z</time>
      </trkpt>
      <trkpt lat="44.77169" lon="4.21581">
        <ele>1255.14</ele>
        <time>2023-07-27T15:07:52Z</time>
      </trkpt>
      <trkpt lat="44.77162" lon="4.21616">
        <ele>1256.1</ele>
        <time>2023-07-27T15:08:13Z</time>
      </trkpt>
      <trkpt lat="44.77155" lon="4.21652">
        <ele>1258.02</ele>
        <time>2023-07-27T15:08:34Z</time>
      </trkpt>
      <trkpt lat="44.77159" lon="4.21679">
        <ele>1259.94</ele>
        <time>2023-07-27T15:08:52Z</time>
      </trkpt>
      <trkpt lat="44.77173" lon="4.21709">
        <ele>1259.94</ele>
        <time>2023-07-27T15:09:11Z</time>
      </trkpt>
      <trkpt lat="44.77189" lon="4.21739">
        <ele>1261.39</ele>
        <time>2023-07-27T15:09:32Z</time>
      </trkpt>
      <trkpt lat="44.77209" lon="4.21766">
        <ele>1261.39</ele>
        <time>2023-07-27T15:09:52Z</time>
      </trkpt>
      <trkpt lat="44.77221" lon="4.21795">
        <ele>1261.87</ele>
        <time>2023-07-27T15:10:10Z</time>
      </trkpt>
      <trkpt lat="44.77229" lon="4.21832">
        <ele>1263.31</ele>
        <time>2023-07-27T15:10:31Z</time>
      </trkpt>
      <trkpt lat="44.77239" lon="4.21867">
        <ele>1265.23</ele>
        <time>2023-07-27T15:10:52Z</time>
      </trkpt>
      <trkpt lat="44.77239" lon="4.21876">
        <ele>1265.71</ele>
        <time>2023-07-27T15:10:57Z</time>
      </trkpt>
      <trkpt lat="44.77229" lon="4.21915">
        <ele>1265.23</ele>
        <time>2023-07-27T15:11:18Z</time>
      </trkpt>
      <trkpt lat="44.77229" lon="4.2195">
        <ele>1265.23</ele>
        <time>2023-07-27T15:11:38Z</time>
      </trkpt>
      <trkpt lat="44.77233" lon="4.21987">
        <ele>1264.75</ele>
        <time>2023-07-27T15:11:58Z</time>
      </trkpt>
      <trkpt lat="44.77236" lon="4.22025">
        <ele>1265.71</ele>
        <time>2023-07-27T15:12:20Z</time>
      </trkpt>
      <trkpt lat="44.7724" lon="4.22063">
        <ele>1267.64</ele>
        <time>2023-07-27T15:12:41Z</time>
      </trkpt>
      <trkpt lat="44.77239" lon="4.22113">
        <ele>1269.56</ele>
        <time>2023-07-27T15:13:06Z</time>
      </trkpt>
      <trkpt lat="44.77239" lon="4.22127">
        <ele>1271</ele>
        <time>2023-07-27T15:13:21Z</time>
      </trkpt>
      <trkpt lat="44.77245" lon="4.22167">
        <ele>1273.4</ele>
        <time>2023-07-27T15:13:44Z</time>
      </trkpt>
      <trkpt lat="44.77249" lon="4.22205">
        <ele>1275.33</ele>
        <time>2023-07-27T15:14:05Z</time>
      </trkpt>
      <trkpt lat="44.7725" lon="4.22234">
        <ele>1278.21</ele>
        <time>2023-07-27T15:14:24Z</time>
      </trkpt>
      <trkpt lat="44.77249" lon="4.22264">
        <ele>1280.13</ele>
        <time>2023-07-27T15:14:42Z</time>
      </trkpt>
      <trkpt lat="44.77251" lon="4.22295">
        <ele>1281.09</ele>
        <time>2023-07-27T15:15:00Z</time>
      </trkpt>
      <trkpt lat="44.7725" lon="4.22319">
        <ele>1282.54</ele>
        <time>2023-07-27T15:15:16Z</time>
      </trkpt>
      <trkpt lat="44.77249" lon="4.22318">
        <ele>1282.54</ele>
        <time>2023-07-27T15:15:41Z</time>
      </trkpt>
      <trkpt lat="44.77249" lon="4.22316">
        <ele>1283.5</ele>
        <time>2023-07-27T15:16:06Z</time>
      </trkpt>
      <trkpt lat="44.77248" lon="4.22317">
        <ele>1283.5</ele>
        <time>2023-07-27T15:16:32Z</time>
      </trkpt>
      <trkpt lat="44.77247" lon="4.22318">
        <ele>1283.5</ele>
        <time>2023-07-27T15:16:35Z</time>
      </trkpt>
      <trkpt lat="44.77245" lon="4.22325">
        <ele>1283.02</ele>
        <time>2023-07-27T15:16:53Z</time>
      </trkpt>
      <trkpt lat="44.77245" lon="4.22326">
        <ele>1283.02</ele>
        <time>2023-07-27T15:16:58Z</time>
      </trkpt>
      <trkpt lat="44.77239" lon="4.22365">
        <ele>1281.09</ele>
        <time>2023-07-27T15:17:19Z</time>
      </trkpt>
      <trkpt lat="44.77236" lon="4.22391">
        <ele>1278.69</ele>
        <time>2023-07-27T15:17:36Z</time>
      </trkpt>
      <trkpt lat="44.77236" lon="4.22393">
        <ele>1278.69</ele>
        <time>2023-07-27T15:17:37Z</time>
      </trkpt>
      <trkpt lat="44.77242" lon="4.22429">
        <ele>1275.81</ele>
        <time>2023-07-27T15:17:57Z</time>
      </trkpt>
      <trkpt lat="44.77242" lon="4.22454">
        <ele>1274.36</ele>
        <time>2023-07-27T15:18:10Z</time>
      </trkpt>
      <trkpt lat="44.77238" lon="4.22463">
        <ele>1273.88</ele>
        <time>2023-07-27T15:18:15Z</time>
      </trkpt>
      <trkpt lat="44.77226" lon="4.22497">
        <ele>1272.92</ele>
        <time>2023-07-27T15:18:34Z</time>
      </trkpt>
      <trkpt lat="44.77221" lon="4.2253">
        <ele>1272.44</ele>
        <time>2023-07-27T15:18:52Z</time>
      </trkpt>
      <trkpt lat="44.7722" lon="4.22562">
        <ele>1271</ele>
        <time>2023-07-27T15:19:10Z</time>
      </trkpt>
      <trkpt lat="44.77221" lon="4.22574">
        <ele>1270.04</ele>
        <time>2023-07-27T15:19:17Z</time>
      </trkpt>
      <trkpt lat="44.77234" lon="4.22597">
        <ele>1269.08</ele>
        <time>2023-07-27T15:19:32Z</time>
      </trkpt>
      <trkpt lat="44.77245" lon="4.22606">
        <ele>1267.64</ele>
        <time>2023-07-27T15:19:42Z</time>
      </trkpt>
      <trkpt lat="44.77254" lon="4.22621">
        <ele>1267.16</ele>
        <time>2023-07-27T15:19:52Z</time>
      </trkpt>
      <trkpt lat="44.77264" lon="4.22637">
        <ele>1266.19</ele>
        <time>2023-07-27T15:20:03Z</time>
      </trkpt>
      <trkpt lat="44.77275" lon="4.22651">
        <ele>1266.67</ele>
        <time>2023-07-27T15:20:15Z</time>
      </trkpt>
      <trkpt lat="44.77283" lon="4.2266">
        <ele>1267.16</ele>
        <time>2023-07-27T15:20:23Z</time>
      </trkpt>
      <trkpt lat="44.77296" lon="4.22671">
        <ele>1266.19</ele>
        <time>2023-07-27T15:20:33Z</time>
      </trkpt>
      <trkpt lat="44.77307" lon="4.22676">
        <ele>1265.23</ele>
        <time>2023-07-27T15:20:42Z</time>
      </trkpt>
      <trkpt lat="44.77312" lon="4.22685">
        <ele>1264.75</ele>
        <time>2023-07-27T15:20:59Z</time>
      </trkpt>
      <trkpt lat="44.77316" lon="4.22695">
        <ele>1263.79</ele>
        <time>2023-07-27T15:21:17Z</time>
      </trkpt>
      <trkpt lat="44.77316" lon="4.22697">
        <ele>1263.79</ele>
        <time>2023-07-27T15:21:40Z</time>
      </trkpt>
      <trkpt lat="44.77321" lon="4.22716">
        <ele>1263.31</ele>
        <time>2023-07-27T15:21:58Z</time>
      </trkpt>
      <trkpt lat="44.77322" lon="4.22726">
        <ele>1263.31</ele>
        <time>2023-07-27T15:22:03Z</time>
      </trkpt>
      <trkpt lat="44.77343" lon="4.22754">
        <ele>1262.83</ele>
        <time>2023-07-27T15:22:24Z</time>
      </trkpt>
      <trkpt lat="44.77355" lon="4.22774">
        <ele>1260.91</ele>
        <time>2023-07-27T15:22:44Z</time>
      </trkpt>
      <trkpt lat="44.77367" lon="4.22789">
        <ele>1258.5</ele>
        <time>2023-07-27T15:23:02Z</time>
      </trkpt>
      <trkpt lat="44.77387" lon="4.22809">
        <ele>1258.5</ele>
        <time>2023-07-27T15:23:20Z</time>
      </trkpt>
      <trkpt lat="44.77407" lon="4.22819">
        <ele>1258.5</ele>
        <time>2023-07-27T15:23:35Z</time>
      </trkpt>
      <trkpt lat="44.77436" lon="4.2283">
        <ele>1257.54</ele>
        <time>2023-07-27T15:23:57Z</time>
      </trkpt>
      <trkpt lat="44.7746" lon="4.22847">
        <ele>1258.98</ele>
        <time>2023-07-27T15:24:17Z</time>
      </trkpt>
      <trkpt lat="44.77486" lon="4.22845">
        <ele>1261.87</ele>
        <time>2023-07-27T15:24:40Z</time>
      </trkpt>
      <trkpt lat="44.77514" lon="4.22837">
        <ele>1266.19</ele>
        <time>2023-07-27T15:25:01Z</time>
      </trkpt>
      <trkpt lat="44.77539" lon="4.22828">
        <ele>1272.44</ele>
        <time>2023-07-27T15:25:24Z</time>
      </trkpt>
      <trkpt lat="44.77542" lon="4.2283">
        <ele>1273.88</ele>
        <time>2023-07-27T15:25:29Z</time>
      </trkpt>
      <trkpt lat="44.77568" lon="4.22836">
        <ele>1280.13</ele>
        <time>2023-07-27T15:25:53Z</time>
      </trkpt>
      <trkpt lat="44.7759" lon="4.2285">
        <ele>1285.42</ele>
        <time>2023-07-27T15:26:15Z</time>
      </trkpt>
      <trkpt lat="44.77611" lon="4.22866">
        <ele>1290.23</ele>
        <time>2023-07-27T15:26:36Z</time>
      </trkpt>
      <trkpt lat="44.77634" lon="4.22895">
        <ele>1292.15</ele>
        <time>2023-07-27T15:26:59Z</time>
      </trkpt>
      <trkpt lat="44.7765" lon="4.22918">
        <ele>1293.11</ele>
        <time>2023-07-27T15:27:19Z</time>
      </trkpt>
      <trkpt lat="44.77651" lon="4.22923">
        <ele>1291.19</ele>
        <time>2023-07-27T15:27:37Z</time>
      </trkpt>
      <trkpt lat="44.7765" lon="4.22921">
        <ele>1291.67</ele>
        <time>2023-07-27T15:28:03Z</time>
      </trkpt>
      <trkpt lat="44.7765" lon="4.22922">
        <ele>1291.67</ele>
        <time>2023-07-27T15:28:26Z</time>
      </trkpt>
      <trkpt lat="44.77651" lon="4.22924">
        <ele>1292.15</ele>
        <time>2023-07-27T15:28:52Z</time>
      </trkpt>
      <trkpt lat="44.77667" lon="4.22943">
        <ele>1290.23</ele>
        <time>2023-07-27T15:29:13Z</time>
      </trkpt>
      <trkpt lat="44.7767" lon="4.22976">
        <ele>1291.19</ele>
        <time>2023-07-27T15:29:34Z</time>
      </trkpt>
      <trkpt lat="44.77683" lon="4.23003">
        <ele>1291.19</ele>
        <time>2023-07-27T15:29:54Z</time>
      </trkpt>
      <trkpt lat="44.77688" lon="4.23019">
        <ele>1291.19</ele>
        <time>2023-07-27T15:30:12Z</time>
      </trkpt>
      <trkpt lat="44.77708" lon="4.23029">
        <ele>1289.27</ele>
        <time>2023-07-27T15:30:36Z</time>
      </trkpt>
      <trkpt lat="44.77736" lon="4.23046">
        <ele>1286.38</ele>
        <time>2023-07-27T15:30:55Z</time>
      </trkpt>
      <trkpt lat="44.77761" lon="4.23064">
        <ele>1282.54</ele>
        <time>2023-07-27T15:31:18Z</time>
      </trkpt>
      <trkpt lat="44.77794" lon="4.23065">
        <ele>1278.21</ele>
        <time>2023-07-27T15:31:40Z</time>
      </trkpt>
      <trkpt lat="44.77817" lon="4.2309">
        <ele>1280.13</ele>
        <time>2023-07-27T15:31:58Z</time>
      </trkpt>
      <trkpt lat="44.77851" lon="4.23087">
        <ele>1277.73</ele>
        <time>2023-07-27T15:32:20Z</time>
      </trkpt>
      <trkpt lat="44.77882" lon="4.2307">
        <ele>1277.73</ele>
        <time>2023-07-27T15:32:43Z</time>
      </trkpt>
      <trkpt lat="44.77906" lon="4.23071">
        <ele>1280.13</ele>
        <time>2023-07-27T15:33:04Z</time>
      </trkpt>
      <trkpt lat="44.77937" lon="4.23066">
        <ele>1280.13</ele>
        <time>2023-07-27T15:33:26Z</time>
      </trkpt>
      <trkpt lat="44.77957" lon="4.23045">
        <ele>1283.98</ele>
        <time>2023-07-27T15:33:48Z</time>
      </trkpt>
      <trkpt lat="44.77987" lon="4.23025">
        <ele>1283.98</ele>
        <time>2023-07-27T15:34:12Z</time>
      </trkpt>
      <trkpt lat="44.78013" lon="4.23014">
        <ele>1282.06</ele>
        <time>2023-07-27T15:34:34Z</time>
      </trkpt>
      <trkpt lat="44.78045" lon="4.23005">
        <ele>1280.13</ele>
        <time>2023-07-27T15:34:56Z</time>
      </trkpt>
      <trkpt lat="44.78069" lon="4.23008">
        <ele>1275.33</ele>
        <time>2023-07-27T15:35:20Z</time>
      </trkpt>
      <trkpt lat="44.78103" lon="4.22995">
        <ele>1274.85</ele>
        <time>2023-07-27T15:35:43Z</time>
      </trkpt>
      <trkpt lat="44.78108" lon="4.2299">
        <ele>1274.85</ele>
        <time>2023-07-27T15:35:49Z</time>
      </trkpt>
      <trkpt lat="44.7814" lon="4.22991">
        <ele>1277.73</ele>
        <time>2023-07-27T15:36:15Z</time>
      </trkpt>
      <trkpt lat="44.78167" lon="4.22998">
        <ele>1279.65</ele>
        <time>2023-07-27T15:36:42Z</time>
      </trkpt>
      <trkpt lat="44.78201" lon="4.22992">
        <ele>1279.17</ele>
        <time>2023-07-27T15:37:05Z</time>
      </trkpt>
      <trkpt lat="44.78224" lon="4.22991">
        <ele>1276.29</ele>
        <time>2023-07-27T15:37:27Z</time>
      </trkpt>
      <trkpt lat="44.78231" lon="4.22992">
        <ele>1275.81</ele>
        <time>2023-07-27T15:37:35Z</time>
      </trkpt>
      <trkpt lat="44.78261" lon="4.22987">
        <ele>1272.92</ele>
        <time>2023-07-27T15:37:59Z</time>
      </trkpt>
      <trkpt lat="44.78284" lon="4.2298">
        <ele>1273.88</ele>
        <time>2023-07-27T15:38:21Z</time>
      </trkpt>
      <trkpt lat="44.78321" lon="4.22972">
        <ele>1272.44</ele>
        <time>2023-07-27T15:38:46Z</time>
      </trkpt>
      <trkpt lat="44.7835" lon="4.22967">
        <ele>1274.85</ele>
        <time>2023-07-27T15:39:09Z</time>
      </trkpt>
      <trkpt lat="44.78381" lon="4.22959">
        <ele>1276.29</ele>
        <time>2023-07-27T15:39:34Z</time>
      </trkpt>
      <trkpt lat="44.78405" lon="4.22956">
        <ele>1274.36</ele>
        <time>2023-07-27T15:40:00Z</time>
      </trkpt>
      <trkpt lat="44.78445" lon="4.22958">
        <ele>1270.04</ele>
        <time>2023-07-27T15:40:24Z</time>
      </trkpt>
      <trkpt lat="44.78486" lon="4.22955">
        <ele>1271</ele>
        <time>2023-07-27T15:40:48Z</time>
      </trkpt>
      <trkpt lat="44.78495" lon="4.22965">
        <ele>1270.52</ele>
        <time>2023-07-27T15:40:57Z</time>
      </trkpt>
      <trkpt lat="44.78516" lon="4.2297">
        <ele>1261.87</ele>
        <time>2023-07-27T15:41:13Z</time>
      </trkpt>
      <trkpt lat="44.78522" lon="4.22969">
        <ele>1260.91</ele>
        <time>2023-07-27T15:41:17Z</time>
      </trkpt>
      <trkpt lat="44.78549" lon="4.22968">
        <ele>1254.66</ele>
        <time>2023-07-27T15:41:36Z</time>
      </trkpt>
      <trkpt lat="44.7856" lon="4.22965">
        <ele>1253.22</ele>
        <time>2023-07-27T15:41:49Z</time>
      </trkpt>
      <trkpt lat="44.78559" lon="4.22966">
        <ele>1252.25</ele>
        <time>2023-07-27T15:42:16Z</time>
      </trkpt>
      <trkpt lat="44.78577" lon="4.22966">
        <ele>1250.81</ele>
        <time>2023-07-27T15:42:35Z</time>
      </trkpt>
      <trkpt lat="44.78597" lon="4.22964">
        <ele>1250.33</ele>
        <time>2023-07-27T15:42:50Z</time>
      </trkpt>
      <trkpt lat="44.78617" lon="4.22963">
        <ele>1248.89</ele>
        <time>2023-07-27T15:43:04Z</time>
      </trkpt>
      <trkpt lat="44.78644" lon="4.22955">
        <ele>1248.89</ele>
        <time>2023-07-27T15:43:22Z</time>
      </trkpt>
      <trkpt lat="44.78669" lon="4.22962">
        <ele>1246.01</ele>
        <time>2023-07-27T15:43:41Z</time>
      </trkpt>
      <trkpt lat="44.78694" lon="4.2298">
        <ele>1245.04</ele>
        <time>2023-07-27T15:44:00Z</time>
      </trkpt>
      <trkpt lat="44.78721" lon="4.22994">
        <ele>1246.49</ele>
        <time>2023-07-27T15:44:20Z</time>
      </trkpt>
      <trkpt lat="44.78748" lon="4.22992">
        <ele>1247.45</ele>
        <time>2023-07-27T15:44:39Z</time>
      </trkpt>
      <trkpt lat="44.78768" lon="4.22987">
        <ele>1248.89</ele>
        <time>2023-07-27T15:44:55Z</time>
      </trkpt>
      <trkpt lat="44.78786" lon="4.22977">
        <ele>1247.93</ele>
        <time>2023-07-27T15:45:09Z</time>
      </trkpt>
      <trkpt lat="44.788" lon="4.22963">
        <ele>1243.6</ele>
        <time>2023-07-27T15:45:27Z</time>
      </trkpt>
      <trkpt lat="44.78813" lon="4.22961">
        <ele>1238.32</ele>
        <time>2023-07-27T15:45:45Z</time>
      </trkpt>
      <trkpt lat="44.78834" lon="4.2295">
        <ele>1231.11</ele>
        <time>2023-07-27T15:46:02Z</time>
      </trkpt>
      <trkpt lat="44.78851" lon="4.22935">
        <ele>1230.14</ele>
        <time>2023-07-27T15:46:19Z</time>
      </trkpt>
      <trkpt lat="44.78849" lon="4.22931">
        <ele>1230.14</ele>
        <time>2023-07-27T15:46:39Z</time>
      </trkpt>
      <trkpt lat="44.78853" lon="4.22934">
        <ele>1230.14</ele>
        <time>2023-07-27T15:47:00Z</time>
      </trkpt>
      <trkpt lat="44.78856" lon="4.22921">
        <ele>1232.07</ele>
        <time>2023-07-27T15:47:18Z</time>
      </trkpt>
      <trkpt lat="44.78865" lon="4.22906">
        <ele>1230.62</ele>
        <time>2023-07-27T15:47:39Z</time>
      </trkpt>
      <trkpt lat="44.78873" lon="4.22898">
        <ele>1229.18</ele>
        <time>2023-07-27T15:47:47Z</time>
      </trkpt>
      <trkpt lat="44.78901" lon="4.22889">
        <ele>1222.93</ele>
        <time>2023-07-27T15:48:07Z</time>
      </trkpt>
      <trkpt lat="44.78904" lon="4.2289">
        <ele>1222.45</ele>
        <time>2023-07-27T15:48:13Z</time>
      </trkpt>
      <trkpt lat="44.78928" lon="4.22889">
        <ele>1221.97</ele>
        <time>2023-07-27T15:48:30Z</time>
      </trkpt>
      <trkpt lat="44.78954" lon="4.22876">
        <ele>1221.97</ele>
        <time>2023-07-27T15:48:48Z</time>
      </trkpt>
      <trkpt lat="44.78966" lon="4.22854">
        <ele>1221.97</ele>
        <time>2023-07-27T15:49:03Z</time>
      </trkpt>
      <trkpt lat="44.7898" lon="4.22829">
        <ele>1222.93</ele>
        <time>2023-07-27T15:49:20Z</time>
      </trkpt>
      <trkpt lat="44.78983" lon="4.22823">
        <ele>1223.42</ele>
        <time>2023-07-27T15:49:25Z</time>
      </trkpt>
      <trkpt lat="44.7899" lon="4.2279">
        <ele>1225.82</ele>
        <time>2023-07-27T15:49:45Z</time>
      </trkpt>
      <trkpt lat="44.78999" lon="4.22754">
        <ele>1227.26</ele>
        <time>2023-07-27T15:50:04Z</time>
      </trkpt>
      <trkpt lat="44.79008" lon="4.22717">
        <ele>1228.22</ele>
        <time>2023-07-27T15:50:25Z</time>
      </trkpt>
      <trkpt lat="44.79008" lon="4.22685">
        <ele>1227.74</ele>
        <time>2023-07-27T15:50:41Z</time>
      </trkpt>
      <trkpt lat="44.79004" lon="4.2265">
        <ele>1227.74</ele>
        <time>2023-07-27T15:50:59Z</time>
      </trkpt>
      <trkpt lat="44.78997" lon="4.22607">
        <ele>1232.07</ele>
        <time>2023-07-27T15:51:21Z</time>
      </trkpt>
      <trkpt lat="44.78996" lon="4.2257">
        <ele>1233.03</ele>
        <time>2023-07-27T15:51:40Z</time>
      </trkpt>
      <trkpt lat="44.79003" lon="4.22535">
        <ele>1234.95</ele>
        <time>2023-07-27T15:51:58Z</time>
      </trkpt>
      <trkpt lat="44.79009" lon="4.22531">
        <ele>1234.95</ele>
        <time>2023-07-27T15:52:16Z</time>
      </trkpt>
      <trkpt lat="44.79005" lon="4.22535">
        <ele>1236.39</ele>
        <time>2023-07-27T15:52:37Z</time>
      </trkpt>
      <trkpt lat="44.79004" lon="4.22538">
        <ele>1235.91</ele>
        <time>2023-07-27T15:52:58Z</time>
      </trkpt>
      <trkpt lat="44.79003" lon="4.2254">
        <ele>1235.91</ele>
        <time>2023-07-27T15:53:13Z</time>
      </trkpt>
      <trkpt lat="44.79002" lon="4.22541">
        <ele>1236.87</ele>
        <time>2023-07-27T15:53:27Z</time>
      </trkpt>
      <trkpt lat="44.79002" lon="4.22541">
        <ele>1237.35</ele>
        <time>2023-07-27T15:53:40Z</time>
      </trkpt>
    </trkseg>
  </trk>
</gpx>